<?xml version='1.0' encoding='UTF-8'?><gpx version="1.1" creator="JPX - https://github.com/jenetics/jpx" xmlns="http://www.topografix.com/GPX/1/1"><trk><trkseg><trkpt lat="46.0201881" lon="13.2836822"><ele>80.0</ele><time>2026-04-30T15:24:14.969Z</time></trkpt><trkpt lat="46.0201227" lon="13.2836365"><ele>80.0</ele><time>2026-04-30T15:24:18.97Z</time></trkpt><trkpt lat="46.0200612" lon="13.2836105"><ele>80.0</ele><time>2026-04-30T15:24:23.97Z</time></trkpt><trkpt lat="46.0200025" lon="13.2835639"><ele>80.0</ele><time>2026-04-30T15:24:26.97Z</time></trkpt><trkpt lat="46.0199403" lon="13.2835038"><ele>80.0</ele><time>2026-04-30T15:24:33.969Z</time></trkpt><trkpt lat="46.0199309" lon="13.2833715"><ele>80.0</ele><time>2026-04-30T15:24:35.969Z</time></trkpt><trkpt lat="46.0199379" lon="13.2832013"><ele>80.0</ele><time>2026-04-30T15:24:37.969Z</time></trkpt><trkpt lat="46.019944" lon="13.2831"><ele>80.0</ele><time>2026-04-30T15:24:38.97Z</time></trkpt><trkpt lat="46.01995" lon="13.2829962"><ele>80.0</ele><time>2026-04-30T15:24:39.969Z</time></trkpt><trkpt lat="46.0199587" lon="13.2828865"><ele>80.0</ele><time>2026-04-30T15:24:40.969Z</time></trkpt><trkpt lat="46.0199678" lon="13.2827709"><ele>80.0</ele><time>2026-04-30T15:24:41.97Z</time></trkpt><trkpt lat="46.0199778" lon="13.2826472"><ele>80.0</ele><time>2026-04-30T15:24:42.969Z</time></trkpt><trkpt lat="46.0199865" lon="13.2825256"><ele>80.0</ele><time>2026-04-30T15:24:43.97Z</time></trkpt><trkpt lat="46.0199938" lon="13.2824141"><ele>80.0</ele><time>2026-04-30T15:24:44.97Z</time></trkpt><trkpt lat="46.0200012" lon="13.2823019"><ele>80.0</ele><time>2026-04-30T15:24:45.969Z</time></trkpt><trkpt lat="46.0200114" lon="13.282184"><ele>80.0</ele><time>2026-04-30T15:24:46.97Z</time></trkpt><trkpt lat="46.0200218" lon="13.2820561"><ele>80.0</ele><time>2026-04-30T15:24:47.97Z</time></trkpt><trkpt lat="46.020035" lon="13.2819194"><ele>80.0</ele><time>2026-04-30T15:24:48.97Z</time></trkpt><trkpt lat="46.020045" lon="13.281777"><ele>80.0</ele><time>2026-04-30T15:24:49.97Z</time></trkpt><trkpt lat="46.0200588" lon="13.2816332"><ele>80.0</ele><time>2026-04-30T15:24:50.969Z</time></trkpt><trkpt lat="46.0200735" lon="13.2814926"><ele>80.0</ele><time>2026-04-30T15:24:51.97Z</time></trkpt><trkpt lat="46.0200862" lon="13.2813504"><ele>80.0</ele><time>2026-04-30T15:24:52.97Z</time></trkpt><trkpt lat="46.0200973" lon="13.2812112"><ele>80.0</ele><time>2026-04-30T15:24:53.97Z</time></trkpt><trkpt lat="46.0201085" lon="13.2810658"><ele>79.8</ele><time>2026-04-30T15:24:54.97Z</time></trkpt><trkpt lat="46.0201189" lon="13.2809174"><ele>79.6</ele><time>2026-04-30T15:24:55.969Z</time></trkpt><trkpt lat="46.0201304" lon="13.2807708"><ele>79.4</ele><time>2026-04-30T15:24:56.969Z</time></trkpt><trkpt lat="46.0201467" lon="13.280617"><ele>79.2</ele><time>2026-04-30T15:24:57.97Z</time></trkpt><trkpt lat="46.0201622" lon="13.280464"><ele>79.0</ele><time>2026-04-30T15:24:58.969Z</time></trkpt><trkpt lat="46.0201815" lon="13.2803123"><ele>79.0</ele><time>2026-04-30T15:24:59.97Z</time></trkpt><trkpt lat="46.0202061" lon="13.2801582"><ele>79.0</ele><time>2026-04-30T15:25:00.97Z</time></trkpt><trkpt lat="46.0202369" lon="13.2799895"><ele>79.0</ele><time>2026-04-30T15:25:01.97Z</time></trkpt><trkpt lat="46.0202657" lon="13.2798155"><ele>79.0</ele><time>2026-04-30T15:25:02.969Z</time></trkpt><trkpt lat="46.0202852" lon="13.2796496"><ele>79.0</ele><time>2026-04-30T15:25:03.97Z</time></trkpt><trkpt lat="46.0203068" lon="13.2794981"><ele>79.0</ele><time>2026-04-30T15:25:04.969Z</time></trkpt><trkpt lat="46.020327" lon="13.2793564"><ele>79.0</ele><time>2026-04-30T15:25:05.97Z</time></trkpt><trkpt lat="46.0203416" lon="13.2792215"><ele>79.0</ele><time>2026-04-30T15:25:06.97Z</time></trkpt><trkpt lat="46.0203543" lon="13.2790923"><ele>79.0</ele><time>2026-04-30T15:25:07.97Z</time></trkpt><trkpt lat="46.0203644" lon="13.278965"><ele>79.33333333333333</ele><time>2026-04-30T15:25:08.97Z</time></trkpt><trkpt lat="46.0203735" lon="13.2788366"><ele>79.66666666666666</ele><time>2026-04-30T15:25:09.969Z</time></trkpt><trkpt lat="46.0203873" lon="13.2787186"><ele>80.0</ele><time>2026-04-30T15:25:10.97Z</time></trkpt><trkpt lat="46.0204048" lon="13.2786091"><ele>80.33333333333333</ele><time>2026-04-30T15:25:11.97Z</time></trkpt><trkpt lat="46.0204398" lon="13.2785102"><ele>80.66666666666667</ele><time>2026-04-30T15:25:12.97Z</time></trkpt><trkpt lat="46.0204959" lon="13.2784259"><ele>81.0</ele><time>2026-04-30T15:25:13.97Z</time></trkpt><trkpt lat="46.0205689" lon="13.2783506"><ele>81.0</ele><time>2026-04-30T15:25:14.97Z</time></trkpt><trkpt lat="46.0206529" lon="13.2782823"><ele>81.0</ele><time>2026-04-30T15:25:15.969Z</time></trkpt><trkpt lat="46.020737" lon="13.2782116"><ele>81.0</ele><time>2026-04-30T15:25:16.969Z</time></trkpt><trkpt lat="46.0208199" lon="13.2781424"><ele>81.0</ele><time>2026-04-30T15:25:17.97Z</time></trkpt><trkpt lat="46.0209006" lon="13.2780791"><ele>81.0</ele><time>2026-04-30T15:25:18.97Z</time></trkpt><trkpt lat="46.0209735" lon="13.2780216"><ele>81.0</ele><time>2026-04-30T15:25:19.97Z</time></trkpt><trkpt lat="46.0210407" lon="13.2779834"><ele>81.0</ele><time>2026-04-30T15:25:20.97Z</time></trkpt><trkpt lat="46.0211047" lon="13.2779741"><ele>81.0</ele><time>2026-04-30T15:25:21.969Z</time></trkpt><trkpt lat="46.0211661" lon="13.2779977"><ele>81.0</ele><time>2026-04-30T15:25:22.969Z</time></trkpt><trkpt lat="46.0212202" lon="13.2780447"><ele>81.0</ele><time>2026-04-30T15:25:23.97Z</time></trkpt><trkpt lat="46.0212917" lon="13.2781806"><ele>81.0</ele><time>2026-04-30T15:25:25.97Z</time></trkpt><trkpt lat="46.0213033" lon="13.278277"><ele>81.0</ele><time>2026-04-30T15:25:26.97Z</time></trkpt><trkpt lat="46.0213122" lon="13.2783815"><ele>81.0</ele><time>2026-04-30T15:25:27.969Z</time></trkpt><trkpt lat="46.0213254" lon="13.2784909"><ele>81.0</ele><time>2026-04-30T15:25:28.969Z</time></trkpt><trkpt lat="46.0213445" lon="13.2785883"><ele>81.0</ele><time>2026-04-30T15:25:29.97Z</time></trkpt><trkpt lat="46.0213712" lon="13.278687"><ele>81.0</ele><time>2026-04-30T15:25:30.97Z</time></trkpt><trkpt lat="46.0214035" lon="13.2787755"><ele>81.0</ele><time>2026-04-30T15:25:31.97Z</time></trkpt><trkpt lat="46.02144" lon="13.278867"><ele>81.0</ele><time>2026-04-30T15:25:32.97Z</time></trkpt><trkpt lat="46.0214797" lon="13.2789556"><ele>81.0</ele><time>2026-04-30T15:25:33.969Z</time></trkpt><trkpt lat="46.0215253" lon="13.2790434"><ele>81.0</ele><time>2026-04-30T15:25:34.97Z</time></trkpt><trkpt lat="46.021571" lon="13.2791335"><ele>81.0</ele><time>2026-04-30T15:25:35.97Z</time></trkpt><trkpt lat="46.0216171" lon="13.2792236"><ele>81.0</ele><time>2026-04-30T15:25:36.97Z</time></trkpt><trkpt lat="46.0216553" lon="13.2793197"><ele>81.0</ele><time>2026-04-30T15:25:37.969Z</time></trkpt><trkpt lat="46.0216954" lon="13.2794123"><ele>81.0</ele><time>2026-04-30T15:25:38.969Z</time></trkpt><trkpt lat="46.0217423" lon="13.2794963"><ele>80.83333333333333</ele><time>2026-04-30T15:25:39.969Z</time></trkpt><trkpt lat="46.0217829" lon="13.2795908"><ele>80.66666666666667</ele><time>2026-04-30T15:25:40.97Z</time></trkpt><trkpt lat="46.0218333" lon="13.2796804"><ele>80.5</ele><time>2026-04-30T15:25:41.968Z</time></trkpt><trkpt lat="46.0218808" lon="13.2797699"><ele>80.33333333333334</ele><time>2026-04-30T15:25:42.969Z</time></trkpt><trkpt lat="46.0219302" lon="13.2798522"><ele>80.16666666666667</ele><time>2026-04-30T15:25:43.97Z</time></trkpt><trkpt lat="46.0219806" lon="13.2799291"><ele>80.0</ele><time>2026-04-30T15:25:44.97Z</time></trkpt><trkpt lat="46.0220279" lon="13.2800076"><ele>80.0</ele><time>2026-04-30T15:25:45.97Z</time></trkpt><trkpt lat="46.0220783" lon="13.2800859"><ele>80.0</ele><time>2026-04-30T15:25:46.97Z</time></trkpt><trkpt lat="46.0221321" lon="13.2801686"><ele>80.0</ele><time>2026-04-30T15:25:47.97Z</time></trkpt><trkpt lat="46.0222063" lon="13.2802593"><ele>80.0</ele><time>2026-04-30T15:25:48.968Z</time></trkpt><trkpt lat="46.0222813" lon="13.2803546"><ele>80.0</ele><time>2026-04-30T15:25:49.969Z</time></trkpt><trkpt lat="46.0223535" lon="13.280456"><ele>80.0</ele><time>2026-04-30T15:25:50.97Z</time></trkpt><trkpt lat="46.0224279" lon="13.2805542"><ele>80.0</ele><time>2026-04-30T15:25:51.97Z</time></trkpt><trkpt lat="46.0225123" lon="13.280652"><ele>80.0</ele><time>2026-04-30T15:25:52.97Z</time></trkpt><trkpt lat="46.022614" lon="13.2807744"><ele>80.0</ele><time>2026-04-30T15:25:53.969Z</time></trkpt><trkpt lat="46.0227286" lon="13.2809069"><ele>81.0</ele><time>2026-04-30T15:25:54.969Z</time></trkpt><trkpt lat="46.0228551" lon="13.2810509"><ele>82.0</ele><time>2026-04-30T15:25:55.97Z</time></trkpt><trkpt lat="46.0229854" lon="13.2811986"><ele>83.0</ele><time>2026-04-30T15:25:56.97Z</time></trkpt><trkpt lat="46.0231016" lon="13.281337"><ele>83.2</ele><time>2026-04-30T15:25:57.97Z</time></trkpt><trkpt lat="46.0231931" lon="13.281452"><ele>83.4</ele><time>2026-04-30T15:25:58.97Z</time></trkpt><trkpt lat="46.0232671" lon="13.2815451"><ele>83.60000000000001</ele><time>2026-04-30T15:25:59.97Z</time></trkpt><trkpt lat="46.0233191" lon="13.2816195"><ele>83.80000000000001</ele><time>2026-04-30T15:26:00.969Z</time></trkpt><trkpt lat="46.0233578" lon="13.2816932"><ele>84.0</ele><time>2026-04-30T15:26:01.97Z</time></trkpt><trkpt lat="46.023409" lon="13.2818082"><ele>84.4</ele><time>2026-04-30T15:26:03.97Z</time></trkpt><trkpt lat="46.0234501" lon="13.2819008"><ele>84.80000000000001</ele><time>2026-04-30T15:26:08.97Z</time></trkpt><trkpt lat="46.0235506" lon="13.2818574"><ele>85.19999999999999</ele><time>2026-04-30T15:26:10.97Z</time></trkpt><trkpt lat="46.023612" lon="13.2817943"><ele>85.6</ele><time>2026-04-30T15:26:11.97Z</time></trkpt><trkpt lat="46.0236975" lon="13.2816924"><ele>86.0</ele><time>2026-04-30T15:26:12.969Z</time></trkpt><trkpt lat="46.0238107" lon="13.2815673"><ele>86.0</ele><time>2026-04-30T15:26:13.97Z</time></trkpt><trkpt lat="46.0239386" lon="13.2814342"><ele>86.0</ele><time>2026-04-30T15:26:14.968Z</time></trkpt><trkpt lat="46.0240807" lon="13.2812846"><ele>86.0</ele><time>2026-04-30T15:26:15.968Z</time></trkpt><trkpt lat="46.0242225" lon="13.2811058"><ele>86.0</ele><time>2026-04-30T15:26:16.968Z</time></trkpt><trkpt lat="46.0243456" lon="13.2809162"><ele>86.0</ele><time>2026-04-30T15:26:17.968Z</time></trkpt><trkpt lat="46.024458" lon="13.2807299"><ele>86.0</ele><time>2026-04-30T15:26:18.969Z</time></trkpt><trkpt lat="46.0245602" lon="13.2805515"><ele>86.0</ele><time>2026-04-30T15:26:19.969Z</time></trkpt><trkpt lat="46.0246517" lon="13.2803834"><ele>86.0</ele><time>2026-04-30T15:26:20.968Z</time></trkpt><trkpt lat="46.0247378" lon="13.2802265"><ele>86.0</ele><time>2026-04-30T15:26:21.968Z</time></trkpt><trkpt lat="46.0248238" lon="13.2800781"><ele>86.0</ele><time>2026-04-30T15:26:22.969Z</time></trkpt><trkpt lat="46.0248983" lon="13.2799427"><ele>86.0</ele><time>2026-04-30T15:26:23.969Z</time></trkpt><trkpt lat="46.0249646" lon="13.2798255"><ele>86.0</ele><time>2026-04-30T15:26:24.969Z</time></trkpt><trkpt lat="46.0250234" lon="13.2797287"><ele>86.0</ele><time>2026-04-30T15:26:25.969Z</time></trkpt><trkpt lat="46.0250772" lon="13.2796449"><ele>86.0</ele><time>2026-04-30T15:26:26.968Z</time></trkpt><trkpt lat="46.0251231" lon="13.2795828"><ele>86.0</ele><time>2026-04-30T15:26:27.968Z</time></trkpt><trkpt lat="46.0252029" lon="13.2794856"><ele>86.0</ele><time>2026-04-30T15:26:29.969Z</time></trkpt><trkpt lat="46.0252688" lon="13.2794295"><ele>86.0</ele><time>2026-04-30T15:26:32.969Z</time></trkpt><trkpt lat="46.0252068" lon="13.2793974"><ele>86.0</ele><time>2026-04-30T15:26:38.968Z</time></trkpt><trkpt lat="46.0251256" lon="13.2794983"><ele>86.0</ele><time>2026-04-30T15:26:40.969Z</time></trkpt><trkpt lat="46.0250688" lon="13.2795803"><ele>86.0</ele><time>2026-04-30T15:26:41.968Z</time></trkpt><trkpt lat="46.0249941" lon="13.2796988"><ele>86.0</ele><time>2026-04-30T15:26:42.969Z</time></trkpt><trkpt lat="46.0249118" lon="13.2798419"><ele>86.0</ele><time>2026-04-30T15:26:43.969Z</time></trkpt><trkpt lat="46.0248162" lon="13.2800041"><ele>86.0</ele><time>2026-04-30T15:26:44.968Z</time></trkpt><trkpt lat="46.0247139" lon="13.2801832"><ele>86.0</ele><time>2026-04-30T15:26:45.969Z</time></trkpt><trkpt lat="46.0246061" lon="13.2803818"><ele>86.0</ele><time>2026-04-30T15:26:46.969Z</time></trkpt><trkpt lat="46.0244987" lon="13.2805841"><ele>86.0</ele><time>2026-04-30T15:26:47.968Z</time></trkpt><trkpt lat="46.0243988" lon="13.2807645"><ele>86.0</ele><time>2026-04-30T15:26:48.969Z</time></trkpt><trkpt lat="46.0243011" lon="13.2809241"><ele>86.0</ele><time>2026-04-30T15:26:49.969Z</time></trkpt><trkpt lat="46.0241993" lon="13.2810676"><ele>86.0</ele><time>2026-04-30T15:26:50.969Z</time></trkpt><trkpt lat="46.0240914" lon="13.2811987"><ele>86.0</ele><time>2026-04-30T15:26:51.968Z</time></trkpt><trkpt lat="46.0239822" lon="13.2813222"><ele>86.0</ele><time>2026-04-30T15:26:52.969Z</time></trkpt><trkpt lat="46.0238724" lon="13.2814435"><ele>86.0</ele><time>2026-04-30T15:26:53.968Z</time></trkpt><trkpt lat="46.0237628" lon="13.2815639"><ele>86.0</ele><time>2026-04-30T15:26:54.969Z</time></trkpt><trkpt lat="46.0236559" lon="13.2816734"><ele>86.0</ele><time>2026-04-30T15:26:55.969Z</time></trkpt><trkpt lat="46.0235508" lon="13.2817809"><ele>86.0</ele><time>2026-04-30T15:26:56.968Z</time></trkpt><trkpt lat="46.0234459" lon="13.2818905"><ele>86.0</ele><time>2026-04-30T15:26:57.967Z</time></trkpt><trkpt lat="46.023344" lon="13.2820007"><ele>86.0</ele><time>2026-04-30T15:26:58.969Z</time></trkpt><trkpt lat="46.0232423" lon="13.2821071"><ele>86.0</ele><time>2026-04-30T15:26:59.968Z</time></trkpt><trkpt lat="46.0231403" lon="13.2822163"><ele>86.0</ele><time>2026-04-30T15:27:00.967Z</time></trkpt><trkpt lat="46.0230403" lon="13.2823277"><ele>85.75</ele><time>2026-04-30T15:27:01.969Z</time></trkpt><trkpt lat="46.0229396" lon="13.2824387"><ele>85.5</ele><time>2026-04-30T15:27:02.968Z</time></trkpt><trkpt lat="46.0228428" lon="13.2825539"><ele>85.25</ele><time>2026-04-30T15:27:03.969Z</time></trkpt><trkpt lat="46.0227522" lon="13.2826614"><ele>85.0</ele><time>2026-04-30T15:27:04.969Z</time></trkpt><trkpt lat="46.0226625" lon="13.2827776"><ele>85.0</ele><time>2026-04-30T15:27:05.968Z</time></trkpt><trkpt lat="46.0225759" lon="13.2828951"><ele>85.0</ele><time>2026-04-30T15:27:06.969Z</time></trkpt><trkpt lat="46.0224915" lon="13.2830148"><ele>85.0</ele><time>2026-04-30T15:27:07.969Z</time></trkpt><trkpt lat="46.0224145" lon="13.283128"><ele>85.0</ele><time>2026-04-30T15:27:08.968Z</time></trkpt><trkpt lat="46.0223409" lon="13.2832329"><ele>84.66666666666666</ele><time>2026-04-30T15:27:09.969Z</time></trkpt><trkpt lat="46.0222731" lon="13.283325"><ele>84.33333333333333</ele><time>2026-04-30T15:27:10.969Z</time></trkpt><trkpt lat="46.0222188" lon="13.2834003"><ele>84.0</ele><time>2026-04-30T15:27:11.968Z</time></trkpt><trkpt lat="46.0221679" lon="13.2834595"><ele>83.66666666666667</ele><time>2026-04-30T15:27:12.969Z</time></trkpt><trkpt lat="46.0221136" lon="13.2835075"><ele>83.33333333333334</ele><time>2026-04-30T15:27:13.969Z</time></trkpt><trkpt lat="46.0220054" lon="13.2835561"><ele>83.0</ele><time>2026-04-30T15:27:15.969Z</time></trkpt><trkpt lat="46.0219107" lon="13.2836505"><ele>83.0</ele><time>2026-04-30T15:27:17.969Z</time></trkpt><trkpt lat="46.0218802" lon="13.2837387"><ele>83.0</ele><time>2026-04-30T15:27:18.967Z</time></trkpt><trkpt lat="46.0218554" lon="13.2838441"><ele>83.0</ele><time>2026-04-30T15:27:19.969Z</time></trkpt><trkpt lat="46.021809" lon="13.2839477"><ele>83.0</ele><time>2026-04-30T15:27:20.969Z</time></trkpt><trkpt lat="46.0217313" lon="13.2840695"><ele>83.0</ele><time>2026-04-30T15:27:21.968Z</time></trkpt><trkpt lat="46.0216488" lon="13.2841803"><ele>82.80000000000001</ele><time>2026-04-30T15:27:22.969Z</time></trkpt><trkpt lat="46.0215776" lon="13.2842832"><ele>82.6</ele><time>2026-04-30T15:27:23.969Z</time></trkpt><trkpt lat="46.021508" lon="13.2843774"><ele>82.4</ele><time>2026-04-30T15:27:24.968Z</time></trkpt><trkpt lat="46.0214332" lon="13.2844649"><ele>82.19999999999999</ele><time>2026-04-30T15:27:25.969Z</time></trkpt><trkpt lat="46.0213505" lon="13.2845509"><ele>82.0</ele><time>2026-04-30T15:27:26.969Z</time></trkpt><trkpt lat="46.0212575" lon="13.2846309"><ele>82.0</ele><time>2026-04-30T15:27:27.968Z</time></trkpt><trkpt lat="46.021162" lon="13.2846976"><ele>82.0</ele><time>2026-04-30T15:27:28.969Z</time></trkpt><trkpt lat="46.0210708" lon="13.2847575"><ele>82.0</ele><time>2026-04-30T15:27:29.969Z</time></trkpt><trkpt lat="46.0209862" lon="13.2848212"><ele>82.0</ele><time>2026-04-30T15:27:30.969Z</time></trkpt><trkpt lat="46.0208995" lon="13.2848783"><ele>82.0</ele><time>2026-04-30T15:27:31.969Z</time></trkpt><trkpt lat="46.0208145" lon="13.2849382"><ele>81.66666666666666</ele><time>2026-04-30T15:27:32.968Z</time></trkpt><trkpt lat="46.0207283" lon="13.2849942"><ele>81.33333333333333</ele><time>2026-04-30T15:27:33.967Z</time></trkpt><trkpt lat="46.0206513" lon="13.2850492"><ele>81.0</ele><time>2026-04-30T15:27:34.969Z</time></trkpt><trkpt lat="46.0205772" lon="13.2850998"><ele>80.66666666666667</ele><time>2026-04-30T15:27:35.968Z</time></trkpt><trkpt lat="46.0205092" lon="13.2851418"><ele>80.33333333333334</ele><time>2026-04-30T15:27:36.969Z</time></trkpt><trkpt lat="46.020445" lon="13.2851764"><ele>80.0</ele><time>2026-04-30T15:27:37.969Z</time></trkpt><trkpt lat="46.0203808" lon="13.2852077"><ele>80.0</ele><time>2026-04-30T15:27:38.968Z</time></trkpt><trkpt lat="46.0202753" lon="13.2852714"><ele>80.0</ele><time>2026-04-30T15:27:40.969Z</time></trkpt><trkpt lat="46.0201867" lon="13.2853361"><ele>80.0</ele><time>2026-04-30T15:27:42.968Z</time></trkpt><trkpt lat="46.020122" lon="13.2853843"><ele>80.0</ele><time>2026-04-30T15:27:44.968Z</time></trkpt><trkpt lat="46.020041" lon="13.2853902"><ele>80.0</ele><time>2026-04-30T15:27:51.969Z</time></trkpt><trkpt lat="46.0199566" lon="13.2853515"><ele>79.6</ele><time>2026-04-30T15:27:53.969Z</time></trkpt><trkpt lat="46.0198329" lon="13.285311"><ele>79.2</ele><time>2026-04-30T15:27:55.969Z</time></trkpt><trkpt lat="46.0197668" lon="13.2853319"><ele>78.8</ele><time>2026-04-30T15:27:56.969Z</time></trkpt><trkpt lat="46.019713" lon="13.2853863"><ele>78.4</ele><time>2026-04-30T15:27:57.968Z</time></trkpt><trkpt lat="46.0196689" lon="13.2855473"><ele>78.0</ele><time>2026-04-30T15:27:59.969Z</time></trkpt><trkpt lat="46.0196668" lon="13.2857165"><ele>78.0</ele><time>2026-04-30T15:28:01.969Z</time></trkpt><trkpt lat="46.0196567" lon="13.2858797"><ele>78.0</ele><time>2026-04-30T15:28:03.969Z</time></trkpt><trkpt lat="46.0196434" lon="13.2860125"><ele>78.0</ele><time>2026-04-30T15:28:05.969Z</time></trkpt><trkpt lat="46.0196247" lon="13.2861453"><ele>78.0</ele><time>2026-04-30T15:28:08.969Z</time></trkpt><trkpt lat="46.0196081" lon="13.2862682"><ele>78.0</ele><time>2026-04-30T15:28:10.969Z</time></trkpt><trkpt lat="46.0195943" lon="13.2863822"><ele>78.0</ele><time>2026-04-30T15:28:12.969Z</time></trkpt><trkpt lat="46.0195796" lon="13.2865064"><ele>78.0</ele><time>2026-04-30T15:28:14.969Z</time></trkpt><trkpt lat="46.0195684" lon="13.2866306"><ele>78.0</ele><time>2026-04-30T15:28:16.969Z</time></trkpt><trkpt lat="46.0195599" lon="13.2867351"><ele>78.0</ele><time>2026-04-30T15:28:18.969Z</time></trkpt><trkpt lat="46.0195545" lon="13.2868341"><ele>78.0</ele><time>2026-04-30T15:28:20.969Z</time></trkpt><trkpt lat="46.0195517" lon="13.2869699"><ele>78.0</ele><time>2026-04-30T15:28:22.969Z</time></trkpt><trkpt lat="46.0195456" lon="13.2870682"><ele>78.0</ele><time>2026-04-30T15:28:23.969Z</time></trkpt><trkpt lat="46.019535" lon="13.2871837"><ele>78.0</ele><time>2026-04-30T15:28:24.968Z</time></trkpt><trkpt lat="46.0195233" lon="13.2873138"><ele>78.0</ele><time>2026-04-30T15:28:25.969Z</time></trkpt><trkpt lat="46.0195127" lon="13.2874289"><ele>78.0</ele><time>2026-04-30T15:28:26.969Z</time></trkpt><trkpt lat="46.0195034" lon="13.2875334"><ele>78.0</ele><time>2026-04-30T15:28:27.969Z</time></trkpt><trkpt lat="46.01949" lon="13.2876307"><ele>78.0</ele><time>2026-04-30T15:28:28.969Z</time></trkpt><trkpt lat="46.0194798" lon="13.2877369"><ele>78.0</ele><time>2026-04-30T15:28:29.969Z</time></trkpt><trkpt lat="46.0194714" lon="13.2878596"><ele>78.0</ele><time>2026-04-30T15:28:30.969Z</time></trkpt><trkpt lat="46.0194607" lon="13.2879865"><ele>78.0</ele><time>2026-04-30T15:28:31.969Z</time></trkpt><trkpt lat="46.0194474" lon="13.2881233"><ele>78.0</ele><time>2026-04-30T15:28:32.969Z</time></trkpt><trkpt lat="46.0194354" lon="13.288263"><ele>78.0</ele><time>2026-04-30T15:28:33.969Z</time></trkpt><trkpt lat="46.0194233" lon="13.288401"><ele>78.16666666666667</ele><time>2026-04-30T15:28:34.969Z</time></trkpt><trkpt lat="46.0194071" lon="13.2885226"><ele>78.33333333333333</ele><time>2026-04-30T15:28:35.969Z</time></trkpt><trkpt lat="46.0193959" lon="13.288634"><ele>78.5</ele><time>2026-04-30T15:28:36.969Z</time></trkpt><trkpt lat="46.0193854" lon="13.2887407"><ele>78.66666666666666</ele><time>2026-04-30T15:28:37.968Z</time></trkpt><trkpt lat="46.0193737" lon="13.288852"><ele>78.83333333333333</ele><time>2026-04-30T15:28:38.969Z</time></trkpt><trkpt lat="46.0193621" lon="13.2889633"><ele>79.0</ele><time>2026-04-30T15:28:39.969Z</time></trkpt><trkpt lat="46.0193525" lon="13.2890744"><ele>79.00000000000001</ele><time>2026-04-30T15:28:40.968Z</time></trkpt><trkpt lat="46.0193448" lon="13.2891748"><ele>79.0</ele><time>2026-04-30T15:28:41.969Z</time></trkpt><trkpt lat="46.0193356" lon="13.2892808"><ele>79.0</ele><time>2026-04-30T15:28:42.969Z</time></trkpt><trkpt lat="46.019323" lon="13.2893851"><ele>79.0</ele><time>2026-04-30T15:28:43.968Z</time></trkpt><trkpt lat="46.0193144" lon="13.2894859"><ele>79.0</ele><time>2026-04-30T15:28:44.968Z</time></trkpt><trkpt lat="46.0193045" lon="13.2895891"><ele>79.00000000000001</ele><time>2026-04-30T15:28:45.968Z</time></trkpt><trkpt lat="46.0192952" lon="13.2896944"><ele>79.0</ele><time>2026-04-30T15:28:46.969Z</time></trkpt><trkpt lat="46.0192891" lon="13.2897963"><ele>79.00000000000001</ele><time>2026-04-30T15:28:47.969Z</time></trkpt><trkpt lat="46.0192801" lon="13.2898957"><ele>79.0</ele><time>2026-04-30T15:28:48.969Z</time></trkpt><trkpt lat="46.0192717" lon="13.2899966"><ele>79.0</ele><time>2026-04-30T15:28:49.969Z</time></trkpt><trkpt lat="46.0192634" lon="13.290097"><ele>79.0</ele><time>2026-04-30T15:28:50.969Z</time></trkpt><trkpt lat="46.0192566" lon="13.2901963"><ele>79.0</ele><time>2026-04-30T15:28:51.969Z</time></trkpt><trkpt lat="46.019247" lon="13.2902925"><ele>79.00000000000001</ele><time>2026-04-30T15:28:52.969Z</time></trkpt><trkpt lat="46.0192396" lon="13.2903878"><ele>79.0</ele><time>2026-04-30T15:28:53.969Z</time></trkpt><trkpt lat="46.0192306" lon="13.2904877"><ele>79.00000000000001</ele><time>2026-04-30T15:28:54.968Z</time></trkpt><trkpt lat="46.0192175" lon="13.2905859"><ele>79.0</ele><time>2026-04-30T15:28:55.968Z</time></trkpt><trkpt lat="46.0192072" lon="13.2906881"><ele>79.0</ele><time>2026-04-30T15:28:56.968Z</time></trkpt><trkpt lat="46.0191951" lon="13.2907869"><ele>79.0</ele><time>2026-04-30T15:28:57.968Z</time></trkpt><trkpt lat="46.0191876" lon="13.2908886"><ele>79.0</ele><time>2026-04-30T15:28:58.968Z</time></trkpt><trkpt lat="46.0191767" lon="13.2909884"><ele>79.00000000000001</ele><time>2026-04-30T15:28:59.969Z</time></trkpt><trkpt lat="46.0191679" lon="13.2910914"><ele>79.0</ele><time>2026-04-30T15:29:00.969Z</time></trkpt><trkpt lat="46.0191611" lon="13.2911925"><ele>78.83333333333333</ele><time>2026-04-30T15:29:01.968Z</time></trkpt><trkpt lat="46.0191511" lon="13.2912942"><ele>78.66666666666666</ele><time>2026-04-30T15:29:02.969Z</time></trkpt><trkpt lat="46.0191452" lon="13.2913872"><ele>78.5</ele><time>2026-04-30T15:29:03.969Z</time></trkpt><trkpt lat="46.019133" lon="13.2915677"><ele>78.33333333333333</ele><time>2026-04-30T15:29:05.969Z</time></trkpt><trkpt lat="46.0191244" lon="13.2916842"><ele>78.16666666666667</ele><time>2026-04-30T15:29:06.969Z</time></trkpt><trkpt lat="46.019114" lon="13.2918148"><ele>78.0</ele><time>2026-04-30T15:29:07.969Z</time></trkpt><trkpt lat="46.0191002" lon="13.2919644"><ele>77.75</ele><time>2026-04-30T15:29:08.969Z</time></trkpt><trkpt lat="46.0190835" lon="13.292139"><ele>77.5</ele><time>2026-04-30T15:29:09.969Z</time></trkpt><trkpt lat="46.0190656" lon="13.2923329"><ele>77.25</ele><time>2026-04-30T15:29:10.969Z</time></trkpt><trkpt lat="46.0190454" lon="13.2925613"><ele>77.0</ele><time>2026-04-30T15:29:11.968Z</time></trkpt><trkpt lat="46.0190212" lon="13.2927807"><ele>77.0</ele><time>2026-04-30T15:29:12.968Z</time></trkpt><trkpt lat="46.0190039" lon="13.2929837"><ele>77.0</ele><time>2026-04-30T15:29:13.969Z</time></trkpt><trkpt lat="46.018988" lon="13.2931734"><ele>77.0</ele><time>2026-04-30T15:29:14.969Z</time></trkpt><trkpt lat="46.0189718" lon="13.2933625"><ele>77.0</ele><time>2026-04-30T15:29:15.968Z</time></trkpt><trkpt lat="46.0189546" lon="13.2935402"><ele>77.0</ele><time>2026-04-30T15:29:16.968Z</time></trkpt><trkpt lat="46.0189389" lon="13.2937115"><ele>77.0</ele><time>2026-04-30T15:29:17.969Z</time></trkpt><trkpt lat="46.0189266" lon="13.2938786"><ele>77.0</ele><time>2026-04-30T15:29:18.969Z</time></trkpt><trkpt lat="46.0189098" lon="13.2940419"><ele>77.0</ele><time>2026-04-30T15:29:19.969Z</time></trkpt><trkpt lat="46.0188943" lon="13.2942114"><ele>77.0</ele><time>2026-04-30T15:29:20.968Z</time></trkpt><trkpt lat="46.0188767" lon="13.2943834"><ele>77.0</ele><time>2026-04-30T15:29:21.968Z</time></trkpt><trkpt lat="46.0188657" lon="13.2945538"><ele>77.0</ele><time>2026-04-30T15:29:22.969Z</time></trkpt><trkpt lat="46.0188498" lon="13.2947258"><ele>77.0</ele><time>2026-04-30T15:29:23.969Z</time></trkpt><trkpt lat="46.0188348" lon="13.2949029"><ele>76.25</ele><time>2026-04-30T15:29:24.969Z</time></trkpt><trkpt lat="46.0188174" lon="13.2950841"><ele>75.5</ele><time>2026-04-30T15:29:25.969Z</time></trkpt><trkpt lat="46.0188021" lon="13.295268"><ele>74.75</ele><time>2026-04-30T15:29:26.969Z</time></trkpt><trkpt lat="46.0187823" lon="13.295457"><ele>74.0</ele><time>2026-04-30T15:29:27.968Z</time></trkpt><trkpt lat="46.0187659" lon="13.2956514"><ele>74.0</ele><time>2026-04-30T15:29:28.969Z</time></trkpt><trkpt lat="46.0187471" lon="13.29585"><ele>74.0</ele><time>2026-04-30T15:29:29.969Z</time></trkpt><trkpt lat="46.0187301" lon="13.2960441"><ele>74.0</ele><time>2026-04-30T15:29:30.968Z</time></trkpt><trkpt lat="46.0187129" lon="13.2962362"><ele>74.0</ele><time>2026-04-30T15:29:31.968Z</time></trkpt><trkpt lat="46.0186905" lon="13.2964333"><ele>74.25</ele><time>2026-04-30T15:29:32.968Z</time></trkpt><trkpt lat="46.018674" lon="13.2966307"><ele>74.5</ele><time>2026-04-30T15:29:33.969Z</time></trkpt><trkpt lat="46.0186541" lon="13.2968322"><ele>74.75</ele><time>2026-04-30T15:29:34.969Z</time></trkpt><trkpt lat="46.0186351" lon="13.2970408"><ele>75.0</ele><time>2026-04-30T15:29:35.969Z</time></trkpt><trkpt lat="46.0186143" lon="13.2972558"><ele>75.75</ele><time>2026-04-30T15:29:36.968Z</time></trkpt><trkpt lat="46.0185936" lon="13.297469"><ele>76.5</ele><time>2026-04-30T15:29:37.968Z</time></trkpt><trkpt lat="46.0185754" lon="13.297673"><ele>77.25</ele><time>2026-04-30T15:29:38.969Z</time></trkpt><trkpt lat="46.0185545" lon="13.2978665"><ele>78.0</ele><time>2026-04-30T15:29:39.969Z</time></trkpt><trkpt lat="46.0185313" lon="13.298052"><ele>77.75</ele><time>2026-04-30T15:29:40.967Z</time></trkpt><trkpt lat="46.0185116" lon="13.2982358"><ele>77.5</ele><time>2026-04-30T15:29:41.968Z</time></trkpt><trkpt lat="46.0184911" lon="13.2984201"><ele>77.25</ele><time>2026-04-30T15:29:42.968Z</time></trkpt><trkpt lat="46.0184683" lon="13.2985996"><ele>77.0</ele><time>2026-04-30T15:29:43.967Z</time></trkpt><trkpt lat="46.0184451" lon="13.2987814"><ele>77.25</ele><time>2026-04-30T15:29:44.968Z</time></trkpt><trkpt lat="46.0184208" lon="13.2989628"><ele>77.5</ele><time>2026-04-30T15:29:45.968Z</time></trkpt><trkpt lat="46.0183963" lon="13.2991477"><ele>77.75</ele><time>2026-04-30T15:29:46.968Z</time></trkpt><trkpt lat="46.0183705" lon="13.2993339"><ele>78.0</ele><time>2026-04-30T15:29:47.968Z</time></trkpt><trkpt lat="46.0183424" lon="13.2995221"><ele>77.5</ele><time>2026-04-30T15:29:48.968Z</time></trkpt><trkpt lat="46.0183153" lon="13.2997157"><ele>77.0</ele><time>2026-04-30T15:29:49.968Z</time></trkpt><trkpt lat="46.0182853" lon="13.2999142"><ele>76.5</ele><time>2026-04-30T15:29:50.967Z</time></trkpt><trkpt lat="46.0182522" lon="13.3001145"><ele>76.0</ele><time>2026-04-30T15:29:51.968Z</time></trkpt><trkpt lat="46.0182243" lon="13.3003162"><ele>75.5</ele><time>2026-04-30T15:29:52.967Z</time></trkpt><trkpt lat="46.0181951" lon="13.3005206"><ele>75.0</ele><time>2026-04-30T15:29:53.967Z</time></trkpt><trkpt lat="46.0181663" lon="13.3007205"><ele>74.5</ele><time>2026-04-30T15:29:54.968Z</time></trkpt><trkpt lat="46.0181392" lon="13.3009147"><ele>74.0</ele><time>2026-04-30T15:29:55.968Z</time></trkpt><trkpt lat="46.0181118" lon="13.3011056"><ele>74.0</ele><time>2026-04-30T15:29:56.968Z</time></trkpt><trkpt lat="46.0180852" lon="13.3012912"><ele>74.0</ele><time>2026-04-30T15:29:57.968Z</time></trkpt><trkpt lat="46.0180585" lon="13.301474"><ele>74.0</ele><time>2026-04-30T15:29:58.968Z</time></trkpt><trkpt lat="46.0180333" lon="13.3016514"><ele>74.0</ele><time>2026-04-30T15:29:59.968Z</time></trkpt><trkpt lat="46.0180075" lon="13.3018242"><ele>74.5</ele><time>2026-04-30T15:30:00.968Z</time></trkpt><trkpt lat="46.01798" lon="13.3020004"><ele>75.0</ele><time>2026-04-30T15:30:01.968Z</time></trkpt><trkpt lat="46.017952" lon="13.3021738"><ele>75.5</ele><time>2026-04-30T15:30:02.967Z</time></trkpt><trkpt lat="46.0179286" lon="13.3023475"><ele>76.0</ele><time>2026-04-30T15:30:03.968Z</time></trkpt><trkpt lat="46.0179019" lon="13.3025154"><ele>76.0</ele><time>2026-04-30T15:30:04.968Z</time></trkpt><trkpt lat="46.0178784" lon="13.3026765"><ele>76.0</ele><time>2026-04-30T15:30:05.968Z</time></trkpt><trkpt lat="46.0178557" lon="13.3028278"><ele>76.0</ele><time>2026-04-30T15:30:06.967Z</time></trkpt><trkpt lat="46.0178312" lon="13.3029685"><ele>76.0</ele><time>2026-04-30T15:30:07.967Z</time></trkpt><trkpt lat="46.017803" lon="13.3030954"><ele>76.0</ele><time>2026-04-30T15:30:08.967Z</time></trkpt><trkpt lat="46.0177761" lon="13.3032159"><ele>75.39999999999999</ele><time>2026-04-30T15:30:09.968Z</time></trkpt><trkpt lat="46.0177418" lon="13.3033308"><ele>74.8</ele><time>2026-04-30T15:30:10.968Z</time></trkpt><trkpt lat="46.0176979" lon="13.3034481"><ele>74.19999999999999</ele><time>2026-04-30T15:30:11.967Z</time></trkpt><trkpt lat="46.0176416" lon="13.3035596"><ele>73.6</ele><time>2026-04-30T15:30:12.967Z</time></trkpt><trkpt lat="46.0175808" lon="13.3036608"><ele>73.0</ele><time>2026-04-30T15:30:13.967Z</time></trkpt><trkpt lat="46.0175275" lon="13.3037669"><ele>73.0</ele><time>2026-04-30T15:30:14.968Z</time></trkpt><trkpt lat="46.0174969" lon="13.3038803"><ele>73.0</ele><time>2026-04-30T15:30:15.967Z</time></trkpt><trkpt lat="46.0174907" lon="13.3040011"><ele>73.0</ele><time>2026-04-30T15:30:16.968Z</time></trkpt><trkpt lat="46.0175006" lon="13.3041193"><ele>73.0</ele><time>2026-04-30T15:30:17.968Z</time></trkpt><trkpt lat="46.0175241" lon="13.3042235"><ele>73.0</ele><time>2026-04-30T15:30:18.968Z</time></trkpt><trkpt lat="46.0175396" lon="13.3043163"><ele>73.0</ele><time>2026-04-30T15:30:19.968Z</time></trkpt><trkpt lat="46.0175515" lon="13.3044088"><ele>73.16666666666666</ele><time>2026-04-30T15:30:20.968Z</time></trkpt><trkpt lat="46.0175477" lon="13.3045851"><ele>73.33333333333333</ele><time>2026-04-30T15:30:22.967Z</time></trkpt><trkpt lat="46.0175379" lon="13.3046788"><ele>73.5</ele><time>2026-04-30T15:30:23.967Z</time></trkpt><trkpt lat="46.017527" lon="13.3047803"><ele>73.66666666666667</ele><time>2026-04-30T15:30:24.968Z</time></trkpt><trkpt lat="46.0175168" lon="13.3048847"><ele>73.83333333333334</ele><time>2026-04-30T15:30:25.968Z</time></trkpt><trkpt lat="46.0175057" lon="13.3049843"><ele>74.0</ele><time>2026-04-30T15:30:26.968Z</time></trkpt><trkpt lat="46.0174969" lon="13.3050801"><ele>74.2</ele><time>2026-04-30T15:30:27.968Z</time></trkpt><trkpt lat="46.0174776" lon="13.3052683"><ele>74.4</ele><time>2026-04-30T15:30:29.968Z</time></trkpt><trkpt lat="46.0174665" lon="13.3053702"><ele>74.6</ele><time>2026-04-30T15:30:30.968Z</time></trkpt><trkpt lat="46.0174565" lon="13.3054865"><ele>74.8</ele><time>2026-04-30T15:30:31.967Z</time></trkpt><trkpt lat="46.0174378" lon="13.3056282"><ele>75.0</ele><time>2026-04-30T15:30:32.967Z</time></trkpt><trkpt lat="46.0174143" lon="13.3057952"><ele>75.0</ele><time>2026-04-30T15:30:33.967Z</time></trkpt><trkpt lat="46.0173882" lon="13.3059662"><ele>75.0</ele><time>2026-04-30T15:30:34.968Z</time></trkpt><trkpt lat="46.0173654" lon="13.3061353"><ele>75.0</ele><time>2026-04-30T15:30:35.968Z</time></trkpt><trkpt lat="46.017342" lon="13.306296"><ele>75.0</ele><time>2026-04-30T15:30:36.967Z</time></trkpt><trkpt lat="46.0173178" lon="13.3064497"><ele>75.2</ele><time>2026-04-30T15:30:37.967Z</time></trkpt><trkpt lat="46.0173003" lon="13.3065959"><ele>75.4</ele><time>2026-04-30T15:30:38.967Z</time></trkpt><trkpt lat="46.0172779" lon="13.3067411"><ele>75.6</ele><time>2026-04-30T15:30:39.968Z</time></trkpt><trkpt lat="46.0172544" lon="13.3068911"><ele>75.8</ele><time>2026-04-30T15:30:40.968Z</time></trkpt><trkpt lat="46.0172312" lon="13.3070459"><ele>76.0</ele><time>2026-04-30T15:30:41.968Z</time></trkpt><trkpt lat="46.0172099" lon="13.307198"><ele>75.6</ele><time>2026-04-30T15:30:42.968Z</time></trkpt><trkpt lat="46.0171905" lon="13.3073453"><ele>75.19999999999999</ele><time>2026-04-30T15:30:43.968Z</time></trkpt><trkpt lat="46.0171687" lon="13.307485"><ele>74.80000000000001</ele><time>2026-04-30T15:30:44.968Z</time></trkpt><trkpt lat="46.017147" lon="13.3076258"><ele>74.4</ele><time>2026-04-30T15:30:45.968Z</time></trkpt><trkpt lat="46.0171253" lon="13.3077721"><ele>74.0</ele><time>2026-04-30T15:30:46.968Z</time></trkpt><trkpt lat="46.0171018" lon="13.3079261"><ele>74.0</ele><time>2026-04-30T15:30:47.968Z</time></trkpt><trkpt lat="46.0170786" lon="13.3080731"><ele>74.0</ele><time>2026-04-30T15:30:48.968Z</time></trkpt><trkpt lat="46.0170538" lon="13.3082251"><ele>74.0</ele><time>2026-04-30T15:30:49.968Z</time></trkpt><trkpt lat="46.0170328" lon="13.3083742"><ele>74.0</ele><time>2026-04-30T15:30:50.967Z</time></trkpt><trkpt lat="46.0170101" lon="13.3085207"><ele>74.0</ele><time>2026-04-30T15:30:51.968Z</time></trkpt><trkpt lat="46.016988" lon="13.3086598"><ele>74.0</ele><time>2026-04-30T15:30:52.968Z</time></trkpt><trkpt lat="46.0169654" lon="13.3087981"><ele>74.0</ele><time>2026-04-30T15:30:53.967Z</time></trkpt><trkpt lat="46.0169426" lon="13.3089379"><ele>74.0</ele><time>2026-04-30T15:30:54.968Z</time></trkpt><trkpt lat="46.0169202" lon="13.3090836"><ele>74.0</ele><time>2026-04-30T15:30:55.968Z</time></trkpt><trkpt lat="46.0168999" lon="13.3092375"><ele>74.0</ele><time>2026-04-30T15:30:56.968Z</time></trkpt><trkpt lat="46.0168772" lon="13.3093949"><ele>74.0</ele><time>2026-04-30T15:30:57.968Z</time></trkpt><trkpt lat="46.016854" lon="13.3095575"><ele>74.0</ele><time>2026-04-30T15:30:58.968Z</time></trkpt><trkpt lat="46.0168308" lon="13.3097168"><ele>74.0</ele><time>2026-04-30T15:30:59.968Z</time></trkpt><trkpt lat="46.0168073" lon="13.3098774"><ele>74.0</ele><time>2026-04-30T15:31:00.968Z</time></trkpt><trkpt lat="46.0167821" lon="13.3100412"><ele>74.2</ele><time>2026-04-30T15:31:01.967Z</time></trkpt><trkpt lat="46.0167591" lon="13.3102006"><ele>74.4</ele><time>2026-04-30T15:31:02.968Z</time></trkpt><trkpt lat="46.0167357" lon="13.3103503"><ele>74.6</ele><time>2026-04-30T15:31:03.968Z</time></trkpt><trkpt lat="46.0167165" lon="13.3104919"><ele>74.8</ele><time>2026-04-30T15:31:04.968Z</time></trkpt><trkpt lat="46.0167006" lon="13.3106251"><ele>75.0</ele><time>2026-04-30T15:31:05.968Z</time></trkpt><trkpt lat="46.0166845" lon="13.31075"><ele>74.66666666666667</ele><time>2026-04-30T15:31:06.968Z</time></trkpt><trkpt lat="46.0166701" lon="13.3108635"><ele>74.33333333333333</ele><time>2026-04-30T15:31:07.968Z</time></trkpt><trkpt lat="46.0166523" lon="13.3109729"><ele>74.0</ele><time>2026-04-30T15:31:08.967Z</time></trkpt><trkpt lat="46.0166367" lon="13.3110778"><ele>73.66666666666666</ele><time>2026-04-30T15:31:09.968Z</time></trkpt><trkpt lat="46.0166183" lon="13.3111857"><ele>73.33333333333333</ele><time>2026-04-30T15:31:10.968Z</time></trkpt><trkpt lat="46.016604" lon="13.3112855"><ele>73.0</ele><time>2026-04-30T15:31:11.967Z</time></trkpt><trkpt lat="46.0165895" lon="13.3113871"><ele>72.57142857142857</ele><time>2026-04-30T15:31:12.968Z</time></trkpt><trkpt lat="46.0165737" lon="13.311481"><ele>72.14285714285714</ele><time>2026-04-30T15:31:13.968Z</time></trkpt><trkpt lat="46.0165592" lon="13.3115715"><ele>71.71428571428572</ele><time>2026-04-30T15:31:14.968Z</time></trkpt><trkpt lat="46.0165434" lon="13.3116692"><ele>71.28571428571428</ele><time>2026-04-30T15:31:15.967Z</time></trkpt><trkpt lat="46.016528" lon="13.3117721"><ele>70.85714285714286</ele><time>2026-04-30T15:31:16.968Z</time></trkpt><trkpt lat="46.0165141" lon="13.3118859"><ele>70.42857142857143</ele><time>2026-04-30T15:31:17.968Z</time></trkpt><trkpt lat="46.0164957" lon="13.3120033"><ele>70.0</ele><time>2026-04-30T15:31:18.968Z</time></trkpt><trkpt lat="46.0164745" lon="13.3121248"><ele>70.2</ele><time>2026-04-30T15:31:19.968Z</time></trkpt><trkpt lat="46.0164563" lon="13.3122488"><ele>70.4</ele><time>2026-04-30T15:31:20.968Z</time></trkpt><trkpt lat="46.0164357" lon="13.3123771"><ele>70.6</ele><time>2026-04-30T15:31:21.968Z</time></trkpt><trkpt lat="46.0164177" lon="13.3125074"><ele>70.8</ele><time>2026-04-30T15:31:22.968Z</time></trkpt><trkpt lat="46.0163953" lon="13.3126445"><ele>71.0</ele><time>2026-04-30T15:31:23.968Z</time></trkpt><trkpt lat="46.0163779" lon="13.3127705"><ele>71.0</ele><time>2026-04-30T15:31:24.968Z</time></trkpt><trkpt lat="46.0163585" lon="13.3128928"><ele>71.0</ele><time>2026-04-30T15:31:25.968Z</time></trkpt><trkpt lat="46.0163371" lon="13.3130227"><ele>71.0</ele><time>2026-04-30T15:31:26.968Z</time></trkpt><trkpt lat="46.0163149" lon="13.3131541"><ele>71.0</ele><time>2026-04-30T15:31:27.968Z</time></trkpt><trkpt lat="46.0162943" lon="13.3133009"><ele>71.0</ele><time>2026-04-30T15:31:28.968Z</time></trkpt><trkpt lat="46.0162723" lon="13.3134495"><ele>71.5</ele><time>2026-04-30T15:31:29.968Z</time></trkpt><trkpt lat="46.0162464" lon="13.3136094"><ele>72.0</ele><time>2026-04-30T15:31:30.967Z</time></trkpt><trkpt lat="46.0162202" lon="13.3137747"><ele>72.5</ele><time>2026-04-30T15:31:31.967Z</time></trkpt><trkpt lat="46.0161958" lon="13.3139374"><ele>73.0</ele><time>2026-04-30T15:31:32.967Z</time></trkpt><trkpt lat="46.0161751" lon="13.3141055"><ele>74.0</ele><time>2026-04-30T15:31:33.968Z</time></trkpt><trkpt lat="46.0161495" lon="13.3142763"><ele>75.0</ele><time>2026-04-30T15:31:34.968Z</time></trkpt><trkpt lat="46.0161233" lon="13.314452"><ele>76.0</ele><time>2026-04-30T15:31:35.968Z</time></trkpt><trkpt lat="46.0160972" lon="13.3146338"><ele>77.0</ele><time>2026-04-30T15:31:36.967Z</time></trkpt><trkpt lat="46.0160685" lon="13.3148139"><ele>77.0</ele><time>2026-04-30T15:31:37.968Z</time></trkpt><trkpt lat="46.0160411" lon="13.3149973"><ele>77.0</ele><time>2026-04-30T15:31:38.968Z</time></trkpt><trkpt lat="46.0160137" lon="13.3151832"><ele>77.0</ele><time>2026-04-30T15:31:39.968Z</time></trkpt><trkpt lat="46.015986" lon="13.315365"><ele>77.0</ele><time>2026-04-30T15:31:40.968Z</time></trkpt><trkpt lat="46.015957" lon="13.3155442"><ele>76.5</ele><time>2026-04-30T15:31:41.968Z</time></trkpt><trkpt lat="46.0159318" lon="13.315722"><ele>76.0</ele><time>2026-04-30T15:31:42.968Z</time></trkpt><trkpt lat="46.0159037" lon="13.3158912"><ele>75.5</ele><time>2026-04-30T15:31:43.967Z</time></trkpt><trkpt lat="46.0158785" lon="13.3160518"><ele>75.0</ele><time>2026-04-30T15:31:44.967Z</time></trkpt><trkpt lat="46.0158531" lon="13.3162117"><ele>75.0</ele><time>2026-04-30T15:31:45.967Z</time></trkpt><trkpt lat="46.0158321" lon="13.3163654"><ele>75.0</ele><time>2026-04-30T15:31:46.967Z</time></trkpt><trkpt lat="46.0158076" lon="13.3165184"><ele>75.0</ele><time>2026-04-30T15:31:47.968Z</time></trkpt><trkpt lat="46.0157788" lon="13.3166693"><ele>75.0</ele><time>2026-04-30T15:31:48.968Z</time></trkpt><trkpt lat="46.01575" lon="13.3168242"><ele>75.0</ele><time>2026-04-30T15:31:49.968Z</time></trkpt><trkpt lat="46.0157137" lon="13.3169747"><ele>74.5</ele><time>2026-04-30T15:31:50.968Z</time></trkpt><trkpt lat="46.0156772" lon="13.3171297"><ele>74.0</ele><time>2026-04-30T15:31:51.968Z</time></trkpt><trkpt lat="46.015636" lon="13.3172834"><ele>73.5</ele><time>2026-04-30T15:31:52.968Z</time></trkpt><trkpt lat="46.0155915" lon="13.3174399"><ele>73.0</ele><time>2026-04-30T15:31:53.968Z</time></trkpt><trkpt lat="46.0155419" lon="13.3175963"><ele>73.0</ele><time>2026-04-30T15:31:54.968Z</time></trkpt><trkpt lat="46.0154937" lon="13.3177484"><ele>73.0</ele><time>2026-04-30T15:31:55.968Z</time></trkpt><trkpt lat="46.0154406" lon="13.3178998"><ele>73.0</ele><time>2026-04-30T15:31:56.968Z</time></trkpt><trkpt lat="46.0153838" lon="13.3180505"><ele>73.0</ele><time>2026-04-30T15:31:57.968Z</time></trkpt><trkpt lat="46.0153288" lon="13.3181914"><ele>73.2</ele><time>2026-04-30T15:31:58.967Z</time></trkpt><trkpt lat="46.0152731" lon="13.3183254"><ele>73.4</ele><time>2026-04-30T15:31:59.968Z</time></trkpt><trkpt lat="46.0152179" lon="13.3184495"><ele>73.60000000000001</ele><time>2026-04-30T15:32:00.966Z</time></trkpt><trkpt lat="46.01516" lon="13.3185718"><ele>73.8</ele><time>2026-04-30T15:32:01.968Z</time></trkpt><trkpt lat="46.0151003" lon="13.3186899"><ele>74.0</ele><time>2026-04-30T15:32:02.968Z</time></trkpt><trkpt lat="46.0150424" lon="13.3187993"><ele>73.2</ele><time>2026-04-30T15:32:03.968Z</time></trkpt><trkpt lat="46.014982" lon="13.3189079"><ele>72.4</ele><time>2026-04-30T15:32:04.968Z</time></trkpt><trkpt lat="46.0149262" lon="13.319017"><ele>71.6</ele><time>2026-04-30T15:32:05.968Z</time></trkpt><trkpt lat="46.0148652" lon="13.3191288"><ele>70.8</ele><time>2026-04-30T15:32:06.968Z</time></trkpt><trkpt lat="46.0148018" lon="13.319249"><ele>70.0</ele><time>2026-04-30T15:32:07.968Z</time></trkpt><trkpt lat="46.014739" lon="13.3193729"><ele>70.0</ele><time>2026-04-30T15:32:08.968Z</time></trkpt><trkpt lat="46.0146724" lon="13.3194938"><ele>70.0</ele><time>2026-04-30T15:32:09.968Z</time></trkpt><trkpt lat="46.0146118" lon="13.3196088"><ele>70.0</ele><time>2026-04-30T15:32:10.968Z</time></trkpt><trkpt lat="46.0145494" lon="13.3197132"><ele>70.0</ele><time>2026-04-30T15:32:11.968Z</time></trkpt><trkpt lat="46.0144893" lon="13.3198154"><ele>70.0</ele><time>2026-04-30T15:32:12.967Z</time></trkpt><trkpt lat="46.0144277" lon="13.3199039"><ele>70.16666666666666</ele><time>2026-04-30T15:32:13.967Z</time></trkpt><trkpt lat="46.0143703" lon="13.319981"><ele>70.33333333333333</ele><time>2026-04-30T15:32:14.967Z</time></trkpt><trkpt lat="46.0143092" lon="13.320048"><ele>70.5</ele><time>2026-04-30T15:32:15.967Z</time></trkpt><trkpt lat="46.0142407" lon="13.3201044"><ele>70.66666666666667</ele><time>2026-04-30T15:32:16.968Z</time></trkpt><trkpt lat="46.0141627" lon="13.3201476"><ele>70.83333333333334</ele><time>2026-04-30T15:32:17.967Z</time></trkpt><trkpt lat="46.0140879" lon="13.3201862"><ele>71.0</ele><time>2026-04-30T15:32:18.967Z</time></trkpt><trkpt lat="46.0140197" lon="13.3202415"><ele>71.14285714285714</ele><time>2026-04-30T15:32:19.967Z</time></trkpt><trkpt lat="46.0139688" lon="13.3203194"><ele>71.28571428571428</ele><time>2026-04-30T15:32:20.967Z</time></trkpt><trkpt lat="46.0139353" lon="13.3204111"><ele>71.42857142857143</ele><time>2026-04-30T15:32:21.968Z</time></trkpt><trkpt lat="46.0139218" lon="13.320515"><ele>71.57142857142857</ele><time>2026-04-30T15:32:22.968Z</time></trkpt><trkpt lat="46.0139212" lon="13.3206169"><ele>71.71428571428572</ele><time>2026-04-30T15:32:23.968Z</time></trkpt><trkpt lat="46.013921" lon="13.3207172"><ele>71.85714285714286</ele><time>2026-04-30T15:32:24.968Z</time></trkpt><trkpt lat="46.0139106" lon="13.3208222"><ele>72.0</ele><time>2026-04-30T15:32:25.968Z</time></trkpt><trkpt lat="46.0138838" lon="13.3209297"><ele>72.0</ele><time>2026-04-30T15:32:26.968Z</time></trkpt><trkpt lat="46.0138458" lon="13.3210343"><ele>72.0</ele><time>2026-04-30T15:32:27.968Z</time></trkpt><trkpt lat="46.0137973" lon="13.3211341"><ele>72.0</ele><time>2026-04-30T15:32:28.968Z</time></trkpt><trkpt lat="46.0137448" lon="13.3212346"><ele>72.0</ele><time>2026-04-30T15:32:29.968Z</time></trkpt><trkpt lat="46.0136904" lon="13.3213403"><ele>72.0</ele><time>2026-04-30T15:32:30.968Z</time></trkpt><trkpt lat="46.0136344" lon="13.3214481"><ele>72.0</ele><time>2026-04-30T15:32:31.968Z</time></trkpt><trkpt lat="46.01358" lon="13.3215512"><ele>72.16666666666667</ele><time>2026-04-30T15:32:32.968Z</time></trkpt><trkpt lat="46.0135297" lon="13.3216476"><ele>72.33333333333333</ele><time>2026-04-30T15:32:33.967Z</time></trkpt><trkpt lat="46.0134808" lon="13.3217377"><ele>72.5</ele><time>2026-04-30T15:32:34.967Z</time></trkpt><trkpt lat="46.0134304" lon="13.3218297"><ele>72.66666666666666</ele><time>2026-04-30T15:32:35.968Z</time></trkpt><trkpt lat="46.0133779" lon="13.3219235"><ele>72.83333333333333</ele><time>2026-04-30T15:32:36.967Z</time></trkpt><trkpt lat="46.0133224" lon="13.3220193"><ele>73.0</ele><time>2026-04-30T15:32:37.968Z</time></trkpt><trkpt lat="46.0132657" lon="13.3221203"><ele>73.0</ele><time>2026-04-30T15:32:38.967Z</time></trkpt><trkpt lat="46.0132113" lon="13.3222273"><ele>73.0</ele><time>2026-04-30T15:32:39.967Z</time></trkpt><trkpt lat="46.0131492" lon="13.3223355"><ele>73.0</ele><time>2026-04-30T15:32:40.967Z</time></trkpt><trkpt lat="46.013089" lon="13.3224441"><ele>73.0</ele><time>2026-04-30T15:32:41.968Z</time></trkpt><trkpt lat="46.0130244" lon="13.3225628"><ele>73.0</ele><time>2026-04-30T15:32:42.968Z</time></trkpt><trkpt lat="46.0129538" lon="13.3226989"><ele>72.75</ele><time>2026-04-30T15:32:43.968Z</time></trkpt><trkpt lat="46.0128734" lon="13.3228507"><ele>72.5</ele><time>2026-04-30T15:32:44.968Z</time></trkpt><trkpt lat="46.0127906" lon="13.3230116"><ele>72.25</ele><time>2026-04-30T15:32:45.968Z</time></trkpt><trkpt lat="46.0127052" lon="13.3231776"><ele>72.0</ele><time>2026-04-30T15:32:46.967Z</time></trkpt><trkpt lat="46.0126203" lon="13.323341"><ele>72.0</ele><time>2026-04-30T15:32:47.967Z</time></trkpt><trkpt lat="46.012537" lon="13.3234945"><ele>72.0</ele><time>2026-04-30T15:32:48.968Z</time></trkpt><trkpt lat="46.0124567" lon="13.3236421"><ele>72.0</ele><time>2026-04-30T15:32:49.968Z</time></trkpt><trkpt lat="46.0123789" lon="13.3237871"><ele>72.0</ele><time>2026-04-30T15:32:50.968Z</time></trkpt><trkpt lat="46.0122992" lon="13.3239314"><ele>71.5</ele><time>2026-04-30T15:32:51.968Z</time></trkpt><trkpt lat="46.0122208" lon="13.3240801"><ele>71.0</ele><time>2026-04-30T15:32:52.967Z</time></trkpt><trkpt lat="46.012141" lon="13.32423"><ele>70.5</ele><time>2026-04-30T15:32:53.967Z</time></trkpt><trkpt lat="46.0120623" lon="13.3243856"><ele>70.0</ele><time>2026-04-30T15:32:54.967Z</time></trkpt><trkpt lat="46.0119841" lon="13.3245421"><ele>70.0</ele><time>2026-04-30T15:32:55.968Z</time></trkpt><trkpt lat="46.0119027" lon="13.3247031"><ele>70.0</ele><time>2026-04-30T15:32:56.968Z</time></trkpt><trkpt lat="46.011818" lon="13.3248614"><ele>70.0</ele><time>2026-04-30T15:32:57.967Z</time></trkpt><trkpt lat="46.0117339" lon="13.3250162"><ele>70.0</ele><time>2026-04-30T15:32:58.967Z</time></trkpt><trkpt lat="46.0116465" lon="13.3251735"><ele>70.0</ele><time>2026-04-30T15:32:59.967Z</time></trkpt><trkpt lat="46.0115622" lon="13.3253288"><ele>70.0</ele><time>2026-04-30T15:33:00.968Z</time></trkpt><trkpt lat="46.0114764" lon="13.325486"><ele>70.0</ele><time>2026-04-30T15:33:01.968Z</time></trkpt><trkpt lat="46.0113892" lon="13.325642"><ele>70.0</ele><time>2026-04-30T15:33:02.968Z</time></trkpt><trkpt lat="46.0113031" lon="13.3257981"><ele>70.0</ele><time>2026-04-30T15:33:03.968Z</time></trkpt><trkpt lat="46.0112178" lon="13.3259532"><ele>70.0</ele><time>2026-04-30T15:33:04.968Z</time></trkpt><trkpt lat="46.0111332" lon="13.3261114"><ele>70.0</ele><time>2026-04-30T15:33:05.968Z</time></trkpt><trkpt lat="46.0110548" lon="13.3262658"><ele>70.0</ele><time>2026-04-30T15:33:06.968Z</time></trkpt><trkpt lat="46.010975" lon="13.3264147"><ele>70.0</ele><time>2026-04-30T15:33:07.968Z</time></trkpt><trkpt lat="46.0108983" lon="13.3265698"><ele>70.0</ele><time>2026-04-30T15:33:08.968Z</time></trkpt><trkpt lat="46.0108219" lon="13.3267189"><ele>70.0</ele><time>2026-04-30T15:33:09.968Z</time></trkpt><trkpt lat="46.0107396" lon="13.3268666"><ele>70.0</ele><time>2026-04-30T15:33:10.967Z</time></trkpt><trkpt lat="46.0106637" lon="13.3270103"><ele>70.25</ele><time>2026-04-30T15:33:11.967Z</time></trkpt><trkpt lat="46.0105868" lon="13.3271491"><ele>70.5</ele><time>2026-04-30T15:33:12.967Z</time></trkpt><trkpt lat="46.0105129" lon="13.3272885"><ele>70.75</ele><time>2026-04-30T15:33:13.967Z</time></trkpt><trkpt lat="46.0104426" lon="13.3274203"><ele>71.0</ele><time>2026-04-30T15:33:14.967Z</time></trkpt><trkpt lat="46.0103744" lon="13.3275458"><ele>71.0</ele><time>2026-04-30T15:33:15.967Z</time></trkpt><trkpt lat="46.0103076" lon="13.3276699"><ele>71.0</ele><time>2026-04-30T15:33:16.967Z</time></trkpt><trkpt lat="46.0102417" lon="13.3277959"><ele>71.0</ele><time>2026-04-30T15:33:17.967Z</time></trkpt><trkpt lat="46.0101767" lon="13.3279179"><ele>71.0</ele><time>2026-04-30T15:33:18.967Z</time></trkpt><trkpt lat="46.0101099" lon="13.3280344"><ele>71.0</ele><time>2026-04-30T15:33:19.967Z</time></trkpt><trkpt lat="46.0100468" lon="13.3281412"><ele>71.2</ele><time>2026-04-30T15:33:20.966Z</time></trkpt><trkpt lat="46.0099804" lon="13.3282455"><ele>71.39999999999999</ele><time>2026-04-30T15:33:21.967Z</time></trkpt><trkpt lat="46.0099109" lon="13.3283447"><ele>71.6</ele><time>2026-04-30T15:33:22.967Z</time></trkpt><trkpt lat="46.0098422" lon="13.3284369"><ele>71.8</ele><time>2026-04-30T15:33:23.967Z</time></trkpt><trkpt lat="46.0097707" lon="13.3285186"><ele>72.0</ele><time>2026-04-30T15:33:24.967Z</time></trkpt><trkpt lat="46.0096937" lon="13.3285949"><ele>72.0</ele><time>2026-04-30T15:33:25.967Z</time></trkpt><trkpt lat="46.0096195" lon="13.328655"><ele>72.0</ele><time>2026-04-30T15:33:26.967Z</time></trkpt><trkpt lat="46.0095466" lon="13.3287236"><ele>72.0</ele><time>2026-04-30T15:33:27.966Z</time></trkpt><trkpt lat="46.0094847" lon="13.32881"><ele>72.0</ele><time>2026-04-30T15:33:28.966Z</time></trkpt><trkpt lat="46.0094412" lon="13.3289117"><ele>72.0</ele><time>2026-04-30T15:33:29.966Z</time></trkpt><trkpt lat="46.0094207" lon="13.32903"><ele>72.0</ele><time>2026-04-30T15:33:30.966Z</time></trkpt><trkpt lat="46.0094065" lon="13.3291692"><ele>71.5</ele><time>2026-04-30T15:33:31.966Z</time></trkpt><trkpt lat="46.0093664" lon="13.3293323"><ele>71.0</ele><time>2026-04-30T15:33:32.967Z</time></trkpt><trkpt lat="46.0092983" lon="13.3295094"><ele>70.5</ele><time>2026-04-30T15:33:33.967Z</time></trkpt><trkpt lat="46.0092146" lon="13.3296906"><ele>70.0</ele><time>2026-04-30T15:33:34.966Z</time></trkpt><trkpt lat="46.0091155" lon="13.3298865"><ele>69.66666666666666</ele><time>2026-04-30T15:33:35.967Z</time></trkpt><trkpt lat="46.0090092" lon="13.3300885"><ele>69.33333333333333</ele><time>2026-04-30T15:33:36.967Z</time></trkpt><trkpt lat="46.0089103" lon="13.3302803"><ele>69.0</ele><time>2026-04-30T15:33:37.967Z</time></trkpt><trkpt lat="46.0088299" lon="13.3304383"><ele>69.0</ele><time>2026-04-30T15:33:38.966Z</time></trkpt><trkpt lat="46.0087637" lon="13.3305572"><ele>69.0</ele><time>2026-04-30T15:33:39.967Z</time></trkpt><trkpt lat="46.0087125" lon="13.3306495"><ele>69.0</ele><time>2026-04-30T15:33:40.967Z</time></trkpt><trkpt lat="46.0086679" lon="13.3307272"><ele>69.0</ele><time>2026-04-30T15:33:41.966Z</time></trkpt><trkpt lat="46.0086288" lon="13.3308019"><ele>69.0</ele><time>2026-04-30T15:33:42.967Z</time></trkpt><trkpt lat="46.0085557" lon="13.3309505"><ele>69.0</ele><time>2026-04-30T15:33:44.966Z</time></trkpt><trkpt lat="46.0085183" lon="13.3310271"><ele>69.0</ele><time>2026-04-30T15:33:45.966Z</time></trkpt><trkpt lat="46.0084783" lon="13.3311041"><ele>69.0</ele><time>2026-04-30T15:33:46.967Z</time></trkpt><trkpt lat="46.0083979" lon="13.3312511"><ele>69.0</ele><time>2026-04-30T15:33:48.967Z</time></trkpt><trkpt lat="46.0083563" lon="13.3313311"><ele>69.0</ele><time>2026-04-30T15:33:49.967Z</time></trkpt><trkpt lat="46.0083158" lon="13.3314148"><ele>69.0</ele><time>2026-04-30T15:33:50.967Z</time></trkpt><trkpt lat="46.0082674" lon="13.331501"><ele>69.0</ele><time>2026-04-30T15:33:51.966Z</time></trkpt><trkpt lat="46.0082177" lon="13.3315926"><ele>69.0</ele><time>2026-04-30T15:33:52.967Z</time></trkpt><trkpt lat="46.0081683" lon="13.33169"><ele>69.0</ele><time>2026-04-30T15:33:53.967Z</time></trkpt><trkpt lat="46.0081106" lon="13.3317961"><ele>69.0</ele><time>2026-04-30T15:33:54.966Z</time></trkpt><trkpt lat="46.0080531" lon="13.3319069"><ele>69.0</ele><time>2026-04-30T15:33:55.967Z</time></trkpt><trkpt lat="46.0079928" lon="13.3320252"><ele>69.0</ele><time>2026-04-30T15:33:56.967Z</time></trkpt><trkpt lat="46.0079268" lon="13.3321459"><ele>69.0</ele><time>2026-04-30T15:33:57.966Z</time></trkpt><trkpt lat="46.0078597" lon="13.332273"><ele>69.0</ele><time>2026-04-30T15:33:58.967Z</time></trkpt><trkpt lat="46.0077902" lon="13.3323992"><ele>69.0</ele><time>2026-04-30T15:33:59.966Z</time></trkpt><trkpt lat="46.0077229" lon="13.3325213"><ele>69.0</ele><time>2026-04-30T15:34:00.967Z</time></trkpt><trkpt lat="46.0076578" lon="13.3326411"><ele>69.0</ele><time>2026-04-30T15:34:01.967Z</time></trkpt><trkpt lat="46.0075923" lon="13.3327585"><ele>69.0</ele><time>2026-04-30T15:34:02.966Z</time></trkpt><trkpt lat="46.0075287" lon="13.3328738"><ele>69.0</ele><time>2026-04-30T15:34:03.967Z</time></trkpt><trkpt lat="46.0074675" lon="13.3329978"><ele>69.0</ele><time>2026-04-30T15:34:04.967Z</time></trkpt><trkpt lat="46.0074013" lon="13.333126"><ele>69.0</ele><time>2026-04-30T15:34:05.966Z</time></trkpt><trkpt lat="46.0073344" lon="13.3332544"><ele>69.0</ele><time>2026-04-30T15:34:06.967Z</time></trkpt><trkpt lat="46.0072653" lon="13.3333852"><ele>69.25</ele><time>2026-04-30T15:34:07.966Z</time></trkpt><trkpt lat="46.0071892" lon="13.3335177"><ele>69.5</ele><time>2026-04-30T15:34:08.967Z</time></trkpt><trkpt lat="46.0071185" lon="13.3336521"><ele>69.75</ele><time>2026-04-30T15:34:09.967Z</time></trkpt><trkpt lat="46.0070438" lon="13.333784"><ele>70.0</ele><time>2026-04-30T15:34:10.966Z</time></trkpt><trkpt lat="46.0069718" lon="13.3339144"><ele>69.5</ele><time>2026-04-30T15:34:11.967Z</time></trkpt><trkpt lat="46.0069008" lon="13.3340461"><ele>69.0</ele><time>2026-04-30T15:34:12.967Z</time></trkpt><trkpt lat="46.0068299" lon="13.3341781"><ele>68.5</ele><time>2026-04-30T15:34:13.967Z</time></trkpt><trkpt lat="46.0067613" lon="13.3343111"><ele>68.0</ele><time>2026-04-30T15:34:14.966Z</time></trkpt><trkpt lat="46.0066907" lon="13.3344418"><ele>68.0</ele><time>2026-04-30T15:34:15.967Z</time></trkpt><trkpt lat="46.0066217" lon="13.3345678"><ele>68.0</ele><time>2026-04-30T15:34:16.967Z</time></trkpt><trkpt lat="46.0065526" lon="13.3346922"><ele>68.0</ele><time>2026-04-30T15:34:17.967Z</time></trkpt><trkpt lat="46.0064872" lon="13.3348139"><ele>68.0</ele><time>2026-04-30T15:34:18.967Z</time></trkpt><trkpt lat="46.0064244" lon="13.3349401"><ele>68.0</ele><time>2026-04-30T15:34:19.967Z</time></trkpt><trkpt lat="46.0063568" lon="13.335065"><ele>68.0</ele><time>2026-04-30T15:34:20.966Z</time></trkpt><trkpt lat="46.0062885" lon="13.335193"><ele>68.0</ele><time>2026-04-30T15:34:21.967Z</time></trkpt><trkpt lat="46.0062188" lon="13.3353231"><ele>68.0</ele><time>2026-04-30T15:34:22.967Z</time></trkpt><trkpt lat="46.0061495" lon="13.3354543"><ele>68.0</ele><time>2026-04-30T15:34:23.966Z</time></trkpt><trkpt lat="46.006078" lon="13.335591"><ele>68.0</ele><time>2026-04-30T15:34:24.966Z</time></trkpt><trkpt lat="46.0060056" lon="13.3357251"><ele>68.0</ele><time>2026-04-30T15:34:25.967Z</time></trkpt><trkpt lat="46.0059339" lon="13.3358612"><ele>68.0</ele><time>2026-04-30T15:34:26.966Z</time></trkpt><trkpt lat="46.0058628" lon="13.3359985"><ele>68.0</ele><time>2026-04-30T15:34:27.967Z</time></trkpt><trkpt lat="46.0057892" lon="13.3361432"><ele>68.0</ele><time>2026-04-30T15:34:28.967Z</time></trkpt><trkpt lat="46.0057135" lon="13.3362891"><ele>68.0</ele><time>2026-04-30T15:34:29.966Z</time></trkpt><trkpt lat="46.0056337" lon="13.3364372"><ele>68.0</ele><time>2026-04-30T15:34:30.967Z</time></trkpt><trkpt lat="46.0055516" lon="13.3365869"><ele>68.0</ele><time>2026-04-30T15:34:31.967Z</time></trkpt><trkpt lat="46.0054694" lon="13.3367357"><ele>68.0</ele><time>2026-04-30T15:34:32.966Z</time></trkpt><trkpt lat="46.0053854" lon="13.3368859"><ele>68.0</ele><time>2026-04-30T15:34:33.967Z</time></trkpt><trkpt lat="46.0052987" lon="13.3370313"><ele>68.0</ele><time>2026-04-30T15:34:34.966Z</time></trkpt><trkpt lat="46.0052159" lon="13.3371841"><ele>68.0</ele><time>2026-04-30T15:34:35.967Z</time></trkpt><trkpt lat="46.0051327" lon="13.3373365"><ele>68.0</ele><time>2026-04-30T15:34:36.967Z</time></trkpt><trkpt lat="46.0050489" lon="13.3374845"><ele>68.0</ele><time>2026-04-30T15:34:37.966Z</time></trkpt><trkpt lat="46.0049702" lon="13.3376352"><ele>68.0</ele><time>2026-04-30T15:34:38.967Z</time></trkpt><trkpt lat="46.0048928" lon="13.3377807"><ele>68.0</ele><time>2026-04-30T15:34:39.967Z</time></trkpt><trkpt lat="46.0048142" lon="13.3379272"><ele>67.5</ele><time>2026-04-30T15:34:40.965Z</time></trkpt><trkpt lat="46.0047357" lon="13.3380762"><ele>67.0</ele><time>2026-04-30T15:34:41.967Z</time></trkpt><trkpt lat="46.0046536" lon="13.3382249"><ele>66.5</ele><time>2026-04-30T15:34:42.967Z</time></trkpt><trkpt lat="46.0045718" lon="13.3383794"><ele>66.0</ele><time>2026-04-30T15:34:43.966Z</time></trkpt><trkpt lat="46.0044907" lon="13.3385385"><ele>66.0</ele><time>2026-04-30T15:34:44.967Z</time></trkpt><trkpt lat="46.0044062" lon="13.3386974"><ele>66.0</ele><time>2026-04-30T15:34:45.967Z</time></trkpt><trkpt lat="46.0043222" lon="13.3388578"><ele>66.0</ele><time>2026-04-30T15:34:46.966Z</time></trkpt><trkpt lat="46.0042392" lon="13.3390208"><ele>66.0</ele><time>2026-04-30T15:34:47.967Z</time></trkpt><trkpt lat="46.004154" lon="13.3391812"><ele>66.25</ele><time>2026-04-30T15:34:48.967Z</time></trkpt><trkpt lat="46.004068" lon="13.3393416"><ele>66.5</ele><time>2026-04-30T15:34:49.966Z</time></trkpt><trkpt lat="46.0039839" lon="13.3395025"><ele>66.75</ele><time>2026-04-30T15:34:50.967Z</time></trkpt><trkpt lat="46.0038998" lon="13.33966"><ele>67.0</ele><time>2026-04-30T15:34:51.967Z</time></trkpt><trkpt lat="46.0038233" lon="13.3398085"><ele>67.5</ele><time>2026-04-30T15:34:52.967Z</time></trkpt><trkpt lat="46.0037519" lon="13.3399483"><ele>68.0</ele><time>2026-04-30T15:34:53.967Z</time></trkpt><trkpt lat="46.003683" lon="13.3400825"><ele>68.5</ele><time>2026-04-30T15:34:54.966Z</time></trkpt><trkpt lat="46.0036169" lon="13.3402138"><ele>69.0</ele><time>2026-04-30T15:34:55.967Z</time></trkpt><trkpt lat="46.0035484" lon="13.3403519"><ele>69.0</ele><time>2026-04-30T15:34:56.966Z</time></trkpt><trkpt lat="46.0034766" lon="13.3404933"><ele>69.0</ele><time>2026-04-30T15:34:57.967Z</time></trkpt><trkpt lat="46.0034023" lon="13.3406387"><ele>69.0</ele><time>2026-04-30T15:34:58.967Z</time></trkpt><trkpt lat="46.0033242" lon="13.3407881"><ele>69.0</ele><time>2026-04-30T15:34:59.966Z</time></trkpt><trkpt lat="46.003244" lon="13.3409419"><ele>68.25</ele><time>2026-04-30T15:35:00.967Z</time></trkpt><trkpt lat="46.0031611" lon="13.3410963"><ele>67.5</ele><time>2026-04-30T15:35:01.967Z</time></trkpt><trkpt lat="46.0030793" lon="13.3412475"><ele>66.75</ele><time>2026-04-30T15:35:02.967Z</time></trkpt><trkpt lat="46.0030021" lon="13.3413862"><ele>66.0</ele><time>2026-04-30T15:35:03.965Z</time></trkpt><trkpt lat="46.0029227" lon="13.3415376"><ele>66.0</ele><time>2026-04-30T15:35:04.967Z</time></trkpt><trkpt lat="46.0028411" lon="13.3416896"><ele>66.0</ele><time>2026-04-30T15:35:05.967Z</time></trkpt><trkpt lat="46.0027563" lon="13.341843"><ele>66.0</ele><time>2026-04-30T15:35:06.966Z</time></trkpt><trkpt lat="46.0026738" lon="13.3419974"><ele>66.0</ele><time>2026-04-30T15:35:07.967Z</time></trkpt><trkpt lat="46.0025882" lon="13.342154"><ele>66.25</ele><time>2026-04-30T15:35:08.967Z</time></trkpt><trkpt lat="46.0025063" lon="13.3423089"><ele>66.5</ele><time>2026-04-30T15:35:09.966Z</time></trkpt><trkpt lat="46.002424" lon="13.3424624"><ele>66.75</ele><time>2026-04-30T15:35:10.967Z</time></trkpt><trkpt lat="46.0023413" lon="13.3426192"><ele>67.0</ele><time>2026-04-30T15:35:11.966Z</time></trkpt><trkpt lat="46.0022585" lon="13.3427779"><ele>67.0</ele><time>2026-04-30T15:35:12.967Z</time></trkpt><trkpt lat="46.0021743" lon="13.3429384"><ele>67.0</ele><time>2026-04-30T15:35:13.967Z</time></trkpt><trkpt lat="46.0020865" lon="13.3430987"><ele>67.0</ele><time>2026-04-30T15:35:14.966Z</time></trkpt><trkpt lat="46.0019971" lon="13.3432589"><ele>67.0</ele><time>2026-04-30T15:35:15.967Z</time></trkpt><trkpt lat="46.0019104" lon="13.3434225"><ele>66.25</ele><time>2026-04-30T15:35:16.967Z</time></trkpt><trkpt lat="46.0018226" lon="13.3435859"><ele>65.5</ele><time>2026-04-30T15:35:17.967Z</time></trkpt><trkpt lat="46.0017325" lon="13.3437472"><ele>64.75</ele><time>2026-04-30T15:35:18.966Z</time></trkpt><trkpt lat="46.0016469" lon="13.3439124"><ele>64.0</ele><time>2026-04-30T15:35:19.967Z</time></trkpt><trkpt lat="46.0015579" lon="13.3440808"><ele>63.75</ele><time>2026-04-30T15:35:20.967Z</time></trkpt><trkpt lat="46.0014702" lon="13.3442473"><ele>63.5</ele><time>2026-04-30T15:35:21.967Z</time></trkpt><trkpt lat="46.0013796" lon="13.3444126"><ele>63.25</ele><time>2026-04-30T15:35:22.967Z</time></trkpt><trkpt lat="46.0012897" lon="13.344581"><ele>63.0</ele><time>2026-04-30T15:35:23.966Z</time></trkpt><trkpt lat="46.0011985" lon="13.3447534"><ele>63.0</ele><time>2026-04-30T15:35:24.967Z</time></trkpt><trkpt lat="46.0011063" lon="13.3449232"><ele>63.0</ele><time>2026-04-30T15:35:25.967Z</time></trkpt><trkpt lat="46.0010127" lon="13.3450943"><ele>63.0</ele><time>2026-04-30T15:35:26.966Z</time></trkpt><trkpt lat="46.0009201" lon="13.3452669"><ele>63.0</ele><time>2026-04-30T15:35:27.967Z</time></trkpt><trkpt lat="46.0008283" lon="13.3454384"><ele>63.0</ele><time>2026-04-30T15:35:28.967Z</time></trkpt><trkpt lat="46.0007343" lon="13.3456153"><ele>63.0</ele><time>2026-04-30T15:35:29.967Z</time></trkpt><trkpt lat="46.0006371" lon="13.3457974"><ele>63.0</ele><time>2026-04-30T15:35:30.966Z</time></trkpt><trkpt lat="46.0005394" lon="13.3459767"><ele>63.0</ele><time>2026-04-30T15:35:31.967Z</time></trkpt><trkpt lat="46.000441" lon="13.3461598"><ele>63.0</ele><time>2026-04-30T15:35:32.967Z</time></trkpt><trkpt lat="46.0003418" lon="13.346344"><ele>63.33333333333333</ele><time>2026-04-30T15:35:33.966Z</time></trkpt><trkpt lat="46.0002455" lon="13.3465319"><ele>63.666666666666664</ele><time>2026-04-30T15:35:34.967Z</time></trkpt><trkpt lat="46.0001495" lon="13.3467208"><ele>64.0</ele><time>2026-04-30T15:35:35.967Z</time></trkpt><trkpt lat="46.000051" lon="13.3469093"><ele>64.0</ele><time>2026-04-30T15:35:36.966Z</time></trkpt><trkpt lat="45.9999518" lon="13.3470986"><ele>64.0</ele><time>2026-04-30T15:35:37.967Z</time></trkpt><trkpt lat="45.9998492" lon="13.347288"><ele>64.0</ele><time>2026-04-30T15:35:38.967Z</time></trkpt><trkpt lat="45.9997474" lon="13.3474778"><ele>64.33333333333333</ele><time>2026-04-30T15:35:39.966Z</time></trkpt><trkpt lat="45.9996443" lon="13.3476719"><ele>64.66666666666667</ele><time>2026-04-30T15:35:40.967Z</time></trkpt><trkpt lat="45.9995394" lon="13.3478636"><ele>65.0</ele><time>2026-04-30T15:35:41.967Z</time></trkpt><trkpt lat="45.9994374" lon="13.3480536"><ele>65.0</ele><time>2026-04-30T15:35:42.966Z</time></trkpt><trkpt lat="45.9993342" lon="13.3482433"><ele>65.0</ele><time>2026-04-30T15:35:43.967Z</time></trkpt><trkpt lat="45.9992315" lon="13.3484335"><ele>65.0</ele><time>2026-04-30T15:35:44.966Z</time></trkpt><trkpt lat="45.999131" lon="13.348622"><ele>64.66666666666667</ele><time>2026-04-30T15:35:45.966Z</time></trkpt><trkpt lat="45.9990306" lon="13.3488097"><ele>64.33333333333333</ele><time>2026-04-30T15:35:46.967Z</time></trkpt><trkpt lat="45.9989336" lon="13.3489928"><ele>64.0</ele><time>2026-04-30T15:35:47.967Z</time></trkpt><trkpt lat="45.9988329" lon="13.3491802"><ele>64.0</ele><time>2026-04-30T15:35:48.966Z</time></trkpt><trkpt lat="45.9987358" lon="13.3493678"><ele>64.0</ele><time>2026-04-30T15:35:49.967Z</time></trkpt><trkpt lat="45.998638" lon="13.3495527"><ele>64.0</ele><time>2026-04-30T15:35:50.967Z</time></trkpt><trkpt lat="45.9985377" lon="13.3497412"><ele>63.0</ele><time>2026-04-30T15:35:51.966Z</time></trkpt><trkpt lat="45.998438" lon="13.3499313"><ele>62.0</ele><time>2026-04-30T15:35:52.967Z</time></trkpt><trkpt lat="45.9983373" lon="13.3501201"><ele>61.0</ele><time>2026-04-30T15:35:53.967Z</time></trkpt><trkpt lat="45.9982356" lon="13.3503106"><ele>61.0</ele><time>2026-04-30T15:35:54.966Z</time></trkpt><trkpt lat="45.9981315" lon="13.3505019"><ele>61.0</ele><time>2026-04-30T15:35:55.967Z</time></trkpt><trkpt lat="45.9980263" lon="13.350696"><ele>61.0</ele><time>2026-04-30T15:35:56.967Z</time></trkpt><trkpt lat="45.9979202" lon="13.3508931"><ele>61.0</ele><time>2026-04-30T15:35:57.966Z</time></trkpt><trkpt lat="45.9978139" lon="13.3510905"><ele>61.0</ele><time>2026-04-30T15:35:58.967Z</time></trkpt><trkpt lat="45.9977093" lon="13.3512899"><ele>61.0</ele><time>2026-04-30T15:35:59.967Z</time></trkpt><trkpt lat="45.9976047" lon="13.3514882"><ele>61.0</ele><time>2026-04-30T15:36:00.967Z</time></trkpt><trkpt lat="45.9975005" lon="13.3516859"><ele>61.0</ele><time>2026-04-30T15:36:01.967Z</time></trkpt><trkpt lat="45.9973957" lon="13.3518821"><ele>61.0</ele><time>2026-04-30T15:36:02.967Z</time></trkpt><trkpt lat="45.9972913" lon="13.3520773"><ele>61.666666666666664</ele><time>2026-04-30T15:36:03.967Z</time></trkpt><trkpt lat="45.9971877" lon="13.3522699"><ele>62.33333333333333</ele><time>2026-04-30T15:36:04.967Z</time></trkpt><trkpt lat="45.9970817" lon="13.3524659"><ele>63.0</ele><time>2026-04-30T15:36:05.966Z</time></trkpt><trkpt lat="45.9969775" lon="13.3526605"><ele>63.0</ele><time>2026-04-30T15:36:06.967Z</time></trkpt><trkpt lat="45.9968732" lon="13.352855"><ele>63.0</ele><time>2026-04-30T15:36:07.967Z</time></trkpt><trkpt lat="45.9967698" lon="13.3530494"><ele>63.0</ele><time>2026-04-30T15:36:08.966Z</time></trkpt><trkpt lat="45.9966683" lon="13.3532443"><ele>62.66666666666667</ele><time>2026-04-30T15:36:09.967Z</time></trkpt><trkpt lat="45.9965663" lon="13.3534418"><ele>62.333333333333336</ele><time>2026-04-30T15:36:10.967Z</time></trkpt><trkpt lat="45.9964627" lon="13.3536349"><ele>62.0</ele><time>2026-04-30T15:36:11.966Z</time></trkpt><trkpt lat="45.9963576" lon="13.353832"><ele>60.333333333333336</ele><time>2026-04-30T15:36:12.967Z</time></trkpt><trkpt lat="45.9962512" lon="13.3540281"><ele>58.66666666666667</ele><time>2026-04-30T15:36:13.967Z</time></trkpt><trkpt lat="45.996147" lon="13.3542165"><ele>57.0</ele><time>2026-04-30T15:36:14.967Z</time></trkpt><trkpt lat="45.9960445" lon="13.354405"><ele>57.0</ele><time>2026-04-30T15:36:15.967Z</time></trkpt><trkpt lat="45.9959431" lon="13.3545897"><ele>57.0</ele><time>2026-04-30T15:36:16.966Z</time></trkpt><trkpt lat="45.9958415" lon="13.3547754"><ele>57.0</ele><time>2026-04-30T15:36:17.967Z</time></trkpt><trkpt lat="45.9957404" lon="13.354963"><ele>58.33333333333333</ele><time>2026-04-30T15:36:18.967Z</time></trkpt><trkpt lat="45.9956421" lon="13.3551509"><ele>59.666666666666664</ele><time>2026-04-30T15:36:19.966Z</time></trkpt><trkpt lat="45.9955425" lon="13.3553404"><ele>61.0</ele><time>2026-04-30T15:36:20.966Z</time></trkpt><trkpt lat="45.9954429" lon="13.3555312"><ele>60.666666666666664</ele><time>2026-04-30T15:36:21.967Z</time></trkpt><trkpt lat="45.9953447" lon="13.3557208"><ele>60.33333333333333</ele><time>2026-04-30T15:36:22.967Z</time></trkpt><trkpt lat="45.9952444" lon="13.3559114"><ele>60.0</ele><time>2026-04-30T15:36:23.967Z</time></trkpt><trkpt lat="45.9951439" lon="13.3561017"><ele>60.0</ele><time>2026-04-30T15:36:24.967Z</time></trkpt><trkpt lat="45.9950434" lon="13.3562958"><ele>60.0</ele><time>2026-04-30T15:36:25.967Z</time></trkpt><trkpt lat="45.9949423" lon="13.3564899"><ele>60.0</ele><time>2026-04-30T15:36:26.966Z</time></trkpt><trkpt lat="45.9948421" lon="13.3566818"><ele>60.0</ele><time>2026-04-30T15:36:27.967Z</time></trkpt><trkpt lat="45.994739" lon="13.3568753"><ele>60.0</ele><time>2026-04-30T15:36:28.967Z</time></trkpt><trkpt lat="45.9946373" lon="13.3570699"><ele>60.0</ele><time>2026-04-30T15:36:29.966Z</time></trkpt><trkpt lat="45.9945349" lon="13.3572635"><ele>60.0</ele><time>2026-04-30T15:36:30.967Z</time></trkpt><trkpt lat="45.9944314" lon="13.3574557"><ele>60.0</ele><time>2026-04-30T15:36:31.967Z</time></trkpt><trkpt lat="45.9943264" lon="13.3576485"><ele>60.0</ele><time>2026-04-30T15:36:32.967Z</time></trkpt><trkpt lat="45.9942223" lon="13.3578415"><ele>61.66666666666667</ele><time>2026-04-30T15:36:33.967Z</time></trkpt><trkpt lat="45.9941173" lon="13.3580359"><ele>63.333333333333336</ele><time>2026-04-30T15:36:34.967Z</time></trkpt><trkpt lat="45.9940123" lon="13.3582275"><ele>65.0</ele><time>2026-04-30T15:36:35.967Z</time></trkpt><trkpt lat="45.9939064" lon="13.3584208"><ele>65.0</ele><time>2026-04-30T15:36:36.967Z</time></trkpt><trkpt lat="45.9938063" lon="13.3586124"><ele>65.0</ele><time>2026-04-30T15:36:37.967Z</time></trkpt><trkpt lat="45.9937055" lon="13.3588005"><ele>65.0</ele><time>2026-04-30T15:36:38.967Z</time></trkpt><trkpt lat="45.9936058" lon="13.3589858"><ele>65.33333333333334</ele><time>2026-04-30T15:36:39.967Z</time></trkpt><trkpt lat="45.9935046" lon="13.3591702"><ele>65.66666666666667</ele><time>2026-04-30T15:36:40.966Z</time></trkpt><trkpt lat="45.9934032" lon="13.3593552"><ele>66.0</ele><time>2026-04-30T15:36:41.967Z</time></trkpt><trkpt lat="45.993303" lon="13.3595394"><ele>66.0</ele><time>2026-04-30T15:36:42.967Z</time></trkpt><trkpt lat="45.9932018" lon="13.3597263"><ele>66.0</ele><time>2026-04-30T15:36:43.965Z</time></trkpt><trkpt lat="45.9930984" lon="13.3599177"><ele>66.0</ele><time>2026-04-30T15:36:44.967Z</time></trkpt><trkpt lat="45.9929955" lon="13.3601128"><ele>66.0</ele><time>2026-04-30T15:36:45.966Z</time></trkpt><trkpt lat="45.9928926" lon="13.3603083"><ele>66.0</ele><time>2026-04-30T15:36:46.967Z</time></trkpt><trkpt lat="45.9927873" lon="13.3605009"><ele>66.0</ele><time>2026-04-30T15:36:47.967Z</time></trkpt><trkpt lat="45.9926817" lon="13.3606962"><ele>65.66666666666667</ele><time>2026-04-30T15:36:48.967Z</time></trkpt><trkpt lat="45.9925769" lon="13.3608942"><ele>65.33333333333334</ele><time>2026-04-30T15:36:49.967Z</time></trkpt><trkpt lat="45.9924751" lon="13.3610881"><ele>65.0</ele><time>2026-04-30T15:36:50.966Z</time></trkpt><trkpt lat="45.9923701" lon="13.3612828"><ele>64.33333333333334</ele><time>2026-04-30T15:36:51.966Z</time></trkpt><trkpt lat="45.9922687" lon="13.361477"><ele>63.66666666666667</ele><time>2026-04-30T15:36:52.966Z</time></trkpt><trkpt lat="45.9921649" lon="13.3616724"><ele>63.0</ele><time>2026-04-30T15:36:53.965Z</time></trkpt><trkpt lat="45.9920646" lon="13.3618685"><ele>63.0</ele><time>2026-04-30T15:36:54.966Z</time></trkpt><trkpt lat="45.9919627" lon="13.3620625"><ele>63.0</ele><time>2026-04-30T15:36:55.966Z</time></trkpt><trkpt lat="45.9918594" lon="13.3622579"><ele>63.0</ele><time>2026-04-30T15:36:56.966Z</time></trkpt><trkpt lat="45.9917548" lon="13.3624532"><ele>63.0</ele><time>2026-04-30T15:36:57.965Z</time></trkpt><trkpt lat="45.9916489" lon="13.3626474"><ele>63.0</ele><time>2026-04-30T15:36:58.966Z</time></trkpt><trkpt lat="45.9915485" lon="13.3628382"><ele>63.0</ele><time>2026-04-30T15:36:59.966Z</time></trkpt><trkpt lat="45.9914525" lon="13.3630213"><ele>63.0</ele><time>2026-04-30T15:37:00.965Z</time></trkpt><trkpt lat="45.9913571" lon="13.3632002"><ele>63.0</ele><time>2026-04-30T15:37:01.966Z</time></trkpt><trkpt lat="45.9912636" lon="13.3633761"><ele>63.0</ele><time>2026-04-30T15:37:02.965Z</time></trkpt><trkpt lat="45.9911701" lon="13.3635523"><ele>63.0</ele><time>2026-04-30T15:37:03.966Z</time></trkpt><trkpt lat="45.9910752" lon="13.363728"><ele>63.0</ele><time>2026-04-30T15:37:04.966Z</time></trkpt><trkpt lat="45.9909811" lon="13.3639033"><ele>63.0</ele><time>2026-04-30T15:37:05.965Z</time></trkpt><trkpt lat="45.9908901" lon="13.3640785"><ele>63.0</ele><time>2026-04-30T15:37:06.966Z</time></trkpt><trkpt lat="45.9907979" lon="13.3642502"><ele>63.0</ele><time>2026-04-30T15:37:07.966Z</time></trkpt><trkpt lat="45.990707" lon="13.364417"><ele>63.0</ele><time>2026-04-30T15:37:08.965Z</time></trkpt><trkpt lat="45.9906201" lon="13.3645766"><ele>63.0</ele><time>2026-04-30T15:37:09.966Z</time></trkpt><trkpt lat="45.990534" lon="13.3647318"><ele>63.0</ele><time>2026-04-30T15:37:10.966Z</time></trkpt><trkpt lat="45.9904537" lon="13.3648823"><ele>63.0</ele><time>2026-04-30T15:37:11.965Z</time></trkpt><trkpt lat="45.9903753" lon="13.3650292"><ele>63.0</ele><time>2026-04-30T15:37:12.966Z</time></trkpt><trkpt lat="45.9902988" lon="13.3651734"><ele>63.0</ele><time>2026-04-30T15:37:13.966Z</time></trkpt><trkpt lat="45.9902266" lon="13.3652999"><ele>63.0</ele><time>2026-04-30T15:37:14.966Z</time></trkpt><trkpt lat="45.9901525" lon="13.3654225"><ele>63.0</ele><time>2026-04-30T15:37:15.966Z</time></trkpt><trkpt lat="45.9900797" lon="13.3655363"><ele>63.0</ele><time>2026-04-30T15:37:16.966Z</time></trkpt><trkpt lat="45.9900082" lon="13.3656373"><ele>63.0</ele><time>2026-04-30T15:37:17.965Z</time></trkpt><trkpt lat="45.9899401" lon="13.3657228"><ele>63.0</ele><time>2026-04-30T15:37:18.965Z</time></trkpt><trkpt lat="45.9898632" lon="13.3658042"><ele>62.8</ele><time>2026-04-30T15:37:19.966Z</time></trkpt><trkpt lat="45.9897846" lon="13.3658848"><ele>62.599999999999994</ele><time>2026-04-30T15:37:20.965Z</time></trkpt><trkpt lat="45.9897157" lon="13.3659885"><ele>62.400000000000006</ele><time>2026-04-30T15:37:21.966Z</time></trkpt><trkpt lat="45.9896653" lon="13.366113"><ele>62.2</ele><time>2026-04-30T15:37:22.966Z</time></trkpt><trkpt lat="45.9896314" lon="13.3662462"><ele>62.0</ele><time>2026-04-30T15:37:23.966Z</time></trkpt><trkpt lat="45.9895941" lon="13.3663777"><ele>62.0</ele><time>2026-04-30T15:37:24.966Z</time></trkpt><trkpt lat="45.9895467" lon="13.3665079"><ele>62.0</ele><time>2026-04-30T15:37:25.966Z</time></trkpt><trkpt lat="45.9894922" lon="13.3666366"><ele>62.0</ele><time>2026-04-30T15:37:26.965Z</time></trkpt><trkpt lat="45.9894341" lon="13.3667538"><ele>62.0</ele><time>2026-04-30T15:37:27.966Z</time></trkpt><trkpt lat="45.9893748" lon="13.3668755"><ele>62.0</ele><time>2026-04-30T15:37:28.966Z</time></trkpt><trkpt lat="45.9893102" lon="13.3670005"><ele>62.0</ele><time>2026-04-30T15:37:29.965Z</time></trkpt><trkpt lat="45.9892464" lon="13.3671229"><ele>62.0</ele><time>2026-04-30T15:37:30.966Z</time></trkpt><trkpt lat="45.9891815" lon="13.3672512"><ele>62.0</ele><time>2026-04-30T15:37:31.965Z</time></trkpt><trkpt lat="45.9891139" lon="13.3673802"><ele>62.0</ele><time>2026-04-30T15:37:32.966Z</time></trkpt><trkpt lat="45.9890439" lon="13.3675137"><ele>62.0</ele><time>2026-04-30T15:37:33.966Z</time></trkpt><trkpt lat="45.988972" lon="13.3676458"><ele>62.0</ele><time>2026-04-30T15:37:34.965Z</time></trkpt><trkpt lat="45.9888969" lon="13.3677835"><ele>62.0</ele><time>2026-04-30T15:37:35.966Z</time></trkpt><trkpt lat="45.9888213" lon="13.3679269"><ele>62.0</ele><time>2026-04-30T15:37:36.965Z</time></trkpt><trkpt lat="45.9887449" lon="13.3680714"><ele>62.0</ele><time>2026-04-30T15:37:37.966Z</time></trkpt><trkpt lat="45.988667" lon="13.3682185"><ele>62.25</ele><time>2026-04-30T15:37:38.966Z</time></trkpt><trkpt lat="45.9885857" lon="13.3683656"><ele>62.5</ele><time>2026-04-30T15:37:39.965Z</time></trkpt><trkpt lat="45.988503" lon="13.3685159"><ele>62.75</ele><time>2026-04-30T15:37:40.966Z</time></trkpt><trkpt lat="45.9884228" lon="13.368668"><ele>63.0</ele><time>2026-04-30T15:37:41.966Z</time></trkpt><trkpt lat="45.9883404" lon="13.3688225"><ele>63.0</ele><time>2026-04-30T15:37:42.965Z</time></trkpt><trkpt lat="45.9882578" lon="13.3689777"><ele>63.0</ele><time>2026-04-30T15:37:43.966Z</time></trkpt><trkpt lat="45.9881749" lon="13.3691349"><ele>63.0</ele><time>2026-04-30T15:37:44.966Z</time></trkpt><trkpt lat="45.9880917" lon="13.3692914"><ele>63.0</ele><time>2026-04-30T15:37:45.966Z</time></trkpt><trkpt lat="45.9880072" lon="13.3694447"><ele>63.0</ele><time>2026-04-30T15:37:46.966Z</time></trkpt><trkpt lat="45.9879237" lon="13.3695969"><ele>63.0</ele><time>2026-04-30T15:37:47.965Z</time></trkpt><trkpt lat="45.9878444" lon="13.3697409"><ele>63.0</ele><time>2026-04-30T15:37:48.966Z</time></trkpt><trkpt lat="45.987768" lon="13.3698767"><ele>63.0</ele><time>2026-04-30T15:37:49.966Z</time></trkpt><trkpt lat="45.9876969" lon="13.3700093"><ele>63.2</ele><time>2026-04-30T15:37:50.965Z</time></trkpt><trkpt lat="45.9876266" lon="13.3701424"><ele>63.4</ele><time>2026-04-30T15:37:51.966Z</time></trkpt><trkpt lat="45.9875599" lon="13.3702683"><ele>63.60000000000001</ele><time>2026-04-30T15:37:52.966Z</time></trkpt><trkpt lat="45.987496" lon="13.3703858"><ele>63.800000000000004</ele><time>2026-04-30T15:37:53.966Z</time></trkpt><trkpt lat="45.9874387" lon="13.3704944"><ele>64.0</ele><time>2026-04-30T15:37:54.966Z</time></trkpt><trkpt lat="45.9873845" lon="13.3705983"><ele>64.2</ele><time>2026-04-30T15:37:55.965Z</time></trkpt><trkpt lat="45.9873287" lon="13.3707094"><ele>64.4</ele><time>2026-04-30T15:37:56.966Z</time></trkpt><trkpt lat="45.9872721" lon="13.3708244"><ele>64.6</ele><time>2026-04-30T15:37:57.966Z</time></trkpt><trkpt lat="45.9872145" lon="13.3709413"><ele>64.8</ele><time>2026-04-30T15:37:58.965Z</time></trkpt><trkpt lat="45.9871562" lon="13.3710544"><ele>65.0</ele><time>2026-04-30T15:37:59.966Z</time></trkpt><trkpt lat="45.9871045" lon="13.3711498"><ele>65.0</ele><time>2026-04-30T15:38:00.966Z</time></trkpt><trkpt lat="45.9870615" lon="13.3712289"><ele>65.0</ele><time>2026-04-30T15:38:01.965Z</time></trkpt><trkpt lat="45.9869923" lon="13.371354"><ele>65.0</ele><time>2026-04-30T15:38:03.965Z</time></trkpt><trkpt lat="45.9869278" lon="13.3714687"><ele>65.0</ele><time>2026-04-30T15:38:05.966Z</time></trkpt><trkpt lat="45.9868653" lon="13.3715794"><ele>65.0</ele><time>2026-04-30T15:38:07.965Z</time></trkpt><trkpt lat="45.9867993" lon="13.3716927"><ele>64.8</ele><time>2026-04-30T15:38:09.966Z</time></trkpt><trkpt lat="45.9867262" lon="13.3718202"><ele>64.6</ele><time>2026-04-30T15:38:11.965Z</time></trkpt><trkpt lat="45.9866493" lon="13.3719778"><ele>64.4</ele><time>2026-04-30T15:38:13.966Z</time></trkpt><trkpt lat="45.9865916" lon="13.372067"><ele>64.2</ele><time>2026-04-30T15:38:14.966Z</time></trkpt><trkpt lat="45.9865181" lon="13.372161"><ele>64.0</ele><time>2026-04-30T15:38:15.965Z</time></trkpt><trkpt lat="45.9864275" lon="13.3722351"><ele>64.33333333333333</ele><time>2026-04-30T15:38:16.966Z</time></trkpt><trkpt lat="45.9863343" lon="13.3722696"><ele>64.66666666666666</ele><time>2026-04-30T15:38:17.965Z</time></trkpt><trkpt lat="45.9862505" lon="13.3723177"><ele>65.0</ele><time>2026-04-30T15:38:18.966Z</time></trkpt><trkpt lat="45.9861897" lon="13.372395"><ele>65.33333333333333</ele><time>2026-04-30T15:38:19.966Z</time></trkpt><trkpt lat="45.9861508" lon="13.3724871"><ele>65.66666666666667</ele><time>2026-04-30T15:38:20.965Z</time></trkpt><trkpt lat="45.9861321" lon="13.3725854"><ele>66.0</ele><time>2026-04-30T15:38:21.966Z</time></trkpt><trkpt lat="45.9861251" lon="13.372693"><ele>66.0</ele><time>2026-04-30T15:38:22.965Z</time></trkpt><trkpt lat="45.9861113" lon="13.372807"><ele>66.0</ele><time>2026-04-30T15:38:23.966Z</time></trkpt><trkpt lat="45.9860823" lon="13.3729188"><ele>66.0</ele><time>2026-04-30T15:38:24.965Z</time></trkpt><trkpt lat="45.9860409" lon="13.373038"><ele>66.0</ele><time>2026-04-30T15:38:25.966Z</time></trkpt><trkpt lat="45.9859896" lon="13.3731645"><ele>66.0</ele><time>2026-04-30T15:38:26.966Z</time></trkpt><trkpt lat="45.9859307" lon="13.3732936"><ele>65.75</ele><time>2026-04-30T15:38:27.966Z</time></trkpt><trkpt lat="45.985869" lon="13.3734248"><ele>65.5</ele><time>2026-04-30T15:38:28.966Z</time></trkpt><trkpt lat="45.985799" lon="13.3735635"><ele>65.25</ele><time>2026-04-30T15:38:29.965Z</time></trkpt><trkpt lat="45.9857262" lon="13.3737004"><ele>65.0</ele><time>2026-04-30T15:38:30.966Z</time></trkpt><trkpt lat="45.9856511" lon="13.3738446"><ele>64.75</ele><time>2026-04-30T15:38:31.966Z</time></trkpt><trkpt lat="45.9855737" lon="13.3739897"><ele>64.5</ele><time>2026-04-30T15:38:32.966Z</time></trkpt><trkpt lat="45.9854981" lon="13.3741307"><ele>64.25</ele><time>2026-04-30T15:38:33.966Z</time></trkpt><trkpt lat="45.9854226" lon="13.3742737"><ele>64.0</ele><time>2026-04-30T15:38:34.965Z</time></trkpt><trkpt lat="45.985345" lon="13.3744156"><ele>64.0</ele><time>2026-04-30T15:38:35.966Z</time></trkpt><trkpt lat="45.9852766" lon="13.3745504"><ele>64.0</ele><time>2026-04-30T15:38:36.966Z</time></trkpt><trkpt lat="45.9852126" lon="13.3746795"><ele>64.0</ele><time>2026-04-30T15:38:37.965Z</time></trkpt><trkpt lat="45.9851547" lon="13.3748026"><ele>64.0</ele><time>2026-04-30T15:38:38.966Z</time></trkpt><trkpt lat="45.9850956" lon="13.3749281"><ele>64.0</ele><time>2026-04-30T15:38:39.966Z</time></trkpt><trkpt lat="45.9850301" lon="13.3750564"><ele>63.2</ele><time>2026-04-30T15:38:40.965Z</time></trkpt><trkpt lat="45.9849598" lon="13.3751901"><ele>62.400000000000006</ele><time>2026-04-30T15:38:41.966Z</time></trkpt><trkpt lat="45.984889" lon="13.3753209"><ele>61.6</ele><time>2026-04-30T15:38:42.966Z</time></trkpt><trkpt lat="45.984822" lon="13.3754407"><ele>60.8</ele><time>2026-04-30T15:38:43.966Z</time></trkpt><trkpt lat="45.9847549" lon="13.3755492"><ele>60.0</ele><time>2026-04-30T15:38:44.966Z</time></trkpt><trkpt lat="45.9846892" lon="13.375664"><ele>60.0</ele><time>2026-04-30T15:38:45.965Z</time></trkpt><trkpt lat="45.9846224" lon="13.3757827"><ele>60.0</ele><time>2026-04-30T15:38:46.966Z</time></trkpt><trkpt lat="45.9845563" lon="13.3759049"><ele>60.0</ele><time>2026-04-30T15:38:47.966Z</time></trkpt><trkpt lat="45.9844907" lon="13.3760262"><ele>60.0</ele><time>2026-04-30T15:38:48.966Z</time></trkpt><trkpt lat="45.9844235" lon="13.3761525"><ele>60.0</ele><time>2026-04-30T15:38:49.966Z</time></trkpt><trkpt lat="45.9843531" lon="13.3762871"><ele>60.0</ele><time>2026-04-30T15:38:50.965Z</time></trkpt><trkpt lat="45.9842792" lon="13.3764243"><ele>60.0</ele><time>2026-04-30T15:38:51.966Z</time></trkpt><trkpt lat="45.9842062" lon="13.3765619"><ele>60.0</ele><time>2026-04-30T15:38:52.966Z</time></trkpt><trkpt lat="45.9841334" lon="13.3767002"><ele>60.0</ele><time>2026-04-30T15:38:53.965Z</time></trkpt><trkpt lat="45.98406" lon="13.3768384"><ele>60.0</ele><time>2026-04-30T15:38:54.966Z</time></trkpt><trkpt lat="45.9839843" lon="13.3769775"><ele>60.0</ele><time>2026-04-30T15:38:55.965Z</time></trkpt><trkpt lat="45.9839077" lon="13.377117"><ele>60.0</ele><time>2026-04-30T15:38:56.966Z</time></trkpt><trkpt lat="45.9838296" lon="13.3772578"><ele>60.0</ele><time>2026-04-30T15:38:57.966Z</time></trkpt><trkpt lat="45.9837536" lon="13.3773994"><ele>60.0</ele><time>2026-04-30T15:38:58.965Z</time></trkpt><trkpt lat="45.9836765" lon="13.3775418"><ele>60.0</ele><time>2026-04-30T15:38:59.966Z</time></trkpt><trkpt lat="45.9835986" lon="13.3776854"><ele>60.0</ele><time>2026-04-30T15:39:00.966Z</time></trkpt><trkpt lat="45.9835216" lon="13.3778306"><ele>60.0</ele><time>2026-04-30T15:39:01.965Z</time></trkpt><trkpt lat="45.9834435" lon="13.3779763"><ele>60.0</ele><time>2026-04-30T15:39:02.966Z</time></trkpt><trkpt lat="45.9833671" lon="13.3781226"><ele>60.0</ele><time>2026-04-30T15:39:03.966Z</time></trkpt><trkpt lat="45.9832927" lon="13.3782708"><ele>60.0</ele><time>2026-04-30T15:39:04.965Z</time></trkpt><trkpt lat="45.983221" lon="13.3784105"><ele>60.0</ele><time>2026-04-30T15:39:05.966Z</time></trkpt><trkpt lat="45.9831549" lon="13.3785389"><ele>60.0</ele><time>2026-04-30T15:39:06.966Z</time></trkpt><trkpt lat="45.9830892" lon="13.3786634"><ele>60.0</ele><time>2026-04-30T15:39:07.966Z</time></trkpt><trkpt lat="45.9830238" lon="13.3787863"><ele>60.0</ele><time>2026-04-30T15:39:08.965Z</time></trkpt><trkpt lat="45.9829604" lon="13.3789027"><ele>60.0</ele><time>2026-04-30T15:39:09.966Z</time></trkpt><trkpt lat="45.9829034" lon="13.3790152"><ele>60.0</ele><time>2026-04-30T15:39:10.966Z</time></trkpt><trkpt lat="45.9828475" lon="13.3791192"><ele>60.0</ele><time>2026-04-30T15:39:11.966Z</time></trkpt><trkpt lat="45.9827981" lon="13.3792117"><ele>60.0</ele><time>2026-04-30T15:39:12.966Z</time></trkpt><trkpt lat="45.9827511" lon="13.3793023"><ele>60.0</ele><time>2026-04-30T15:39:13.966Z</time></trkpt><trkpt lat="45.9827069" lon="13.379385"><ele>60.0</ele><time>2026-04-30T15:39:14.965Z</time></trkpt><trkpt lat="45.9826598" lon="13.3794719"><ele>60.0</ele><time>2026-04-30T15:39:15.966Z</time></trkpt><trkpt lat="45.9826071" lon="13.3795622"><ele>60.0</ele><time>2026-04-30T15:39:16.965Z</time></trkpt><trkpt lat="45.9825498" lon="13.3796518"><ele>59.5</ele><time>2026-04-30T15:39:17.966Z</time></trkpt><trkpt lat="45.982486" lon="13.3797418"><ele>59.0</ele><time>2026-04-30T15:39:18.966Z</time></trkpt><trkpt lat="45.9824225" lon="13.3798232"><ele>58.5</ele><time>2026-04-30T15:39:19.965Z</time></trkpt><trkpt lat="45.9823642" lon="13.3798974"><ele>58.0</ele><time>2026-04-30T15:39:20.966Z</time></trkpt><trkpt lat="45.9822963" lon="13.3799613"><ele>57.5</ele><time>2026-04-30T15:39:21.965Z</time></trkpt><trkpt lat="45.9822171" lon="13.3800058"><ele>57.0</ele><time>2026-04-30T15:39:22.966Z</time></trkpt><trkpt lat="45.9821223" lon="13.3800178"><ele>57.0</ele><time>2026-04-30T15:39:23.966Z</time></trkpt><trkpt lat="45.9820182" lon="13.3800155"><ele>57.0</ele><time>2026-04-30T15:39:24.966Z</time></trkpt><trkpt lat="45.9819142" lon="13.3800199"><ele>57.0</ele><time>2026-04-30T15:39:25.966Z</time></trkpt><trkpt lat="45.9818131" lon="13.3800553"><ele>57.0</ele><time>2026-04-30T15:39:26.966Z</time></trkpt><trkpt lat="45.9817198" lon="13.3801184"><ele>57.0</ele><time>2026-04-30T15:39:27.964Z</time></trkpt><trkpt lat="45.9816368" lon="13.3802124"><ele>56.8</ele><time>2026-04-30T15:39:28.966Z</time></trkpt><trkpt lat="45.981567" lon="13.3803259"><ele>56.6</ele><time>2026-04-30T15:39:29.966Z</time></trkpt><trkpt lat="45.9815163" lon="13.3804616"><ele>56.39999999999999</ele><time>2026-04-30T15:39:30.966Z</time></trkpt><trkpt lat="45.9814852" lon="13.380605"><ele>56.199999999999996</ele><time>2026-04-30T15:39:31.966Z</time></trkpt><trkpt lat="45.9814689" lon="13.3807573"><ele>56.0</ele><time>2026-04-30T15:39:32.965Z</time></trkpt><trkpt lat="45.9814742" lon="13.380911"><ele>56.0</ele><time>2026-04-30T15:39:33.966Z</time></trkpt><trkpt lat="45.981495" lon="13.3810609"><ele>55.99999999999999</ele><time>2026-04-30T15:39:34.966Z</time></trkpt><trkpt lat="45.9815068" lon="13.381215"><ele>55.99999999999999</ele><time>2026-04-30T15:39:35.965Z</time></trkpt><trkpt lat="45.981499" lon="13.381368"><ele>56.0</ele><time>2026-04-30T15:39:36.966Z</time></trkpt><trkpt lat="45.9814642" lon="13.3815155"><ele>56.0</ele><time>2026-04-30T15:39:37.965Z</time></trkpt><trkpt lat="45.9814177" lon="13.3816638"><ele>56.0</ele><time>2026-04-30T15:39:38.966Z</time></trkpt><trkpt lat="45.9813628" lon="13.3818156"><ele>56.0</ele><time>2026-04-30T15:39:39.966Z</time></trkpt><trkpt lat="45.981298" lon="13.3819619"><ele>56.0</ele><time>2026-04-30T15:39:40.966Z</time></trkpt><trkpt lat="45.9812232" lon="13.38211"><ele>56.0</ele><time>2026-04-30T15:39:41.966Z</time></trkpt><trkpt lat="45.9811465" lon="13.3822627"><ele>56.0</ele><time>2026-04-30T15:39:42.965Z</time></trkpt><trkpt lat="45.9810665" lon="13.3824222"><ele>56.0</ele><time>2026-04-30T15:39:43.966Z</time></trkpt><trkpt lat="45.9809843" lon="13.3825824"><ele>56.0</ele><time>2026-04-30T15:39:44.965Z</time></trkpt><trkpt lat="45.9808996" lon="13.3827439"><ele>56.0</ele><time>2026-04-30T15:39:45.966Z</time></trkpt><trkpt lat="45.9808165" lon="13.3829034"><ele>56.0</ele><time>2026-04-30T15:39:46.966Z</time></trkpt><trkpt lat="45.9807335" lon="13.3830678"><ele>56.0</ele><time>2026-04-30T15:39:47.966Z</time></trkpt><trkpt lat="45.9806508" lon="13.3832327"><ele>56.0</ele><time>2026-04-30T15:39:48.966Z</time></trkpt><trkpt lat="45.9805631" lon="13.3833941"><ele>56.0</ele><time>2026-04-30T15:39:49.965Z</time></trkpt><trkpt lat="45.9804736" lon="13.3835521"><ele>56.0</ele><time>2026-04-30T15:39:50.966Z</time></trkpt><trkpt lat="45.9803819" lon="13.3837204"><ele>56.0</ele><time>2026-04-30T15:39:51.965Z</time></trkpt><trkpt lat="45.9802878" lon="13.3838998"><ele>56.0</ele><time>2026-04-30T15:39:52.965Z</time></trkpt><trkpt lat="45.9801915" lon="13.3840815"><ele>57.0</ele><time>2026-04-30T15:39:53.966Z</time></trkpt><trkpt lat="45.9800945" lon="13.3842596"><ele>58.0</ele><time>2026-04-30T15:39:54.966Z</time></trkpt><trkpt lat="45.9799978" lon="13.3844487"><ele>59.0</ele><time>2026-04-30T15:39:55.965Z</time></trkpt><trkpt lat="45.9798938" lon="13.3846646"><ele>58.333333333333336</ele><time>2026-04-30T15:39:56.966Z</time></trkpt><trkpt lat="45.9797706" lon="13.3848963"><ele>57.66666666666667</ele><time>2026-04-30T15:39:57.965Z</time></trkpt><trkpt lat="45.9796333" lon="13.385141"><ele>57.0</ele><time>2026-04-30T15:39:58.965Z</time></trkpt><trkpt lat="45.9794837" lon="13.3854015"><ele>57.5</ele><time>2026-04-30T15:39:59.966Z</time></trkpt><trkpt lat="45.9793383" lon="13.385662"><ele>58.0</ele><time>2026-04-30T15:40:00.966Z</time></trkpt><trkpt lat="45.9792033" lon="13.3859126"><ele>58.0</ele><time>2026-04-30T15:40:01.965Z</time></trkpt><trkpt lat="45.9790779" lon="13.3861503"><ele>58.0</ele><time>2026-04-30T15:40:02.965Z</time></trkpt><trkpt lat="45.9789646" lon="13.3863693"><ele>58.0</ele><time>2026-04-30T15:40:03.966Z</time></trkpt><trkpt lat="45.9788556" lon="13.3865745"><ele>57.33333333333333</ele><time>2026-04-30T15:40:04.966Z</time></trkpt><trkpt lat="45.9787524" lon="13.3867689"><ele>56.66666666666667</ele><time>2026-04-30T15:40:05.965Z</time></trkpt><trkpt lat="45.9786487" lon="13.3869611"><ele>56.0</ele><time>2026-04-30T15:40:06.966Z</time></trkpt><trkpt lat="45.9785457" lon="13.3871525"><ele>55.66666666666667</ele><time>2026-04-30T15:40:07.966Z</time></trkpt><trkpt lat="45.9784444" lon="13.3873445"><ele>55.33333333333333</ele><time>2026-04-30T15:40:08.966Z</time></trkpt><trkpt lat="45.9783434" lon="13.3875357"><ele>55.0</ele><time>2026-04-30T15:40:09.966Z</time></trkpt><trkpt lat="45.9782398" lon="13.3877246"><ele>55.0</ele><time>2026-04-30T15:40:10.966Z</time></trkpt><trkpt lat="45.9781375" lon="13.3879118"><ele>55.0</ele><time>2026-04-30T15:40:11.966Z</time></trkpt><trkpt lat="45.978037" lon="13.3881023"><ele>55.0</ele><time>2026-04-30T15:40:12.965Z</time></trkpt><trkpt lat="45.9779366" lon="13.3882904"><ele>55.0</ele><time>2026-04-30T15:40:13.965Z</time></trkpt><trkpt lat="45.9778367" lon="13.3884777"><ele>55.0</ele><time>2026-04-30T15:40:14.966Z</time></trkpt><trkpt lat="45.9777363" lon="13.3886657"><ele>55.0</ele><time>2026-04-30T15:40:15.966Z</time></trkpt><trkpt lat="45.9776376" lon="13.3888541"><ele>55.666666666666664</ele><time>2026-04-30T15:40:16.965Z</time></trkpt><trkpt lat="45.9775372" lon="13.3890414"><ele>56.33333333333333</ele><time>2026-04-30T15:40:17.966Z</time></trkpt><trkpt lat="45.9774368" lon="13.3892259"><ele>57.0</ele><time>2026-04-30T15:40:18.966Z</time></trkpt><trkpt lat="45.9773355" lon="13.3894094"><ele>56.33333333333333</ele><time>2026-04-30T15:40:19.966Z</time></trkpt><trkpt lat="45.9772334" lon="13.3895934"><ele>55.666666666666664</ele><time>2026-04-30T15:40:20.966Z</time></trkpt><trkpt lat="45.9771343" lon="13.3897796"><ele>55.0</ele><time>2026-04-30T15:40:21.965Z</time></trkpt><trkpt lat="45.9770346" lon="13.389968"><ele>55.0</ele><time>2026-04-30T15:40:22.966Z</time></trkpt><trkpt lat="45.976938" lon="13.3901563"><ele>55.0</ele><time>2026-04-30T15:40:23.966Z</time></trkpt><trkpt lat="45.9768414" lon="13.3903444"><ele>55.0</ele><time>2026-04-30T15:40:24.965Z</time></trkpt><trkpt lat="45.9767422" lon="13.3905316"><ele>56.33333333333333</ele><time>2026-04-30T15:40:25.965Z</time></trkpt><trkpt lat="45.9766435" lon="13.3907154"><ele>57.66666666666667</ele><time>2026-04-30T15:40:26.966Z</time></trkpt><trkpt lat="45.9765456" lon="13.3908991"><ele>59.0</ele><time>2026-04-30T15:40:27.966Z</time></trkpt><trkpt lat="45.9764473" lon="13.3910831"><ele>59.0</ele><time>2026-04-30T15:40:28.965Z</time></trkpt><trkpt lat="45.9763472" lon="13.3912649"><ele>59.0</ele><time>2026-04-30T15:40:29.966Z</time></trkpt><trkpt lat="45.9762505" lon="13.3914475"><ele>59.0</ele><time>2026-04-30T15:40:30.966Z</time></trkpt><trkpt lat="45.9761525" lon="13.3916308"><ele>59.333333333333336</ele><time>2026-04-30T15:40:31.966Z</time></trkpt><trkpt lat="45.9760583" lon="13.3918125"><ele>59.66666666666667</ele><time>2026-04-30T15:40:32.965Z</time></trkpt><trkpt lat="45.9759635" lon="13.3919941"><ele>60.0</ele><time>2026-04-30T15:40:33.966Z</time></trkpt><trkpt lat="45.9758716" lon="13.3921678"><ele>60.5</ele><time>2026-04-30T15:40:34.966Z</time></trkpt><trkpt lat="45.9757775" lon="13.3923376"><ele>61.0</ele><time>2026-04-30T15:40:35.965Z</time></trkpt><trkpt lat="45.9756884" lon="13.3925043"><ele>61.5</ele><time>2026-04-30T15:40:36.966Z</time></trkpt><trkpt lat="45.9756025" lon="13.3926637"><ele>62.0</ele><time>2026-04-30T15:40:37.965Z</time></trkpt><trkpt lat="45.9755181" lon="13.3928181"><ele>62.0</ele><time>2026-04-30T15:40:38.966Z</time></trkpt><trkpt lat="45.9754397" lon="13.3929632"><ele>62.0</ele><time>2026-04-30T15:40:39.966Z</time></trkpt><trkpt lat="45.9753629" lon="13.3930959"><ele>62.0</ele><time>2026-04-30T15:40:40.965Z</time></trkpt><trkpt lat="45.9752891" lon="13.3932188"><ele>62.0</ele><time>2026-04-30T15:40:41.966Z</time></trkpt><trkpt lat="45.9752166" lon="13.393325"><ele>62.2</ele><time>2026-04-30T15:40:42.965Z</time></trkpt><trkpt lat="45.9751395" lon="13.3934212"><ele>62.400000000000006</ele><time>2026-04-30T15:40:43.965Z</time></trkpt><trkpt lat="45.9750546" lon="13.3934987"><ele>62.599999999999994</ele><time>2026-04-30T15:40:44.965Z</time></trkpt><trkpt lat="45.9749639" lon="13.393567"><ele>62.8</ele><time>2026-04-30T15:40:45.964Z</time></trkpt><trkpt lat="45.9748859" lon="13.3936653"><ele>63.0</ele><time>2026-04-30T15:40:46.965Z</time></trkpt><trkpt lat="45.9748298" lon="13.3937937"><ele>62.75</ele><time>2026-04-30T15:40:47.965Z</time></trkpt><trkpt lat="45.974794" lon="13.3939462"><ele>62.5</ele><time>2026-04-30T15:40:48.965Z</time></trkpt><trkpt lat="45.9747531" lon="13.3941115"><ele>62.25</ele><time>2026-04-30T15:40:49.964Z</time></trkpt><trkpt lat="45.9746966" lon="13.3942779"><ele>62.0</ele><time>2026-04-30T15:40:50.965Z</time></trkpt><trkpt lat="45.9746268" lon="13.3944435"><ele>62.0</ele><time>2026-04-30T15:40:51.965Z</time></trkpt><trkpt lat="45.974554" lon="13.3945972"><ele>62.0</ele><time>2026-04-30T15:40:52.964Z</time></trkpt><trkpt lat="45.9744768" lon="13.3947467"><ele>62.0</ele><time>2026-04-30T15:40:53.965Z</time></trkpt><trkpt lat="45.9744026" lon="13.3948906"><ele>62.0</ele><time>2026-04-30T15:40:54.965Z</time></trkpt><trkpt lat="45.9743287" lon="13.3950305"><ele>61.75</ele><time>2026-04-30T15:40:55.965Z</time></trkpt><trkpt lat="45.9742548" lon="13.3951757"><ele>61.5</ele><time>2026-04-30T15:40:56.965Z</time></trkpt><trkpt lat="45.9741811" lon="13.3953139"><ele>61.25</ele><time>2026-04-30T15:40:57.965Z</time></trkpt><trkpt lat="45.9741142" lon="13.3954474"><ele>61.0</ele><time>2026-04-30T15:40:58.964Z</time></trkpt><trkpt lat="45.974051" lon="13.395569"><ele>61.4</ele><time>2026-04-30T15:40:59.965Z</time></trkpt><trkpt lat="45.973989" lon="13.3956839"><ele>61.8</ele><time>2026-04-30T15:41:00.965Z</time></trkpt><trkpt lat="45.9739288" lon="13.3957955"><ele>62.199999999999996</ele><time>2026-04-30T15:41:01.964Z</time></trkpt><trkpt lat="45.9738673" lon="13.3959102"><ele>62.599999999999994</ele><time>2026-04-30T15:41:02.965Z</time></trkpt><trkpt lat="45.9738047" lon="13.3960292"><ele>63.0</ele><time>2026-04-30T15:41:03.965Z</time></trkpt><trkpt lat="45.9737412" lon="13.3961483"><ele>63.0</ele><time>2026-04-30T15:41:04.964Z</time></trkpt><trkpt lat="45.9736769" lon="13.3962667"><ele>63.0</ele><time>2026-04-30T15:41:05.965Z</time></trkpt><trkpt lat="45.9736139" lon="13.396386"><ele>63.0</ele><time>2026-04-30T15:41:06.965Z</time></trkpt><trkpt lat="45.9735504" lon="13.3965022"><ele>63.0</ele><time>2026-04-30T15:41:07.963Z</time></trkpt><trkpt lat="45.9734877" lon="13.3966148"><ele>63.0</ele><time>2026-04-30T15:41:08.965Z</time></trkpt><trkpt lat="45.9734293" lon="13.3967182"><ele>62.833333333333336</ele><time>2026-04-30T15:41:09.965Z</time></trkpt><trkpt lat="45.973372" lon="13.3968156"><ele>62.66666666666667</ele><time>2026-04-30T15:41:10.964Z</time></trkpt><trkpt lat="45.9733183" lon="13.3969092"><ele>62.5</ele><time>2026-04-30T15:41:11.965Z</time></trkpt><trkpt lat="45.9732678" lon="13.3969953"><ele>62.333333333333336</ele><time>2026-04-30T15:41:12.965Z</time></trkpt><trkpt lat="45.9732219" lon="13.3970772"><ele>62.16666666666667</ele><time>2026-04-30T15:41:13.965Z</time></trkpt><trkpt lat="45.9731763" lon="13.3971533"><ele>62.0</ele><time>2026-04-30T15:41:14.965Z</time></trkpt><trkpt lat="45.9731268" lon="13.3972303"><ele>62.0</ele><time>2026-04-30T15:41:15.965Z</time></trkpt><trkpt lat="45.9730737" lon="13.3973028"><ele>62.00000000000001</ele><time>2026-04-30T15:41:16.965Z</time></trkpt><trkpt lat="45.9730156" lon="13.397366"><ele>62.0</ele><time>2026-04-30T15:41:17.964Z</time></trkpt><trkpt lat="45.9729537" lon="13.3974205"><ele>62.0</ele><time>2026-04-30T15:41:18.964Z</time></trkpt><trkpt lat="45.9728887" lon="13.3974628"><ele>62.00000000000001</ele><time>2026-04-30T15:41:19.965Z</time></trkpt><trkpt lat="45.9728211" lon="13.3974951"><ele>62.0</ele><time>2026-04-30T15:41:20.965Z</time></trkpt><trkpt lat="45.9727515" lon="13.3975221"><ele>62.0</ele><time>2026-04-30T15:41:21.965Z</time></trkpt><trkpt lat="45.972681" lon="13.3975514"><ele>62.00000000000001</ele><time>2026-04-30T15:41:22.965Z</time></trkpt><trkpt lat="45.9726225" lon="13.3976026"><ele>62.0</ele><time>2026-04-30T15:41:23.965Z</time></trkpt><trkpt lat="45.9725795" lon="13.3976772"><ele>62.0</ele><time>2026-04-30T15:41:24.964Z</time></trkpt><trkpt lat="45.9725586" lon="13.3977733"><ele>62.0</ele><time>2026-04-30T15:41:25.964Z</time></trkpt><trkpt lat="45.9725566" lon="13.3978736"><ele>62.00000000000001</ele><time>2026-04-30T15:41:26.964Z</time></trkpt><trkpt lat="45.9725658" lon="13.3979682"><ele>62.0</ele><time>2026-04-30T15:41:27.964Z</time></trkpt><trkpt lat="45.9725634" lon="13.3981492"><ele>61.833333333333336</ele><time>2026-04-30T15:41:29.964Z</time></trkpt><trkpt lat="45.9725441" lon="13.398243"><ele>61.66666666666667</ele><time>2026-04-30T15:41:30.964Z</time></trkpt><trkpt lat="45.9725132" lon="13.3983401"><ele>61.5</ele><time>2026-04-30T15:41:31.964Z</time></trkpt><trkpt lat="45.9724792" lon="13.3984415"><ele>61.33333333333333</ele><time>2026-04-30T15:41:32.965Z</time></trkpt><trkpt lat="45.9724419" lon="13.3985446"><ele>61.166666666666664</ele><time>2026-04-30T15:41:33.965Z</time></trkpt><trkpt lat="45.9723958" lon="13.3986459"><ele>61.0</ele><time>2026-04-30T15:41:34.964Z</time></trkpt><trkpt lat="45.9723459" lon="13.3987444"><ele>60.99999999999999</ele><time>2026-04-30T15:41:35.965Z</time></trkpt><trkpt lat="45.9723005" lon="13.3988341"><ele>61.0</ele><time>2026-04-30T15:41:36.965Z</time></trkpt><trkpt lat="45.9722543" lon="13.3989186"><ele>60.99999999999999</ele><time>2026-04-30T15:41:37.965Z</time></trkpt><trkpt lat="45.9722123" lon="13.3989938"><ele>60.99999999999999</ele><time>2026-04-30T15:41:38.965Z</time></trkpt><trkpt lat="45.9721698" lon="13.3990762"><ele>61.0</ele><time>2026-04-30T15:41:39.965Z</time></trkpt><trkpt lat="45.9721266" lon="13.3991612"><ele>60.99999999999999</ele><time>2026-04-30T15:41:40.965Z</time></trkpt><trkpt lat="45.9720832" lon="13.3992463"><ele>60.99999999999999</ele><time>2026-04-30T15:41:41.965Z</time></trkpt><trkpt lat="45.972033" lon="13.3993341"><ele>61.0</ele><time>2026-04-30T15:41:42.965Z</time></trkpt><trkpt lat="45.9719817" lon="13.3994285"><ele>60.99999999999999</ele><time>2026-04-30T15:41:43.964Z</time></trkpt><trkpt lat="45.9719277" lon="13.3995255"><ele>60.99999999999999</ele><time>2026-04-30T15:41:44.964Z</time></trkpt><trkpt lat="45.9718713" lon="13.3996286"><ele>61.0</ele><time>2026-04-30T15:41:45.965Z</time></trkpt><trkpt lat="45.9718141" lon="13.3997372"><ele>61.0</ele><time>2026-04-30T15:41:46.965Z</time></trkpt><trkpt lat="45.9717511" lon="13.3998521"><ele>61.199999999999996</ele><time>2026-04-30T15:41:47.965Z</time></trkpt><trkpt lat="45.9716893" lon="13.3999672"><ele>61.39999999999999</ele><time>2026-04-30T15:41:48.965Z</time></trkpt><trkpt lat="45.9716263" lon="13.4000852"><ele>61.6</ele><time>2026-04-30T15:41:49.965Z</time></trkpt><trkpt lat="45.971565" lon="13.4001971"><ele>61.8</ele><time>2026-04-30T15:41:50.965Z</time></trkpt><trkpt lat="45.9715104" lon="13.4003067"><ele>62.0</ele><time>2026-04-30T15:41:51.965Z</time></trkpt><trkpt lat="45.9714563" lon="13.4004101"><ele>61.833333333333336</ele><time>2026-04-30T15:41:52.965Z</time></trkpt><trkpt lat="45.9714009" lon="13.4005169"><ele>61.66666666666667</ele><time>2026-04-30T15:41:53.964Z</time></trkpt><trkpt lat="45.9713456" lon="13.4006207"><ele>61.5</ele><time>2026-04-30T15:41:54.964Z</time></trkpt><trkpt lat="45.9712914" lon="13.4007188"><ele>61.33333333333333</ele><time>2026-04-30T15:41:55.964Z</time></trkpt><trkpt lat="45.9712391" lon="13.4008183"><ele>61.166666666666664</ele><time>2026-04-30T15:41:56.964Z</time></trkpt><trkpt lat="45.9711848" lon="13.4009207"><ele>61.0</ele><time>2026-04-30T15:41:57.965Z</time></trkpt><trkpt lat="45.9711307" lon="13.4010228"><ele>60.99999999999999</ele><time>2026-04-30T15:41:58.965Z</time></trkpt><trkpt lat="45.9710787" lon="13.4011208"><ele>61.0</ele><time>2026-04-30T15:41:59.965Z</time></trkpt><trkpt lat="45.9710245" lon="13.4012207"><ele>61.0</ele><time>2026-04-30T15:42:00.965Z</time></trkpt><trkpt lat="45.9709706" lon="13.4013179"><ele>61.0</ele><time>2026-04-30T15:42:01.965Z</time></trkpt><trkpt lat="45.9709143" lon="13.4014072"><ele>60.99999999999999</ele><time>2026-04-30T15:42:02.965Z</time></trkpt><trkpt lat="45.9708585" lon="13.4014877"><ele>61.0</ele><time>2026-04-30T15:42:03.965Z</time></trkpt><trkpt lat="45.9708014" lon="13.4015638"><ele>60.99999999999999</ele><time>2026-04-30T15:42:04.965Z</time></trkpt><trkpt lat="45.9707334" lon="13.4016323"><ele>61.0</ele><time>2026-04-30T15:42:05.965Z</time></trkpt><trkpt lat="45.970655" lon="13.4016854"><ele>61.0</ele><time>2026-04-30T15:42:06.965Z</time></trkpt><trkpt lat="45.9705674" lon="13.4017332"><ele>61.0</ele><time>2026-04-30T15:42:07.965Z</time></trkpt><trkpt lat="45.9704874" lon="13.401799"><ele>60.99999999999999</ele><time>2026-04-30T15:42:08.965Z</time></trkpt><trkpt lat="45.9704294" lon="13.4019049"><ele>61.0</ele><time>2026-04-30T15:42:09.964Z</time></trkpt><trkpt lat="45.9703994" lon="13.4020372"><ele>61.0</ele><time>2026-04-30T15:42:10.965Z</time></trkpt><trkpt lat="45.9703666" lon="13.4022023"><ele>61.0</ele><time>2026-04-30T15:42:11.965Z</time></trkpt><trkpt lat="45.9703192" lon="13.4023917"><ele>61.0</ele><time>2026-04-30T15:42:12.964Z</time></trkpt><trkpt lat="45.9702522" lon="13.4025938"><ele>61.0</ele><time>2026-04-30T15:42:13.965Z</time></trkpt><trkpt lat="45.9701695" lon="13.4028033"><ele>61.0</ele><time>2026-04-30T15:42:14.965Z</time></trkpt><trkpt lat="45.9700806" lon="13.4029932"><ele>61.0</ele><time>2026-04-30T15:42:15.964Z</time></trkpt><trkpt lat="45.9699872" lon="13.4031671"><ele>61.0</ele><time>2026-04-30T15:42:16.965Z</time></trkpt><trkpt lat="45.9698961" lon="13.4033331"><ele>61.0</ele><time>2026-04-30T15:42:17.965Z</time></trkpt><trkpt lat="45.9698083" lon="13.4034981"><ele>61.0</ele><time>2026-04-30T15:42:18.965Z</time></trkpt><trkpt lat="45.9697193" lon="13.40366"><ele>61.0</ele><time>2026-04-30T15:42:19.964Z</time></trkpt><trkpt lat="45.9696344" lon="13.4038158"><ele>61.0</ele><time>2026-04-30T15:42:20.965Z</time></trkpt><trkpt lat="45.9695531" lon="13.4039741"><ele>61.0</ele><time>2026-04-30T15:42:21.965Z</time></trkpt><trkpt lat="45.9694698" lon="13.4041325"><ele>61.0</ele><time>2026-04-30T15:42:22.964Z</time></trkpt><trkpt lat="45.9693857" lon="13.4042941"><ele>61.0</ele><time>2026-04-30T15:42:23.965Z</time></trkpt><trkpt lat="45.969299" lon="13.4044574"><ele>61.0</ele><time>2026-04-30T15:42:24.965Z</time></trkpt><trkpt lat="45.9692093" lon="13.404621"><ele>60.5</ele><time>2026-04-30T15:42:25.965Z</time></trkpt><trkpt lat="45.9691215" lon="13.4047862"><ele>60.0</ele><time>2026-04-30T15:42:26.965Z</time></trkpt><trkpt lat="45.9690338" lon="13.4049535"><ele>59.5</ele><time>2026-04-30T15:42:27.964Z</time></trkpt><trkpt lat="45.9689433" lon="13.4051189"><ele>59.0</ele><time>2026-04-30T15:42:28.965Z</time></trkpt><trkpt lat="45.9688548" lon="13.405284"><ele>59.0</ele><time>2026-04-30T15:42:29.964Z</time></trkpt><trkpt lat="45.968765" lon="13.4054507"><ele>59.0</ele><time>2026-04-30T15:42:30.963Z</time></trkpt><trkpt lat="45.968675" lon="13.4056139"><ele>59.0</ele><time>2026-04-30T15:42:31.965Z</time></trkpt><trkpt lat="45.9685864" lon="13.4057766"><ele>59.0</ele><time>2026-04-30T15:42:32.965Z</time></trkpt><trkpt lat="45.9684983" lon="13.4059369"><ele>58.75</ele><time>2026-04-30T15:42:33.964Z</time></trkpt><trkpt lat="45.9684083" lon="13.4060981"><ele>58.5</ele><time>2026-04-30T15:42:34.965Z</time></trkpt><trkpt lat="45.9683189" lon="13.4062596"><ele>58.25</ele><time>2026-04-30T15:42:35.964Z</time></trkpt><trkpt lat="45.9682305" lon="13.4064221"><ele>58.0</ele><time>2026-04-30T15:42:36.965Z</time></trkpt><trkpt lat="45.9681504" lon="13.4065709"><ele>57.75</ele><time>2026-04-30T15:42:37.965Z</time></trkpt><trkpt lat="45.96807" lon="13.4067238"><ele>57.5</ele><time>2026-04-30T15:42:38.965Z</time></trkpt><trkpt lat="45.9679913" lon="13.4068743"><ele>57.25</ele><time>2026-04-30T15:42:39.964Z</time></trkpt><trkpt lat="45.9679095" lon="13.4070225"><ele>57.0</ele><time>2026-04-30T15:42:40.965Z</time></trkpt><trkpt lat="45.9678314" lon="13.4071686"><ele>57.0</ele><time>2026-04-30T15:42:41.964Z</time></trkpt><trkpt lat="45.9677558" lon="13.407314"><ele>57.0</ele><time>2026-04-30T15:42:42.964Z</time></trkpt><trkpt lat="45.9676829" lon="13.4074591"><ele>57.0</ele><time>2026-04-30T15:42:43.965Z</time></trkpt><trkpt lat="45.9676082" lon="13.4076026"><ele>57.0</ele><time>2026-04-30T15:42:44.965Z</time></trkpt><trkpt lat="45.9675318" lon="13.4077459"><ele>57.0</ele><time>2026-04-30T15:42:45.964Z</time></trkpt><trkpt lat="45.9674539" lon="13.4078911"><ele>57.0</ele><time>2026-04-30T15:42:46.965Z</time></trkpt><trkpt lat="45.9673734" lon="13.4080451"><ele>57.0</ele><time>2026-04-30T15:42:47.965Z</time></trkpt><trkpt lat="45.9672894" lon="13.4082024"><ele>57.0</ele><time>2026-04-30T15:42:48.964Z</time></trkpt><trkpt lat="45.9672015" lon="13.4083661"><ele>57.0</ele><time>2026-04-30T15:42:49.965Z</time></trkpt><trkpt lat="45.9671076" lon="13.4085403"><ele>57.0</ele><time>2026-04-30T15:42:50.965Z</time></trkpt><trkpt lat="45.9670071" lon="13.4087293"><ele>57.0</ele><time>2026-04-30T15:42:51.964Z</time></trkpt><trkpt lat="45.9669048" lon="13.4089251"><ele>57.0</ele><time>2026-04-30T15:42:52.965Z</time></trkpt><trkpt lat="45.9668005" lon="13.4091209"><ele>57.0</ele><time>2026-04-30T15:42:53.965Z</time></trkpt><trkpt lat="45.9666938" lon="13.4093174"><ele>57.0</ele><time>2026-04-30T15:42:54.964Z</time></trkpt><trkpt lat="45.9665868" lon="13.4095143"><ele>57.0</ele><time>2026-04-30T15:42:55.965Z</time></trkpt><trkpt lat="45.9664805" lon="13.4097101"><ele>57.0</ele><time>2026-04-30T15:42:56.965Z</time></trkpt><trkpt lat="45.9663759" lon="13.4099068"><ele>57.0</ele><time>2026-04-30T15:42:57.964Z</time></trkpt><trkpt lat="45.9662727" lon="13.4101045"><ele>57.0</ele><time>2026-04-30T15:42:58.965Z</time></trkpt><trkpt lat="45.9661677" lon="13.4102996"><ele>57.0</ele><time>2026-04-30T15:42:59.965Z</time></trkpt><trkpt lat="45.9660624" lon="13.4104924"><ele>57.0</ele><time>2026-04-30T15:43:00.965Z</time></trkpt><trkpt lat="45.9659551" lon="13.4106812"><ele>57.0</ele><time>2026-04-30T15:43:01.965Z</time></trkpt><trkpt lat="45.9658461" lon="13.4108736"><ele>57.0</ele><time>2026-04-30T15:43:02.965Z</time></trkpt><trkpt lat="45.9657368" lon="13.411067"><ele>57.0</ele><time>2026-04-30T15:43:03.965Z</time></trkpt><trkpt lat="45.9656287" lon="13.4112626"><ele>56.66666666666667</ele><time>2026-04-30T15:43:04.965Z</time></trkpt><trkpt lat="45.9655152" lon="13.4114643"><ele>56.333333333333336</ele><time>2026-04-30T15:43:05.964Z</time></trkpt><trkpt lat="45.9653991" lon="13.4116666"><ele>56.0</ele><time>2026-04-30T15:43:06.965Z</time></trkpt><trkpt lat="45.965278" lon="13.4118731"><ele>56.0</ele><time>2026-04-30T15:43:07.965Z</time></trkpt><trkpt lat="45.9651433" lon="13.4121041"><ele>56.0</ele><time>2026-04-30T15:43:08.964Z</time></trkpt><trkpt lat="45.9649976" lon="13.4123526"><ele>56.0</ele><time>2026-04-30T15:43:09.965Z</time></trkpt><trkpt lat="45.9648453" lon="13.4126058"><ele>55.333333333333336</ele><time>2026-04-30T15:43:10.965Z</time></trkpt><trkpt lat="45.9646998" lon="13.4128466"><ele>54.66666666666667</ele><time>2026-04-30T15:43:11.964Z</time></trkpt><trkpt lat="45.9645604" lon="13.4130804"><ele>54.0</ele><time>2026-04-30T15:43:12.965Z</time></trkpt><trkpt lat="45.9644271" lon="13.413307"><ele>54.0</ele><time>2026-04-30T15:43:13.964Z</time></trkpt><trkpt lat="45.9642976" lon="13.4135276"><ele>54.0</ele><time>2026-04-30T15:43:14.965Z</time></trkpt><trkpt lat="45.9641666" lon="13.4137438"><ele>54.0</ele><time>2026-04-30T15:43:15.965Z</time></trkpt><trkpt lat="45.9640387" lon="13.413958"><ele>54.0</ele><time>2026-04-30T15:43:16.964Z</time></trkpt><trkpt lat="45.9639115" lon="13.4141697"><ele>54.0</ele><time>2026-04-30T15:43:17.964Z</time></trkpt><trkpt lat="45.9637884" lon="13.4143765"><ele>54.0</ele><time>2026-04-30T15:43:18.965Z</time></trkpt><trkpt lat="45.9636662" lon="13.4145799"><ele>53.33333333333333</ele><time>2026-04-30T15:43:19.965Z</time></trkpt><trkpt lat="45.9635453" lon="13.4147797"><ele>52.666666666666664</ele><time>2026-04-30T15:43:20.965Z</time></trkpt><trkpt lat="45.9634233" lon="13.4149802"><ele>52.0</ele><time>2026-04-30T15:43:21.964Z</time></trkpt><trkpt lat="45.9633064" lon="13.4151794"><ele>52.0</ele><time>2026-04-30T15:43:22.965Z</time></trkpt><trkpt lat="45.9631882" lon="13.4153778"><ele>52.0</ele><time>2026-04-30T15:43:23.965Z</time></trkpt><trkpt lat="45.9630695" lon="13.4155718"><ele>52.0</ele><time>2026-04-30T15:43:24.965Z</time></trkpt><trkpt lat="45.9629547" lon="13.4157639"><ele>51.33333333333333</ele><time>2026-04-30T15:43:25.965Z</time></trkpt><trkpt lat="45.9628466" lon="13.4159475"><ele>50.66666666666667</ele><time>2026-04-30T15:43:26.965Z</time></trkpt><trkpt lat="45.9627416" lon="13.4161304"><ele>50.0</ele><time>2026-04-30T15:43:27.965Z</time></trkpt><trkpt lat="45.9626397" lon="13.4163081"><ele>51.0</ele><time>2026-04-30T15:43:28.964Z</time></trkpt><trkpt lat="45.9625374" lon="13.4164792"><ele>52.0</ele><time>2026-04-30T15:43:29.965Z</time></trkpt><trkpt lat="45.9624359" lon="13.4166465"><ele>53.0</ele><time>2026-04-30T15:43:30.965Z</time></trkpt><trkpt lat="45.9623356" lon="13.4168131"><ele>53.0</ele><time>2026-04-30T15:43:31.965Z</time></trkpt><trkpt lat="45.9622435" lon="13.4169706"><ele>53.0</ele><time>2026-04-30T15:43:32.965Z</time></trkpt><trkpt lat="45.9621574" lon="13.4171179"><ele>53.0</ele><time>2026-04-30T15:43:33.964Z</time></trkpt><trkpt lat="45.962079" lon="13.4172537"><ele>53.0</ele><time>2026-04-30T15:43:34.965Z</time></trkpt><trkpt lat="45.9620037" lon="13.4173799"><ele>53.2</ele><time>2026-04-30T15:43:35.965Z</time></trkpt><trkpt lat="45.9619341" lon="13.4174952"><ele>53.4</ele><time>2026-04-30T15:43:36.964Z</time></trkpt><trkpt lat="45.9618672" lon="13.4176065"><ele>53.60000000000001</ele><time>2026-04-30T15:43:37.965Z</time></trkpt><trkpt lat="45.9617956" lon="13.4177214"><ele>53.800000000000004</ele><time>2026-04-30T15:43:38.965Z</time></trkpt><trkpt lat="45.9617252" lon="13.4178397"><ele>54.0</ele><time>2026-04-30T15:43:39.964Z</time></trkpt><trkpt lat="45.9616534" lon="13.4179585"><ele>54.0</ele><time>2026-04-30T15:43:40.965Z</time></trkpt><trkpt lat="45.9615812" lon="13.4180783"><ele>54.00000000000001</ele><time>2026-04-30T15:43:41.965Z</time></trkpt><trkpt lat="45.9615072" lon="13.4182001"><ele>54.00000000000001</ele><time>2026-04-30T15:43:42.965Z</time></trkpt><trkpt lat="45.9614351" lon="13.4183207"><ele>54.0</ele><time>2026-04-30T15:43:43.965Z</time></trkpt><trkpt lat="45.9613636" lon="13.4184394"><ele>54.0</ele><time>2026-04-30T15:43:44.964Z</time></trkpt><trkpt lat="45.9612951" lon="13.4185569"><ele>54.0</ele><time>2026-04-30T15:43:45.965Z</time></trkpt><trkpt lat="45.9612282" lon="13.4186703"><ele>54.00000000000001</ele><time>2026-04-30T15:43:46.965Z</time></trkpt><trkpt lat="45.961163" lon="13.4187793"><ele>54.00000000000001</ele><time>2026-04-30T15:43:47.964Z</time></trkpt><trkpt lat="45.9610992" lon="13.4188822"><ele>54.0</ele><time>2026-04-30T15:43:48.965Z</time></trkpt><trkpt lat="45.9610425" lon="13.4189828"><ele>54.0</ele><time>2026-04-30T15:43:49.965Z</time></trkpt><trkpt lat="45.9609886" lon="13.4190766"><ele>53.833333333333336</ele><time>2026-04-30T15:43:50.965Z</time></trkpt><trkpt lat="45.9609331" lon="13.4191711"><ele>53.66666666666667</ele><time>2026-04-30T15:43:51.965Z</time></trkpt><trkpt lat="45.9608788" lon="13.4192653"><ele>53.5</ele><time>2026-04-30T15:43:52.965Z</time></trkpt><trkpt lat="45.9608188" lon="13.4193611"><ele>53.333333333333336</ele><time>2026-04-30T15:43:53.965Z</time></trkpt><trkpt lat="45.960764" lon="13.4194545"><ele>53.16666666666667</ele><time>2026-04-30T15:43:54.965Z</time></trkpt><trkpt lat="45.9607117" lon="13.4195471"><ele>53.0</ele><time>2026-04-30T15:43:55.965Z</time></trkpt><trkpt lat="45.9606594" lon="13.4196455"><ele>52.599999999999994</ele><time>2026-04-30T15:43:56.965Z</time></trkpt><trkpt lat="45.9606043" lon="13.4197511"><ele>52.199999999999996</ele><time>2026-04-30T15:43:57.964Z</time></trkpt><trkpt lat="45.9605437" lon="13.419858"><ele>51.8</ele><time>2026-04-30T15:43:58.964Z</time></trkpt><trkpt lat="45.9604777" lon="13.4199735"><ele>51.4</ele><time>2026-04-30T15:43:59.964Z</time></trkpt><trkpt lat="45.9604048" lon="13.4200947"><ele>51.0</ele><time>2026-04-30T15:44:00.965Z</time></trkpt><trkpt lat="45.9603244" lon="13.420231"><ele>51.0</ele><time>2026-04-30T15:44:01.964Z</time></trkpt><trkpt lat="45.960236" lon="13.4203753"><ele>51.0</ele><time>2026-04-30T15:44:02.965Z</time></trkpt><trkpt lat="45.9601446" lon="13.4205219"><ele>51.0</ele><time>2026-04-30T15:44:03.965Z</time></trkpt><trkpt lat="45.9600552" lon="13.4206596"><ele>51.0</ele><time>2026-04-30T15:44:04.965Z</time></trkpt><trkpt lat="45.959971" lon="13.4207949"><ele>51.0</ele><time>2026-04-30T15:44:05.964Z</time></trkpt><trkpt lat="45.9598888" lon="13.4209244"><ele>51.0</ele><time>2026-04-30T15:44:06.964Z</time></trkpt><trkpt lat="45.959809" lon="13.4210515"><ele>51.0</ele><time>2026-04-30T15:44:07.965Z</time></trkpt><trkpt lat="45.9597317" lon="13.4211753"><ele>51.0</ele><time>2026-04-30T15:44:08.965Z</time></trkpt><trkpt lat="45.9596603" lon="13.4212983"><ele>50.8</ele><time>2026-04-30T15:44:09.965Z</time></trkpt><trkpt lat="45.9595903" lon="13.4214203"><ele>50.599999999999994</ele><time>2026-04-30T15:44:10.965Z</time></trkpt><trkpt lat="45.959524" lon="13.4215404"><ele>50.4</ele><time>2026-04-30T15:44:11.965Z</time></trkpt><trkpt lat="45.9594545" lon="13.4216581"><ele>50.2</ele><time>2026-04-30T15:44:12.965Z</time></trkpt><trkpt lat="45.9593858" lon="13.4217766"><ele>50.0</ele><time>2026-04-30T15:44:13.964Z</time></trkpt><trkpt lat="45.959314" lon="13.4218961"><ele>50.0</ele><time>2026-04-30T15:44:14.964Z</time></trkpt><trkpt lat="45.9592442" lon="13.422021"><ele>50.0</ele><time>2026-04-30T15:44:15.965Z</time></trkpt><trkpt lat="45.959172" lon="13.4221437"><ele>50.0</ele><time>2026-04-30T15:44:16.964Z</time></trkpt><trkpt lat="45.9591" lon="13.4222656"><ele>50.0</ele><time>2026-04-30T15:44:17.965Z</time></trkpt><trkpt lat="45.9590253" lon="13.4223903"><ele>50.0</ele><time>2026-04-30T15:44:18.964Z</time></trkpt><trkpt lat="45.9589456" lon="13.4225186"><ele>49.75</ele><time>2026-04-30T15:44:19.965Z</time></trkpt><trkpt lat="45.9588657" lon="13.4226488"><ele>49.5</ele><time>2026-04-30T15:44:20.965Z</time></trkpt><trkpt lat="45.958783" lon="13.4227782"><ele>49.25</ele><time>2026-04-30T15:44:21.965Z</time></trkpt><trkpt lat="45.9587029" lon="13.422908"><ele>49.0</ele><time>2026-04-30T15:44:22.965Z</time></trkpt><trkpt lat="45.9586259" lon="13.4230383"><ele>48.75</ele><time>2026-04-30T15:44:23.965Z</time></trkpt><trkpt lat="45.9585492" lon="13.4231714"><ele>48.5</ele><time>2026-04-30T15:44:24.964Z</time></trkpt><trkpt lat="45.958476" lon="13.4233066"><ele>48.25</ele><time>2026-04-30T15:44:25.965Z</time></trkpt><trkpt lat="45.958401" lon="13.4234434"><ele>48.0</ele><time>2026-04-30T15:44:26.964Z</time></trkpt><trkpt lat="45.9583241" lon="13.4235782"><ele>48.0</ele><time>2026-04-30T15:44:27.964Z</time></trkpt><trkpt lat="45.9582439" lon="13.4237125"><ele>48.0</ele><time>2026-04-30T15:44:28.965Z</time></trkpt><trkpt lat="45.9581629" lon="13.4238428"><ele>48.0</ele><time>2026-04-30T15:44:29.964Z</time></trkpt><trkpt lat="45.9580832" lon="13.4239756"><ele>48.0</ele><time>2026-04-30T15:44:30.965Z</time></trkpt><trkpt lat="45.9580016" lon="13.4241145"><ele>47.75</ele><time>2026-04-30T15:44:31.965Z</time></trkpt><trkpt lat="45.9579174" lon="13.4242589"><ele>47.5</ele><time>2026-04-30T15:44:32.965Z</time></trkpt><trkpt lat="45.9578268" lon="13.4244051"><ele>47.25</ele><time>2026-04-30T15:44:33.965Z</time></trkpt><trkpt lat="45.9577337" lon="13.4245558"><ele>47.0</ele><time>2026-04-30T15:44:34.965Z</time></trkpt><trkpt lat="45.9576445" lon="13.4247088"><ele>46.5</ele><time>2026-04-30T15:44:35.965Z</time></trkpt><trkpt lat="45.9575562" lon="13.4248628"><ele>46.0</ele><time>2026-04-30T15:44:36.964Z</time></trkpt><trkpt lat="45.9574651" lon="13.4250193"><ele>45.5</ele><time>2026-04-30T15:44:37.965Z</time></trkpt><trkpt lat="45.957372" lon="13.4251748"><ele>45.0</ele><time>2026-04-30T15:44:38.965Z</time></trkpt><trkpt lat="45.957275" lon="13.4253327"><ele>44.666666666666664</ele><time>2026-04-30T15:44:39.965Z</time></trkpt><trkpt lat="45.9571762" lon="13.4254964"><ele>44.33333333333333</ele><time>2026-04-30T15:44:40.964Z</time></trkpt><trkpt lat="45.957077" lon="13.425661"><ele>44.0</ele><time>2026-04-30T15:44:41.963Z</time></trkpt><trkpt lat="45.9569746" lon="13.4258352"><ele>44.0</ele><time>2026-04-30T15:44:42.963Z</time></trkpt><trkpt lat="45.9568711" lon="13.4260097"><ele>44.0</ele><time>2026-04-30T15:44:43.963Z</time></trkpt><trkpt lat="45.9567644" lon="13.4261855"><ele>44.0</ele><time>2026-04-30T15:44:44.964Z</time></trkpt><trkpt lat="45.9566588" lon="13.4263621"><ele>43.33333333333333</ele><time>2026-04-30T15:44:45.964Z</time></trkpt><trkpt lat="45.9565536" lon="13.4265384"><ele>42.666666666666664</ele><time>2026-04-30T15:44:46.963Z</time></trkpt><trkpt lat="45.9564488" lon="13.4267166"><ele>42.0</ele><time>2026-04-30T15:44:47.964Z</time></trkpt><trkpt lat="45.9563447" lon="13.4268937"><ele>42.0</ele><time>2026-04-30T15:44:48.964Z</time></trkpt><trkpt lat="45.9562419" lon="13.4270694"><ele>42.0</ele><time>2026-04-30T15:44:49.964Z</time></trkpt><trkpt lat="45.9561384" lon="13.4272429"><ele>42.0</ele><time>2026-04-30T15:44:50.964Z</time></trkpt><trkpt lat="45.9560332" lon="13.4274182"><ele>42.333333333333336</ele><time>2026-04-30T15:44:51.964Z</time></trkpt><trkpt lat="45.9559263" lon="13.4275936"><ele>42.66666666666667</ele><time>2026-04-30T15:44:52.963Z</time></trkpt><trkpt lat="45.9558178" lon="13.4277735"><ele>43.0</ele><time>2026-04-30T15:44:53.964Z</time></trkpt><trkpt lat="45.9557072" lon="13.4279583"><ele>43.333333333333336</ele><time>2026-04-30T15:44:54.964Z</time></trkpt><trkpt lat="45.9555944" lon="13.4281462"><ele>43.666666666666664</ele><time>2026-04-30T15:44:55.964Z</time></trkpt><trkpt lat="45.9554805" lon="13.4283395"><ele>44.0</ele><time>2026-04-30T15:44:56.964Z</time></trkpt><trkpt lat="45.9553657" lon="13.4285337"><ele>44.0</ele><time>2026-04-30T15:44:57.964Z</time></trkpt><trkpt lat="45.955252" lon="13.4287276"><ele>44.0</ele><time>2026-04-30T15:44:58.964Z</time></trkpt><trkpt lat="45.9551335" lon="13.4289158"><ele>44.0</ele><time>2026-04-30T15:44:59.963Z</time></trkpt><trkpt lat="45.9550228" lon="13.4290999"><ele>44.0</ele><time>2026-04-30T15:45:00.963Z</time></trkpt><trkpt lat="45.9549133" lon="13.429287"><ele>44.0</ele><time>2026-04-30T15:45:01.963Z</time></trkpt><trkpt lat="45.9548055" lon="13.4294732"><ele>44.0</ele><time>2026-04-30T15:45:02.964Z</time></trkpt><trkpt lat="45.9546963" lon="13.4296565"><ele>44.0</ele><time>2026-04-30T15:45:03.964Z</time></trkpt><trkpt lat="45.9545882" lon="13.4298378"><ele>44.0</ele><time>2026-04-30T15:45:04.964Z</time></trkpt><trkpt lat="45.9544856" lon="13.4300139"><ele>44.0</ele><time>2026-04-30T15:45:05.964Z</time></trkpt><trkpt lat="45.9543859" lon="13.4301779"><ele>44.0</ele><time>2026-04-30T15:45:06.964Z</time></trkpt><trkpt lat="45.9542922" lon="13.4303346"><ele>44.0</ele><time>2026-04-30T15:45:07.964Z</time></trkpt><trkpt lat="45.9541994" lon="13.4304874"><ele>44.0</ele><time>2026-04-30T15:45:08.964Z</time></trkpt><trkpt lat="45.9541148" lon="13.4306344"><ele>44.0</ele><time>2026-04-30T15:45:09.964Z</time></trkpt><trkpt lat="45.9540303" lon="13.4307767"><ele>44.25</ele><time>2026-04-30T15:45:10.964Z</time></trkpt><trkpt lat="45.9539469" lon="13.4309102"><ele>44.5</ele><time>2026-04-30T15:45:11.963Z</time></trkpt><trkpt lat="45.9538655" lon="13.4310462"><ele>44.75</ele><time>2026-04-30T15:45:12.964Z</time></trkpt><trkpt lat="45.9537845" lon="13.4311833"><ele>45.0</ele><time>2026-04-30T15:45:13.964Z</time></trkpt><trkpt lat="45.9537035" lon="13.4313185"><ele>45.0</ele><time>2026-04-30T15:45:14.964Z</time></trkpt><trkpt lat="45.9536229" lon="13.4314529"><ele>45.0</ele><time>2026-04-30T15:45:15.964Z</time></trkpt><trkpt lat="45.9535439" lon="13.4315851"><ele>45.0</ele><time>2026-04-30T15:45:16.963Z</time></trkpt><trkpt lat="45.9534715" lon="13.4317064"><ele>45.0</ele><time>2026-04-30T15:45:17.963Z</time></trkpt><trkpt lat="45.9534029" lon="13.4318249"><ele>45.0</ele><time>2026-04-30T15:45:18.964Z</time></trkpt><trkpt lat="45.9533376" lon="13.4319345"><ele>45.0</ele><time>2026-04-30T15:45:19.963Z</time></trkpt><trkpt lat="45.9532735" lon="13.4320401"><ele>45.0</ele><time>2026-04-30T15:45:20.964Z</time></trkpt><trkpt lat="45.9532111" lon="13.432149"><ele>45.0</ele><time>2026-04-30T15:45:21.964Z</time></trkpt><trkpt lat="45.9531455" lon="13.4322579"><ele>45.0</ele><time>2026-04-30T15:45:22.964Z</time></trkpt><trkpt lat="45.953087" lon="13.4323652"><ele>45.0</ele><time>2026-04-30T15:45:23.963Z</time></trkpt><trkpt lat="45.9530334" lon="13.4324703"><ele>45.0</ele><time>2026-04-30T15:45:24.963Z</time></trkpt><trkpt lat="45.9529821" lon="13.4325717"><ele>45.0</ele><time>2026-04-30T15:45:25.964Z</time></trkpt><trkpt lat="45.9529254" lon="13.4326731"><ele>45.0</ele><time>2026-04-30T15:45:26.964Z</time></trkpt><trkpt lat="45.9528687" lon="13.4327813"><ele>45.0</ele><time>2026-04-30T15:45:27.964Z</time></trkpt><trkpt lat="45.9528111" lon="13.4328839"><ele>45.0</ele><time>2026-04-30T15:45:28.964Z</time></trkpt><trkpt lat="45.9527465" lon="13.4329827"><ele>45.0</ele><time>2026-04-30T15:45:29.964Z</time></trkpt><trkpt lat="45.9526821" lon="13.4330707"><ele>45.0</ele><time>2026-04-30T15:45:30.964Z</time></trkpt><trkpt lat="45.9526209" lon="13.4331502"><ele>45.0</ele><time>2026-04-30T15:45:31.963Z</time></trkpt><trkpt lat="45.9525623" lon="13.4332247"><ele>45.0</ele><time>2026-04-30T15:45:32.964Z</time></trkpt><trkpt lat="45.9525038" lon="13.433291"><ele>45.0</ele><time>2026-04-30T15:45:33.963Z</time></trkpt><trkpt lat="45.9524286" lon="13.433337"><ele>45.0</ele><time>2026-04-30T15:45:34.964Z</time></trkpt><trkpt lat="45.9523454" lon="13.4333591"><ele>45.0</ele><time>2026-04-30T15:45:35.964Z</time></trkpt><trkpt lat="45.952256" lon="13.4333782"><ele>45.0</ele><time>2026-04-30T15:45:36.964Z</time></trkpt><trkpt lat="45.9521728" lon="13.433423"><ele>45.0</ele><time>2026-04-30T15:45:37.964Z</time></trkpt><trkpt lat="45.9521088" lon="13.4334997"><ele>45.0</ele><time>2026-04-30T15:45:38.963Z</time></trkpt><trkpt lat="45.9520666" lon="13.4336011"><ele>45.0</ele><time>2026-04-30T15:45:39.964Z</time></trkpt><trkpt lat="45.9520467" lon="13.4337103"><ele>45.4</ele><time>2026-04-30T15:45:40.964Z</time></trkpt><trkpt lat="45.9520437" lon="13.4338265"><ele>45.8</ele><time>2026-04-30T15:45:41.963Z</time></trkpt><trkpt lat="45.9520404" lon="13.4339446"><ele>46.2</ele><time>2026-04-30T15:45:42.964Z</time></trkpt><trkpt lat="45.9520167" lon="13.4340661"><ele>46.6</ele><time>2026-04-30T15:45:43.963Z</time></trkpt><trkpt lat="45.9519765" lon="13.4341904"><ele>47.0</ele><time>2026-04-30T15:45:44.964Z</time></trkpt><trkpt lat="45.951918" lon="13.4343146"><ele>47.0</ele><time>2026-04-30T15:45:45.964Z</time></trkpt><trkpt lat="45.9518486" lon="13.4344475"><ele>47.0</ele><time>2026-04-30T15:45:46.963Z</time></trkpt><trkpt lat="45.9517686" lon="13.4345901"><ele>47.0</ele><time>2026-04-30T15:45:47.964Z</time></trkpt><trkpt lat="45.9516805" lon="13.4347441"><ele>47.0</ele><time>2026-04-30T15:45:48.963Z</time></trkpt><trkpt lat="45.9515849" lon="13.4349108"><ele>46.0</ele><time>2026-04-30T15:45:49.964Z</time></trkpt><trkpt lat="45.9514867" lon="13.4350852"><ele>45.0</ele><time>2026-04-30T15:45:50.963Z</time></trkpt><trkpt lat="45.9513845" lon="13.4352614"><ele>44.0</ele><time>2026-04-30T15:45:51.964Z</time></trkpt><trkpt lat="45.9512857" lon="13.4354287"><ele>44.25</ele><time>2026-04-30T15:45:52.964Z</time></trkpt><trkpt lat="45.9511893" lon="13.4355885"><ele>44.5</ele><time>2026-04-30T15:45:53.963Z</time></trkpt><trkpt lat="45.9510993" lon="13.4357415"><ele>44.75</ele><time>2026-04-30T15:45:54.964Z</time></trkpt><trkpt lat="45.9510147" lon="13.4358861"><ele>45.0</ele><time>2026-04-30T15:45:55.963Z</time></trkpt><trkpt lat="45.9509323" lon="13.4360255"><ele>44.75</ele><time>2026-04-30T15:45:56.964Z</time></trkpt><trkpt lat="45.9508508" lon="13.4361629"><ele>44.5</ele><time>2026-04-30T15:45:57.964Z</time></trkpt><trkpt lat="45.9507716" lon="13.4363004"><ele>44.25</ele><time>2026-04-30T15:45:58.963Z</time></trkpt><trkpt lat="45.9506953" lon="13.4364361"><ele>44.0</ele><time>2026-04-30T15:45:59.964Z</time></trkpt><trkpt lat="45.9506196" lon="13.4365737"><ele>44.0</ele><time>2026-04-30T15:46:00.964Z</time></trkpt><trkpt lat="45.9505407" lon="13.4367128"><ele>44.0</ele><time>2026-04-30T15:46:01.964Z</time></trkpt><trkpt lat="45.9504599" lon="13.4368463"><ele>44.0</ele><time>2026-04-30T15:46:02.964Z</time></trkpt><trkpt lat="45.9503808" lon="13.4369772"><ele>44.0</ele><time>2026-04-30T15:46:03.964Z</time></trkpt><trkpt lat="45.9503013" lon="13.4371075"><ele>44.0</ele><time>2026-04-30T15:46:04.963Z</time></trkpt><trkpt lat="45.9502229" lon="13.4372402"><ele>44.0</ele><time>2026-04-30T15:46:05.963Z</time></trkpt><trkpt lat="45.9501434" lon="13.4373723"><ele>44.0</ele><time>2026-04-30T15:46:06.964Z</time></trkpt><trkpt lat="45.9500638" lon="13.4375032"><ele>44.0</ele><time>2026-04-30T15:46:07.963Z</time></trkpt><trkpt lat="45.949985" lon="13.4376339"><ele>44.25</ele><time>2026-04-30T15:46:08.963Z</time></trkpt><trkpt lat="45.9499042" lon="13.4377634"><ele>44.5</ele><time>2026-04-30T15:46:09.964Z</time></trkpt><trkpt lat="45.9498188" lon="13.4378962"><ele>44.75</ele><time>2026-04-30T15:46:10.964Z</time></trkpt><trkpt lat="45.9497338" lon="13.4380335"><ele>45.0</ele><time>2026-04-30T15:46:11.963Z</time></trkpt><trkpt lat="45.9496455" lon="13.4381797"><ele>44.5</ele><time>2026-04-30T15:46:12.964Z</time></trkpt><trkpt lat="45.9495537" lon="13.4383274"><ele>44.0</ele><time>2026-04-30T15:46:13.963Z</time></trkpt><trkpt lat="45.9494581" lon="13.4384795"><ele>43.5</ele><time>2026-04-30T15:46:14.964Z</time></trkpt><trkpt lat="45.9493647" lon="13.4386322"><ele>43.0</ele><time>2026-04-30T15:46:15.964Z</time></trkpt><trkpt lat="45.9492765" lon="13.4387762"><ele>43.5</ele><time>2026-04-30T15:46:16.964Z</time></trkpt><trkpt lat="45.949189" lon="13.4389146"><ele>44.0</ele><time>2026-04-30T15:46:17.964Z</time></trkpt><trkpt lat="45.949102" lon="13.4390548"><ele>44.5</ele><time>2026-04-30T15:46:18.964Z</time></trkpt><trkpt lat="45.9490176" lon="13.4391923"><ele>45.0</ele><time>2026-04-30T15:46:19.963Z</time></trkpt><trkpt lat="45.9489322" lon="13.4393276"><ele>45.0</ele><time>2026-04-30T15:46:20.964Z</time></trkpt><trkpt lat="45.9488411" lon="13.4394672"><ele>45.0</ele><time>2026-04-30T15:46:21.964Z</time></trkpt><trkpt lat="45.9487472" lon="13.439621"><ele>45.0</ele><time>2026-04-30T15:46:22.963Z</time></trkpt><trkpt lat="45.9486414" lon="13.4397953"><ele>45.0</ele><time>2026-04-30T15:46:23.964Z</time></trkpt><trkpt lat="45.9485154" lon="13.4399913"><ele>45.333333333333336</ele><time>2026-04-30T15:46:24.963Z</time></trkpt><trkpt lat="45.9483659" lon="13.4402041"><ele>45.66666666666667</ele><time>2026-04-30T15:46:25.964Z</time></trkpt><trkpt lat="45.9481943" lon="13.4404304"><ele>46.0</ele><time>2026-04-30T15:46:26.962Z</time></trkpt><trkpt lat="45.9480101" lon="13.4406634"><ele>46.5</ele><time>2026-04-30T15:46:27.964Z</time></trkpt><trkpt lat="45.9478162" lon="13.4409016"><ele>47.0</ele><time>2026-04-30T15:46:28.964Z</time></trkpt><trkpt lat="45.9476097" lon="13.4411345"><ele>46.0</ele><time>2026-04-30T15:46:29.964Z</time></trkpt><trkpt lat="45.9473989" lon="13.4413742"><ele>45.0</ele><time>2026-04-30T15:46:30.964Z</time></trkpt><trkpt lat="45.9471938" lon="13.4416042"><ele>45.0</ele><time>2026-04-30T15:46:31.963Z</time></trkpt><trkpt lat="45.9469902" lon="13.4418201"><ele>45.0</ele><time>2026-04-30T15:46:32.964Z</time></trkpt><trkpt lat="45.9467865" lon="13.4420273"><ele>44.0</ele><time>2026-04-30T15:46:33.964Z</time></trkpt><trkpt lat="45.9465832" lon="13.442225"><ele>43.0</ele><time>2026-04-30T15:46:34.963Z</time></trkpt><trkpt lat="45.9463819" lon="13.4424163"><ele>43.0</ele><time>2026-04-30T15:46:35.964Z</time></trkpt><trkpt lat="45.9461791" lon="13.4426036"><ele>43.0</ele><time>2026-04-30T15:46:36.964Z</time></trkpt><trkpt lat="45.9459749" lon="13.4427827"><ele>43.0</ele><time>2026-04-30T15:46:37.963Z</time></trkpt><trkpt lat="45.9457662" lon="13.442954"><ele>43.0</ele><time>2026-04-30T15:46:38.963Z</time></trkpt><trkpt lat="45.945556" lon="13.4431198"><ele>43.0</ele><time>2026-04-30T15:46:39.963Z</time></trkpt><trkpt lat="45.9453441" lon="13.4432826"><ele>43.0</ele><time>2026-04-30T15:46:40.964Z</time></trkpt><trkpt lat="45.9451255" lon="13.4434401"><ele>43.0</ele><time>2026-04-30T15:46:41.964Z</time></trkpt><trkpt lat="45.9449039" lon="13.4435947"><ele>43.0</ele><time>2026-04-30T15:46:42.964Z</time></trkpt><trkpt lat="45.9446789" lon="13.4437467"><ele>43.5</ele><time>2026-04-30T15:46:43.964Z</time></trkpt><trkpt lat="45.944452" lon="13.4438978"><ele>44.0</ele><time>2026-04-30T15:46:44.963Z</time></trkpt><trkpt lat="45.9442246" lon="13.4440456"><ele>43.5</ele><time>2026-04-30T15:46:45.964Z</time></trkpt><trkpt lat="45.9439996" lon="13.444195"><ele>43.0</ele><time>2026-04-30T15:46:46.963Z</time></trkpt><trkpt lat="45.9437719" lon="13.4443453"><ele>43.0</ele><time>2026-04-30T15:46:47.963Z</time></trkpt><trkpt lat="45.9435431" lon="13.444492"><ele>43.0</ele><time>2026-04-30T15:46:48.964Z</time></trkpt><trkpt lat="45.9433145" lon="13.444638"><ele>42.5</ele><time>2026-04-30T15:46:49.964Z</time></trkpt><trkpt lat="45.9430856" lon="13.4447859"><ele>42.0</ele><time>2026-04-30T15:46:50.963Z</time></trkpt><trkpt lat="45.9428578" lon="13.4449383"><ele>42.0</ele><time>2026-04-30T15:46:51.964Z</time></trkpt><trkpt lat="45.9426285" lon="13.4450901"><ele>42.0</ele><time>2026-04-30T15:46:52.964Z</time></trkpt><trkpt lat="45.942398" lon="13.4452425"><ele>41.5</ele><time>2026-04-30T15:46:53.964Z</time></trkpt><trkpt lat="45.9421648" lon="13.4453944"><ele>41.0</ele><time>2026-04-30T15:46:54.964Z</time></trkpt><trkpt lat="45.9419297" lon="13.4455458"><ele>40.5</ele><time>2026-04-30T15:46:55.963Z</time></trkpt><trkpt lat="45.9416936" lon="13.4456969"><ele>40.0</ele><time>2026-04-30T15:46:56.964Z</time></trkpt><trkpt lat="45.9414562" lon="13.4458504"><ele>40.0</ele><time>2026-04-30T15:46:57.963Z</time></trkpt><trkpt lat="45.9412216" lon="13.4460072"><ele>40.0</ele><time>2026-04-30T15:46:58.964Z</time></trkpt><trkpt lat="45.9409859" lon="13.4461639"><ele>38.5</ele><time>2026-04-30T15:46:59.964Z</time></trkpt><trkpt lat="45.9407514" lon="13.4463196"><ele>37.0</ele><time>2026-04-30T15:47:00.963Z</time></trkpt><trkpt lat="45.9405143" lon="13.4464736"><ele>37.0</ele><time>2026-04-30T15:47:01.964Z</time></trkpt><trkpt lat="45.9402794" lon="13.4466264"><ele>37.0</ele><time>2026-04-30T15:47:02.964Z</time></trkpt><trkpt lat="45.940045" lon="13.4467786"><ele>37.5</ele><time>2026-04-30T15:47:03.964Z</time></trkpt><trkpt lat="45.9398105" lon="13.4469304"><ele>38.0</ele><time>2026-04-30T15:47:04.964Z</time></trkpt><trkpt lat="45.9395774" lon="13.4470802"><ele>38.5</ele><time>2026-04-30T15:47:05.964Z</time></trkpt><trkpt lat="45.9393477" lon="13.447228"><ele>39.0</ele><time>2026-04-30T15:47:06.964Z</time></trkpt><trkpt lat="45.9391183" lon="13.4473768"><ele>39.5</ele><time>2026-04-30T15:47:07.963Z</time></trkpt><trkpt lat="45.9388917" lon="13.4475256"><ele>40.0</ele><time>2026-04-30T15:47:08.964Z</time></trkpt><trkpt lat="45.9386648" lon="13.4476757"><ele>40.0</ele><time>2026-04-30T15:47:09.963Z</time></trkpt><trkpt lat="45.9384383" lon="13.4478253"><ele>40.0</ele><time>2026-04-30T15:47:10.964Z</time></trkpt><trkpt lat="45.9382149" lon="13.4479748"><ele>39.0</ele><time>2026-04-30T15:47:11.964Z</time></trkpt><trkpt lat="45.9379915" lon="13.4481235"><ele>38.0</ele><time>2026-04-30T15:47:12.963Z</time></trkpt><trkpt lat="45.9377694" lon="13.4482695"><ele>38.0</ele><time>2026-04-30T15:47:13.964Z</time></trkpt><trkpt lat="45.937547" lon="13.4484124"><ele>38.0</ele><time>2026-04-30T15:47:14.964Z</time></trkpt><trkpt lat="45.9373217" lon="13.4485599"><ele>38.0</ele><time>2026-04-30T15:47:15.963Z</time></trkpt><trkpt lat="45.9370971" lon="13.448707"><ele>38.0</ele><time>2026-04-30T15:47:16.964Z</time></trkpt><trkpt lat="45.9368725" lon="13.4488555"><ele>38.5</ele><time>2026-04-30T15:47:17.963Z</time></trkpt><trkpt lat="45.9366571" lon="13.4489978"><ele>39.0</ele><time>2026-04-30T15:47:18.964Z</time></trkpt><trkpt lat="45.9364588" lon="13.4491259"><ele>39.0</ele><time>2026-04-30T15:47:19.964Z</time></trkpt><trkpt lat="45.9362722" lon="13.4492471"><ele>39.0</ele><time>2026-04-30T15:47:20.963Z</time></trkpt><trkpt lat="45.9360977" lon="13.4493611"><ele>39.0</ele><time>2026-04-30T15:47:21.964Z</time></trkpt><trkpt lat="45.9359404" lon="13.4494628"><ele>38.25</ele><time>2026-04-30T15:47:22.964Z</time></trkpt><trkpt lat="45.9357961" lon="13.4495538"><ele>37.5</ele><time>2026-04-30T15:47:23.964Z</time></trkpt><trkpt lat="45.9356616" lon="13.4496394"><ele>36.75</ele><time>2026-04-30T15:47:24.964Z</time></trkpt><trkpt lat="45.9355341" lon="13.4497216"><ele>36.0</ele><time>2026-04-30T15:47:25.964Z</time></trkpt><trkpt lat="45.9354121" lon="13.4497933"><ele>36.0</ele><time>2026-04-30T15:47:26.964Z</time></trkpt><trkpt lat="45.935295" lon="13.4498525"><ele>36.0</ele><time>2026-04-30T15:47:27.964Z</time></trkpt><trkpt lat="45.9351858" lon="13.4498944"><ele>36.0</ele><time>2026-04-30T15:47:28.964Z</time></trkpt><trkpt lat="45.9350905" lon="13.4499136"><ele>36.0</ele><time>2026-04-30T15:47:29.963Z</time></trkpt><trkpt lat="45.9350074" lon="13.4499119"><ele>36.0</ele><time>2026-04-30T15:47:30.964Z</time></trkpt><trkpt lat="45.9349299" lon="13.4498926"><ele>36.166666666666664</ele><time>2026-04-30T15:47:31.963Z</time></trkpt><trkpt lat="45.9348472" lon="13.4498706"><ele>36.333333333333336</ele><time>2026-04-30T15:47:32.964Z</time></trkpt><trkpt lat="45.9347535" lon="13.4498711"><ele>36.5</ele><time>2026-04-30T15:47:33.964Z</time></trkpt><trkpt lat="45.9346642" lon="13.4498952"><ele>36.66666666666667</ele><time>2026-04-30T15:47:34.963Z</time></trkpt><trkpt lat="45.9345826" lon="13.4499495"><ele>36.833333333333336</ele><time>2026-04-30T15:47:35.964Z</time></trkpt><trkpt lat="45.9345171" lon="13.4500393"><ele>37.0</ele><time>2026-04-30T15:47:36.963Z</time></trkpt><trkpt lat="45.9344603" lon="13.4501596"><ele>37.0</ele><time>2026-04-30T15:47:37.964Z</time></trkpt><trkpt lat="45.9343923" lon="13.4503137"><ele>37.0</ele><time>2026-04-30T15:47:38.964Z</time></trkpt><trkpt lat="45.9342964" lon="13.4504555"><ele>37.0</ele><time>2026-04-30T15:47:39.963Z</time></trkpt><trkpt lat="45.9341731" lon="13.4505887"><ele>37.0</ele><time>2026-04-30T15:47:40.964Z</time></trkpt><trkpt lat="45.9340454" lon="13.4506986"><ele>36.75</ele><time>2026-04-30T15:47:41.964Z</time></trkpt><trkpt lat="45.9339229" lon="13.4507882"><ele>36.5</ele><time>2026-04-30T15:47:42.964Z</time></trkpt><trkpt lat="45.9338071" lon="13.4508723"><ele>36.25</ele><time>2026-04-30T15:47:43.964Z</time></trkpt><trkpt lat="45.9337025" lon="13.4509447"><ele>36.0</ele><time>2026-04-30T15:47:44.964Z</time></trkpt><trkpt lat="45.9336143" lon="13.451007"><ele>36.0</ele><time>2026-04-30T15:47:45.964Z</time></trkpt><trkpt lat="45.9335289" lon="13.4510624"><ele>36.0</ele><time>2026-04-30T15:47:46.964Z</time></trkpt><trkpt lat="45.933449" lon="13.451115"><ele>36.0</ele><time>2026-04-30T15:47:47.963Z</time></trkpt><trkpt lat="45.9333413" lon="13.4511828"><ele>36.0</ele><time>2026-04-30T15:47:48.964Z</time></trkpt><trkpt lat="45.9332036" lon="13.4512637"><ele>36.0</ele><time>2026-04-30T15:47:49.964Z</time></trkpt><trkpt lat="45.9330405" lon="13.4513545"><ele>36.333333333333336</ele><time>2026-04-30T15:47:50.964Z</time></trkpt><trkpt lat="45.9328566" lon="13.4514524"><ele>36.66666666666667</ele><time>2026-04-30T15:47:51.964Z</time></trkpt><trkpt lat="45.9326529" lon="13.451553"><ele>37.0</ele><time>2026-04-30T15:47:52.964Z</time></trkpt><trkpt lat="45.9324375" lon="13.4516599"><ele>35.5</ele><time>2026-04-30T15:47:53.963Z</time></trkpt><trkpt lat="45.9322109" lon="13.4517711"><ele>34.0</ele><time>2026-04-30T15:47:54.964Z</time></trkpt><trkpt lat="45.9319758" lon="13.4518816"><ele>34.0</ele><time>2026-04-30T15:47:55.963Z</time></trkpt><trkpt lat="45.9317368" lon="13.4519931"><ele>34.0</ele><time>2026-04-30T15:47:56.964Z</time></trkpt><trkpt lat="45.9315036" lon="13.4520997"><ele>35.0</ele><time>2026-04-30T15:47:57.964Z</time></trkpt><trkpt lat="45.9312746" lon="13.4522007"><ele>36.0</ele><time>2026-04-30T15:47:58.964Z</time></trkpt><trkpt lat="45.9310492" lon="13.4522982"><ele>35.0</ele><time>2026-04-30T15:47:59.964Z</time></trkpt><trkpt lat="45.9308281" lon="13.4523904"><ele>34.0</ele><time>2026-04-30T15:48:00.963Z</time></trkpt><trkpt lat="45.9306101" lon="13.4524753"><ele>34.0</ele><time>2026-04-30T15:48:01.964Z</time></trkpt><trkpt lat="45.9303966" lon="13.4525523"><ele>34.0</ele><time>2026-04-30T15:48:02.964Z</time></trkpt><trkpt lat="45.9301863" lon="13.4526284"><ele>34.0</ele><time>2026-04-30T15:48:03.963Z</time></trkpt><trkpt lat="45.9299771" lon="13.4527004"><ele>33.333333333333336</ele><time>2026-04-30T15:48:04.964Z</time></trkpt><trkpt lat="45.9297686" lon="13.4527707"><ele>32.666666666666664</ele><time>2026-04-30T15:48:05.963Z</time></trkpt><trkpt lat="45.9295594" lon="13.4528391"><ele>32.0</ele><time>2026-04-30T15:48:06.964Z</time></trkpt><trkpt lat="45.9293493" lon="13.4529034"><ele>33.0</ele><time>2026-04-30T15:48:07.964Z</time></trkpt><trkpt lat="45.9291379" lon="13.4529628"><ele>34.0</ele><time>2026-04-30T15:48:08.964Z</time></trkpt><trkpt lat="45.9289266" lon="13.4530206"><ele>35.0</ele><time>2026-04-30T15:48:09.963Z</time></trkpt><trkpt lat="45.9287161" lon="13.4530734"><ele>35.0</ele><time>2026-04-30T15:48:10.964Z</time></trkpt><trkpt lat="45.9285079" lon="13.4531239"><ele>35.0</ele><time>2026-04-30T15:48:11.964Z</time></trkpt><trkpt lat="45.9283023" lon="13.4531735"><ele>35.0</ele><time>2026-04-30T15:48:12.964Z</time></trkpt><trkpt lat="45.9280957" lon="13.4532277"><ele>34.33333333333333</ele><time>2026-04-30T15:48:13.964Z</time></trkpt><trkpt lat="45.9278894" lon="13.4532827"><ele>33.666666666666664</ele><time>2026-04-30T15:48:14.963Z</time></trkpt><trkpt lat="45.9276821" lon="13.4533388"><ele>33.0</ele><time>2026-04-30T15:48:15.964Z</time></trkpt><trkpt lat="45.9274757" lon="13.4534073"><ele>32.333333333333336</ele><time>2026-04-30T15:48:16.964Z</time></trkpt><trkpt lat="45.9272717" lon="13.4534954"><ele>31.666666666666668</ele><time>2026-04-30T15:48:17.963Z</time></trkpt><trkpt lat="45.9270712" lon="13.4535988"><ele>31.0</ele><time>2026-04-30T15:48:18.964Z</time></trkpt><trkpt lat="45.9268739" lon="13.4537198"><ele>31.0</ele><time>2026-04-30T15:48:19.964Z</time></trkpt><trkpt lat="45.9266837" lon="13.4538549"><ele>31.0</ele><time>2026-04-30T15:48:20.964Z</time></trkpt><trkpt lat="45.9264971" lon="13.4540038"><ele>31.0</ele><time>2026-04-30T15:48:21.963Z</time></trkpt><trkpt lat="45.9263145" lon="13.454164"><ele>31.0</ele><time>2026-04-30T15:48:22.964Z</time></trkpt><trkpt lat="45.9261432" lon="13.4543429"><ele>31.0</ele><time>2026-04-30T15:48:23.963Z</time></trkpt><trkpt lat="45.9259814" lon="13.454538"><ele>31.0</ele><time>2026-04-30T15:48:24.964Z</time></trkpt><trkpt lat="45.9258273" lon="13.454742"><ele>30.666666666666668</ele><time>2026-04-30T15:48:25.964Z</time></trkpt><trkpt lat="45.9256815" lon="13.4549623"><ele>30.333333333333336</ele><time>2026-04-30T15:48:26.963Z</time></trkpt><trkpt lat="45.9255478" lon="13.4551881"><ele>30.0</ele><time>2026-04-30T15:48:27.964Z</time></trkpt><trkpt lat="45.9254273" lon="13.4554193"><ele>30.666666666666664</ele><time>2026-04-30T15:48:28.964Z</time></trkpt><trkpt lat="45.9253164" lon="13.4556467"><ele>31.333333333333332</ele><time>2026-04-30T15:48:29.964Z</time></trkpt><trkpt lat="45.9252205" lon="13.4558647"><ele>32.0</ele><time>2026-04-30T15:48:30.964Z</time></trkpt><trkpt lat="45.9251335" lon="13.4560789"><ele>31.333333333333332</ele><time>2026-04-30T15:48:31.963Z</time></trkpt><trkpt lat="45.9250545" lon="13.4562955"><ele>30.666666666666664</ele><time>2026-04-30T15:48:32.964Z</time></trkpt><trkpt lat="45.924976" lon="13.4565106"><ele>30.0</ele><time>2026-04-30T15:48:33.964Z</time></trkpt><trkpt lat="45.9248993" lon="13.4567248"><ele>30.0</ele><time>2026-04-30T15:48:34.963Z</time></trkpt><trkpt lat="45.9248216" lon="13.4569425"><ele>30.0</ele><time>2026-04-30T15:48:35.964Z</time></trkpt><trkpt lat="45.9247444" lon="13.4571601"><ele>30.0</ele><time>2026-04-30T15:48:36.964Z</time></trkpt><trkpt lat="45.9246653" lon="13.4573784"><ele>30.333333333333336</ele><time>2026-04-30T15:48:37.963Z</time></trkpt><trkpt lat="45.9245856" lon="13.4576005"><ele>30.666666666666668</ele><time>2026-04-30T15:48:38.964Z</time></trkpt><trkpt lat="45.9245048" lon="13.4578264"><ele>31.0</ele><time>2026-04-30T15:48:39.964Z</time></trkpt><trkpt lat="45.9244244" lon="13.4580541"><ele>31.333333333333336</ele><time>2026-04-30T15:48:40.963Z</time></trkpt><trkpt lat="45.9243441" lon="13.4582824"><ele>31.666666666666664</ele><time>2026-04-30T15:48:41.964Z</time></trkpt><trkpt lat="45.9242608" lon="13.458514"><ele>32.0</ele><time>2026-04-30T15:48:42.964Z</time></trkpt><trkpt lat="45.9241781" lon="13.4587492"><ele>32.0</ele><time>2026-04-30T15:48:43.963Z</time></trkpt><trkpt lat="45.9240983" lon="13.4589865"><ele>32.0</ele><time>2026-04-30T15:48:44.963Z</time></trkpt><trkpt lat="45.9240154" lon="13.4592239"><ele>32.0</ele><time>2026-04-30T15:48:45.962Z</time></trkpt><trkpt lat="45.923929" lon="13.4594634"><ele>32.666666666666664</ele><time>2026-04-30T15:48:46.963Z</time></trkpt><trkpt lat="45.923844" lon="13.4597005"><ele>33.333333333333336</ele><time>2026-04-30T15:48:47.963Z</time></trkpt><trkpt lat="45.9237597" lon="13.4599386"><ele>34.0</ele><time>2026-04-30T15:48:48.962Z</time></trkpt><trkpt lat="45.9236757" lon="13.4601793"><ele>34.0</ele><time>2026-04-30T15:48:49.962Z</time></trkpt><trkpt lat="45.9235909" lon="13.4604217"><ele>34.0</ele><time>2026-04-30T15:48:50.963Z</time></trkpt><trkpt lat="45.9235034" lon="13.460662"><ele>34.0</ele><time>2026-04-30T15:48:51.962Z</time></trkpt><trkpt lat="45.9234179" lon="13.4609016"><ele>32.66666666666667</ele><time>2026-04-30T15:48:52.963Z</time></trkpt><trkpt lat="45.9233313" lon="13.4611493"><ele>31.333333333333336</ele><time>2026-04-30T15:48:53.963Z</time></trkpt><trkpt lat="45.9232448" lon="13.4613915"><ele>30.0</ele><time>2026-04-30T15:48:54.962Z</time></trkpt><trkpt lat="45.9231589" lon="13.4616332"><ele>30.0</ele><time>2026-04-30T15:48:55.963Z</time></trkpt><trkpt lat="45.923073" lon="13.4618742"><ele>30.0</ele><time>2026-04-30T15:48:56.963Z</time></trkpt><trkpt lat="45.9229889" lon="13.4621168"><ele>30.0</ele><time>2026-04-30T15:48:57.962Z</time></trkpt><trkpt lat="45.9228999" lon="13.4623613"><ele>30.333333333333336</ele><time>2026-04-30T15:48:58.963Z</time></trkpt><trkpt lat="45.9228168" lon="13.462605"><ele>30.666666666666668</ele><time>2026-04-30T15:48:59.963Z</time></trkpt><trkpt lat="45.9227307" lon="13.4628524"><ele>31.0</ele><time>2026-04-30T15:49:00.962Z</time></trkpt><trkpt lat="45.9226437" lon="13.463095"><ele>30.666666666666668</ele><time>2026-04-30T15:49:01.963Z</time></trkpt><trkpt lat="45.9225577" lon="13.4633392"><ele>30.333333333333336</ele><time>2026-04-30T15:49:02.962Z</time></trkpt><trkpt lat="45.9224721" lon="13.4635784"><ele>30.0</ele><time>2026-04-30T15:49:03.963Z</time></trkpt><trkpt lat="45.9223856" lon="13.4638179"><ele>30.0</ele><time>2026-04-30T15:49:04.963Z</time></trkpt><trkpt lat="45.9223005" lon="13.4640527"><ele>30.0</ele><time>2026-04-30T15:49:05.963Z</time></trkpt><trkpt lat="45.9222163" lon="13.4642852"><ele>30.0</ele><time>2026-04-30T15:49:06.962Z</time></trkpt><trkpt lat="45.9221349" lon="13.4645153"><ele>30.333333333333336</ele><time>2026-04-30T15:49:07.962Z</time></trkpt><trkpt lat="45.9220541" lon="13.4647465"><ele>30.666666666666668</ele><time>2026-04-30T15:49:08.962Z</time></trkpt><trkpt lat="45.9219737" lon="13.4649744"><ele>31.0</ele><time>2026-04-30T15:49:09.963Z</time></trkpt><trkpt lat="45.9218935" lon="13.465204"><ele>31.0</ele><time>2026-04-30T15:49:10.963Z</time></trkpt><trkpt lat="45.9218134" lon="13.4654311"><ele>31.0</ele><time>2026-04-30T15:49:11.963Z</time></trkpt><trkpt lat="45.9217289" lon="13.4656558"><ele>31.0</ele><time>2026-04-30T15:49:12.963Z</time></trkpt><trkpt lat="45.9216411" lon="13.4658721"><ele>31.0</ele><time>2026-04-30T15:49:13.962Z</time></trkpt><trkpt lat="45.9215511" lon="13.4660878"><ele>31.0</ele><time>2026-04-30T15:49:14.963Z</time></trkpt><trkpt lat="45.9214563" lon="13.4662963"><ele>31.0</ele><time>2026-04-30T15:49:15.963Z</time></trkpt><trkpt lat="45.9213555" lon="13.4664967"><ele>31.0</ele><time>2026-04-30T15:49:16.962Z</time></trkpt><trkpt lat="45.92125" lon="13.4666884"><ele>31.0</ele><time>2026-04-30T15:49:17.963Z</time></trkpt><trkpt lat="45.9211389" lon="13.4668686"><ele>31.0</ele><time>2026-04-30T15:49:18.963Z</time></trkpt><trkpt lat="45.9210255" lon="13.4670401"><ele>31.333333333333336</ele><time>2026-04-30T15:49:19.962Z</time></trkpt><trkpt lat="45.9209091" lon="13.4672022"><ele>31.666666666666664</ele><time>2026-04-30T15:49:20.963Z</time></trkpt><trkpt lat="45.9207895" lon="13.4673522"><ele>32.0</ele><time>2026-04-30T15:49:21.962Z</time></trkpt><trkpt lat="45.9206685" lon="13.4674934"><ele>32.0</ele><time>2026-04-30T15:49:22.962Z</time></trkpt><trkpt lat="45.9205493" lon="13.467626"><ele>32.0</ele><time>2026-04-30T15:49:23.962Z</time></trkpt><trkpt lat="45.920431" lon="13.4677514"><ele>32.0</ele><time>2026-04-30T15:49:24.963Z</time></trkpt><trkpt lat="45.9203176" lon="13.4678677"><ele>32.0</ele><time>2026-04-30T15:49:25.963Z</time></trkpt><trkpt lat="45.9202116" lon="13.4679725"><ele>32.0</ele><time>2026-04-30T15:49:26.962Z</time></trkpt><trkpt lat="45.9201118" lon="13.4680654"><ele>32.0</ele><time>2026-04-30T15:49:27.962Z</time></trkpt><trkpt lat="45.9200169" lon="13.4681484"><ele>32.0</ele><time>2026-04-30T15:49:28.962Z</time></trkpt><trkpt lat="45.9199248" lon="13.4682212"><ele>32.0</ele><time>2026-04-30T15:49:29.963Z</time></trkpt><trkpt lat="45.9198374" lon="13.4682826"><ele>32.0</ele><time>2026-04-30T15:49:30.963Z</time></trkpt><trkpt lat="45.9197484" lon="13.4683269"><ele>32.25</ele><time>2026-04-30T15:49:31.963Z</time></trkpt><trkpt lat="45.9196514" lon="13.4683504"><ele>32.5</ele><time>2026-04-30T15:49:32.962Z</time></trkpt><trkpt lat="45.9195437" lon="13.468356"><ele>32.75</ele><time>2026-04-30T15:49:33.963Z</time></trkpt><trkpt lat="45.9194184" lon="13.468381"><ele>33.0</ele><time>2026-04-30T15:49:34.962Z</time></trkpt><trkpt lat="45.9192992" lon="13.4684522"><ele>33.0</ele><time>2026-04-30T15:49:35.963Z</time></trkpt><trkpt lat="45.9191879" lon="13.4685444"><ele>33.0</ele><time>2026-04-30T15:49:36.963Z</time></trkpt><trkpt lat="45.9190635" lon="13.4686049"><ele>33.0</ele><time>2026-04-30T15:49:37.962Z</time></trkpt><trkpt lat="45.9189097" lon="13.4686232"><ele>33.0</ele><time>2026-04-30T15:49:38.963Z</time></trkpt><trkpt lat="45.918736" lon="13.4686147"><ele>33.0</ele><time>2026-04-30T15:49:39.963Z</time></trkpt><trkpt lat="45.9185429" lon="13.4685967"><ele>33.0</ele><time>2026-04-30T15:49:40.963Z</time></trkpt><trkpt lat="45.9183438" lon="13.4685735"><ele>33.0</ele><time>2026-04-30T15:49:41.963Z</time></trkpt><trkpt lat="45.9181514" lon="13.4685464"><ele>31.666666666666664</ele><time>2026-04-30T15:49:42.962Z</time></trkpt><trkpt lat="45.917962" lon="13.4685238"><ele>30.333333333333332</ele><time>2026-04-30T15:49:43.963Z</time></trkpt><trkpt lat="45.9177747" lon="13.468501"><ele>29.0</ele><time>2026-04-30T15:49:44.963Z</time></trkpt><trkpt lat="45.9175911" lon="13.4684774"><ele>29.0</ele><time>2026-04-30T15:49:45.962Z</time></trkpt><trkpt lat="45.9174069" lon="13.4684542"><ele>29.0</ele><time>2026-04-30T15:49:46.963Z</time></trkpt><trkpt lat="45.9172252" lon="13.4684323"><ele>29.0</ele><time>2026-04-30T15:49:47.963Z</time></trkpt><trkpt lat="45.917043" lon="13.4684127"><ele>29.0</ele><time>2026-04-30T15:49:48.963Z</time></trkpt><trkpt lat="45.9168577" lon="13.4683904"><ele>29.0</ele><time>2026-04-30T15:49:49.963Z</time></trkpt><trkpt lat="45.9166744" lon="13.4683662"><ele>29.0</ele><time>2026-04-30T15:49:50.962Z</time></trkpt><trkpt lat="45.9164875" lon="13.4683424"><ele>30.0</ele><time>2026-04-30T15:49:51.963Z</time></trkpt><trkpt lat="45.9163008" lon="13.4683195"><ele>31.0</ele><time>2026-04-30T15:49:52.962Z</time></trkpt><trkpt lat="45.9161133" lon="13.4682949"><ele>32.0</ele><time>2026-04-30T15:49:53.962Z</time></trkpt><trkpt lat="45.9159251" lon="13.4682685"><ele>32.0</ele><time>2026-04-30T15:49:54.963Z</time></trkpt><trkpt lat="45.9157401" lon="13.4682458"><ele>32.0</ele><time>2026-04-30T15:49:55.963Z</time></trkpt><trkpt lat="45.915562" lon="13.4682248"><ele>32.0</ele><time>2026-04-30T15:49:56.963Z</time></trkpt><trkpt lat="45.9153885" lon="13.4682055"><ele>32.0</ele><time>2026-04-30T15:49:57.962Z</time></trkpt><trkpt lat="45.9152198" lon="13.4681866"><ele>32.0</ele><time>2026-04-30T15:49:58.963Z</time></trkpt><trkpt lat="45.915065" lon="13.4681694"><ele>32.0</ele><time>2026-04-30T15:49:59.963Z</time></trkpt><trkpt lat="45.9149181" lon="13.4681504"><ele>31.5</ele><time>2026-04-30T15:50:00.963Z</time></trkpt><trkpt lat="45.9147777" lon="13.4681336"><ele>31.0</ele><time>2026-04-30T15:50:01.963Z</time></trkpt><trkpt lat="45.9146421" lon="13.4681166"><ele>30.5</ele><time>2026-04-30T15:50:02.962Z</time></trkpt><trkpt lat="45.9145191" lon="13.4681006"><ele>30.0</ele><time>2026-04-30T15:50:03.963Z</time></trkpt><trkpt lat="45.9144021" lon="13.4680837"><ele>30.0</ele><time>2026-04-30T15:50:04.963Z</time></trkpt><trkpt lat="45.914292" lon="13.4680683"><ele>30.0</ele><time>2026-04-30T15:50:05.961Z</time></trkpt><trkpt lat="45.9141884" lon="13.4680532"><ele>30.0</ele><time>2026-04-30T15:50:06.963Z</time></trkpt><trkpt lat="45.9140813" lon="13.4680408"><ele>30.0</ele><time>2026-04-30T15:50:07.962Z</time></trkpt><trkpt lat="45.9139752" lon="13.468029"><ele>30.0</ele><time>2026-04-30T15:50:08.963Z</time></trkpt><trkpt lat="45.9138643" lon="13.4680145"><ele>29.5</ele><time>2026-04-30T15:50:09.963Z</time></trkpt><trkpt lat="45.9137514" lon="13.468"><ele>29.0</ele><time>2026-04-30T15:50:10.962Z</time></trkpt><trkpt lat="45.9136347" lon="13.4679848"><ele>28.5</ele><time>2026-04-30T15:50:11.963Z</time></trkpt><trkpt lat="45.9135138" lon="13.4679715"><ele>28.0</ele><time>2026-04-30T15:50:12.963Z</time></trkpt><trkpt lat="45.9133794" lon="13.4679554"><ele>28.666666666666668</ele><time>2026-04-30T15:50:13.962Z</time></trkpt><trkpt lat="45.9132231" lon="13.4679422"><ele>29.333333333333336</ele><time>2026-04-30T15:50:14.963Z</time></trkpt><trkpt lat="45.9130461" lon="13.467923"><ele>30.0</ele><time>2026-04-30T15:50:15.962Z</time></trkpt><trkpt lat="45.9128556" lon="13.4678975"><ele>30.0</ele><time>2026-04-30T15:50:16.963Z</time></trkpt><trkpt lat="45.912643" lon="13.4678707"><ele>30.0</ele><time>2026-04-30T15:50:17.962Z</time></trkpt><trkpt lat="45.9124224" lon="13.467845"><ele>30.0</ele><time>2026-04-30T15:50:18.963Z</time></trkpt><trkpt lat="45.9122025" lon="13.4678142"><ele>29.0</ele><time>2026-04-30T15:50:19.963Z</time></trkpt><trkpt lat="45.9119741" lon="13.4677826"><ele>28.0</ele><time>2026-04-30T15:50:20.962Z</time></trkpt><trkpt lat="45.9117429" lon="13.467745"><ele>28.5</ele><time>2026-04-30T15:50:21.963Z</time></trkpt><trkpt lat="45.9115138" lon="13.4677117"><ele>29.0</ele><time>2026-04-30T15:50:22.962Z</time></trkpt><trkpt lat="45.9112839" lon="13.4676815"><ele>29.0</ele><time>2026-04-30T15:50:23.963Z</time></trkpt><trkpt lat="45.9110537" lon="13.4676519"><ele>29.0</ele><time>2026-04-30T15:50:24.963Z</time></trkpt><trkpt lat="45.9108247" lon="13.4676221"><ele>29.5</ele><time>2026-04-30T15:50:25.962Z</time></trkpt><trkpt lat="45.910594" lon="13.4675903"><ele>30.0</ele><time>2026-04-30T15:50:26.963Z</time></trkpt><trkpt lat="45.9103627" lon="13.4675588"><ele>30.0</ele><time>2026-04-30T15:50:27.963Z</time></trkpt><trkpt lat="45.9101302" lon="13.4675288"><ele>30.0</ele><time>2026-04-30T15:50:28.963Z</time></trkpt><trkpt lat="45.9098995" lon="13.4675005"><ele>29.0</ele><time>2026-04-30T15:50:29.963Z</time></trkpt><trkpt lat="45.909671" lon="13.46747"><ele>28.0</ele><time>2026-04-30T15:50:30.962Z</time></trkpt><trkpt lat="45.9094451" lon="13.4674381"><ele>29.5</ele><time>2026-04-30T15:50:31.962Z</time></trkpt><trkpt lat="45.9092177" lon="13.4674102"><ele>31.0</ele><time>2026-04-30T15:50:32.963Z</time></trkpt><trkpt lat="45.9089909" lon="13.4673846"><ele>31.0</ele><time>2026-04-30T15:50:33.963Z</time></trkpt><trkpt lat="45.908763" lon="13.4673587"><ele>31.0</ele><time>2026-04-30T15:50:34.963Z</time></trkpt><trkpt lat="45.9085302" lon="13.4673303"><ele>30.5</ele><time>2026-04-30T15:50:35.962Z</time></trkpt><trkpt lat="45.9082943" lon="13.4673034"><ele>30.0</ele><time>2026-04-30T15:50:36.963Z</time></trkpt><trkpt lat="45.9080563" lon="13.4672706"><ele>30.0</ele><time>2026-04-30T15:50:37.962Z</time></trkpt><trkpt lat="45.907809" lon="13.4672378"><ele>30.0</ele><time>2026-04-30T15:50:38.963Z</time></trkpt><trkpt lat="45.9075419" lon="13.4672011"><ele>29.5</ele><time>2026-04-30T15:50:39.963Z</time></trkpt><trkpt lat="45.9072666" lon="13.4671649"><ele>29.0</ele><time>2026-04-30T15:50:40.963Z</time></trkpt><trkpt lat="45.9069989" lon="13.4671307"><ele>28.5</ele><time>2026-04-30T15:50:41.963Z</time></trkpt><trkpt lat="45.9067379" lon="13.4670944"><ele>28.0</ele><time>2026-04-30T15:50:42.962Z</time></trkpt><trkpt lat="45.9064841" lon="13.4670613"><ele>28.0</ele><time>2026-04-30T15:50:43.963Z</time></trkpt><trkpt lat="45.9062354" lon="13.4670288"><ele>28.0</ele><time>2026-04-30T15:50:44.962Z</time></trkpt><trkpt lat="45.9059925" lon="13.4669966"><ele>29.0</ele><time>2026-04-30T15:50:45.963Z</time></trkpt><trkpt lat="45.9057534" lon="13.4669708"><ele>30.0</ele><time>2026-04-30T15:50:46.962Z</time></trkpt><trkpt lat="45.9055211" lon="13.4669472"><ele>30.0</ele><time>2026-04-30T15:50:47.963Z</time></trkpt><trkpt lat="45.9052904" lon="13.4669221"><ele>30.0</ele><time>2026-04-30T15:50:48.962Z</time></trkpt><trkpt lat="45.9050609" lon="13.4668915"><ele>29.666666666666664</ele><time>2026-04-30T15:50:49.963Z</time></trkpt><trkpt lat="45.904839" lon="13.4668611"><ele>29.333333333333332</ele><time>2026-04-30T15:50:50.963Z</time></trkpt><trkpt lat="45.9046194" lon="13.4668321"><ele>29.0</ele><time>2026-04-30T15:50:51.963Z</time></trkpt><trkpt lat="45.904402" lon="13.4668012"><ele>29.666666666666664</ele><time>2026-04-30T15:50:52.962Z</time></trkpt><trkpt lat="45.9041822" lon="13.4667743"><ele>30.333333333333336</ele><time>2026-04-30T15:50:53.962Z</time></trkpt><trkpt lat="45.903962" lon="13.4667541"><ele>31.0</ele><time>2026-04-30T15:50:54.962Z</time></trkpt><trkpt lat="45.9037406" lon="13.4667279"><ele>31.0</ele><time>2026-04-30T15:50:55.963Z</time></trkpt><trkpt lat="45.9035197" lon="13.4667023"><ele>31.0</ele><time>2026-04-30T15:50:56.962Z</time></trkpt><trkpt lat="45.9032967" lon="13.4666824"><ele>31.0</ele><time>2026-04-30T15:50:57.962Z</time></trkpt><trkpt lat="45.903074" lon="13.4666797"><ele>30.666666666666668</ele><time>2026-04-30T15:50:58.961Z</time></trkpt><trkpt lat="45.9028556" lon="13.4666906"><ele>30.333333333333336</ele><time>2026-04-30T15:50:59.963Z</time></trkpt><trkpt lat="45.9026358" lon="13.466717"><ele>30.0</ele><time>2026-04-30T15:51:00.962Z</time></trkpt><trkpt lat="45.902421" lon="13.4667652"><ele>29.0</ele><time>2026-04-30T15:51:01.963Z</time></trkpt><trkpt lat="45.9022091" lon="13.4668315"><ele>28.0</ele><time>2026-04-30T15:51:02.962Z</time></trkpt><trkpt lat="45.901996" lon="13.4669125"><ele>27.0</ele><time>2026-04-30T15:51:03.963Z</time></trkpt><trkpt lat="45.9017876" lon="13.4670116"><ele>27.0</ele><time>2026-04-30T15:51:04.963Z</time></trkpt><trkpt lat="45.9015826" lon="13.4671281"><ele>27.0</ele><time>2026-04-30T15:51:05.962Z</time></trkpt><trkpt lat="45.9013848" lon="13.4672628"><ele>27.0</ele><time>2026-04-30T15:51:06.963Z</time></trkpt><trkpt lat="45.9011918" lon="13.467415"><ele>27.0</ele><time>2026-04-30T15:51:07.963Z</time></trkpt><trkpt lat="45.901008" lon="13.467584"><ele>27.0</ele><time>2026-04-30T15:51:08.962Z</time></trkpt><trkpt lat="45.9008315" lon="13.4677708"><ele>27.0</ele><time>2026-04-30T15:51:09.963Z</time></trkpt><trkpt lat="45.9006644" lon="13.4679728"><ele>25.333333333333332</ele><time>2026-04-30T15:51:10.962Z</time></trkpt><trkpt lat="45.9005085" lon="13.4681859"><ele>23.666666666666664</ele><time>2026-04-30T15:51:11.963Z</time></trkpt><trkpt lat="45.9003596" lon="13.4684102"><ele>22.0</ele><time>2026-04-30T15:51:12.962Z</time></trkpt><trkpt lat="45.9002224" lon="13.4686445"><ele>22.333333333333332</ele><time>2026-04-30T15:51:13.963Z</time></trkpt><trkpt lat="45.9001032" lon="13.4688774"><ele>22.666666666666668</ele><time>2026-04-30T15:51:14.963Z</time></trkpt><trkpt lat="45.8999961" lon="13.4691073"><ele>23.0</ele><time>2026-04-30T15:51:15.963Z</time></trkpt><trkpt lat="45.899905" lon="13.4693288"><ele>24.333333333333336</ele><time>2026-04-30T15:51:16.962Z</time></trkpt><trkpt lat="45.8998243" lon="13.4695461"><ele>25.666666666666668</ele><time>2026-04-30T15:51:17.963Z</time></trkpt><trkpt lat="45.8997526" lon="13.4697591"><ele>27.0</ele><time>2026-04-30T15:51:18.963Z</time></trkpt><trkpt lat="45.8996918" lon="13.4699687"><ele>27.0</ele><time>2026-04-30T15:51:19.962Z</time></trkpt><trkpt lat="45.8996392" lon="13.4701745"><ele>27.0</ele><time>2026-04-30T15:51:20.963Z</time></trkpt><trkpt lat="45.8995939" lon="13.4703668"><ele>27.0</ele><time>2026-04-30T15:51:21.963Z</time></trkpt><trkpt lat="45.899553" lon="13.4705448"><ele>27.0</ele><time>2026-04-30T15:51:22.962Z</time></trkpt><trkpt lat="45.8995199" lon="13.4707129"><ele>27.0</ele><time>2026-04-30T15:51:23.963Z</time></trkpt><trkpt lat="45.8994897" lon="13.4708802"><ele>27.000000000000004</ele><time>2026-04-30T15:51:24.962Z</time></trkpt><trkpt lat="45.8994567" lon="13.4710424"><ele>27.000000000000004</ele><time>2026-04-30T15:51:25.963Z</time></trkpt><trkpt lat="45.8994215" lon="13.4711896"><ele>27.0</ele><time>2026-04-30T15:51:26.963Z</time></trkpt><trkpt lat="45.8993891" lon="13.4713258"><ele>27.0</ele><time>2026-04-30T15:51:27.963Z</time></trkpt><trkpt lat="45.8993572" lon="13.4714464"><ele>27.333333333333332</ele><time>2026-04-30T15:51:28.963Z</time></trkpt><trkpt lat="45.899331" lon="13.4715304"><ele>27.666666666666664</ele><time>2026-04-30T15:51:29.962Z</time></trkpt><trkpt lat="45.8992961" lon="13.4716338"><ele>28.0</ele><time>2026-04-30T15:51:31.963Z</time></trkpt><trkpt lat="45.8992468" lon="13.471736"><ele>28.333333333333332</ele><time>2026-04-30T15:51:34.963Z</time></trkpt><trkpt lat="45.8991572" lon="13.4718419"><ele>28.666666666666664</ele><time>2026-04-30T15:51:36.963Z</time></trkpt><trkpt lat="45.8990961" lon="13.4719262"><ele>29.0</ele><time>2026-04-30T15:51:37.963Z</time></trkpt><trkpt lat="45.8990432" lon="13.4720331"><ele>29.0</ele><time>2026-04-30T15:51:38.963Z</time></trkpt><trkpt lat="45.8990143" lon="13.4721677"><ele>29.0</ele><time>2026-04-30T15:51:39.963Z</time></trkpt><trkpt lat="45.8990028" lon="13.4723163"><ele>29.0</ele><time>2026-04-30T15:51:40.963Z</time></trkpt><trkpt lat="45.8989673" lon="13.4724683"><ele>29.0</ele><time>2026-04-30T15:51:41.962Z</time></trkpt><trkpt lat="45.8988906" lon="13.4726306"><ele>29.0</ele><time>2026-04-30T15:51:42.963Z</time></trkpt><trkpt lat="45.8987811" lon="13.4727926"><ele>29.0</ele><time>2026-04-30T15:51:43.962Z</time></trkpt><trkpt lat="45.8986395" lon="13.4729417"><ele>29.0</ele><time>2026-04-30T15:51:44.963Z</time></trkpt><trkpt lat="45.8984689" lon="13.4730803"><ele>29.333333333333332</ele><time>2026-04-30T15:51:45.962Z</time></trkpt><trkpt lat="45.8982848" lon="13.4732031"><ele>29.666666666666664</ele><time>2026-04-30T15:51:46.963Z</time></trkpt><trkpt lat="45.8980981" lon="13.4733141"><ele>30.0</ele><time>2026-04-30T15:51:47.962Z</time></trkpt><trkpt lat="45.897907" lon="13.4734205"><ele>30.0</ele><time>2026-04-30T15:51:48.963Z</time></trkpt><trkpt lat="45.8977074" lon="13.4735217"><ele>30.0</ele><time>2026-04-30T15:51:49.963Z</time></trkpt><trkpt lat="45.8975304" lon="13.4736323"><ele>30.0</ele><time>2026-04-30T15:51:50.963Z</time></trkpt><trkpt lat="45.8973446" lon="13.4737317"><ele>30.0</ele><time>2026-04-30T15:51:51.963Z</time></trkpt><trkpt lat="45.8971621" lon="13.4738336"><ele>30.0</ele><time>2026-04-30T15:51:52.963Z</time></trkpt><trkpt lat="45.8969871" lon="13.4739322"><ele>30.0</ele><time>2026-04-30T15:51:53.963Z</time></trkpt><trkpt lat="45.8968189" lon="13.4740289"><ele>29.666666666666664</ele><time>2026-04-30T15:51:54.962Z</time></trkpt><trkpt lat="45.8966553" lon="13.4741211"><ele>29.333333333333332</ele><time>2026-04-30T15:51:55.963Z</time></trkpt><trkpt lat="45.8964986" lon="13.4742085"><ele>29.0</ele><time>2026-04-30T15:51:56.962Z</time></trkpt><trkpt lat="45.8963464" lon="13.4742938"><ele>29.0</ele><time>2026-04-30T15:51:57.963Z</time></trkpt><trkpt lat="45.8961975" lon="13.4743752"><ele>29.0</ele><time>2026-04-30T15:51:58.963Z</time></trkpt><trkpt lat="45.8960486" lon="13.4744573"><ele>29.0</ele><time>2026-04-30T15:51:59.963Z</time></trkpt><trkpt lat="45.8959064" lon="13.4745409"><ele>29.333333333333332</ele><time>2026-04-30T15:52:00.963Z</time></trkpt><trkpt lat="45.895766" lon="13.4746244"><ele>29.666666666666664</ele><time>2026-04-30T15:52:01.962Z</time></trkpt><trkpt lat="45.8956228" lon="13.4747045"><ele>30.0</ele><time>2026-04-30T15:52:02.963Z</time></trkpt><trkpt lat="45.8954875" lon="13.4747785"><ele>30.0</ele><time>2026-04-30T15:52:03.962Z</time></trkpt><trkpt lat="45.8953525" lon="13.4748508"><ele>30.0</ele><time>2026-04-30T15:52:04.963Z</time></trkpt><trkpt lat="45.8952194" lon="13.4749256"><ele>30.0</ele><time>2026-04-30T15:52:05.962Z</time></trkpt><trkpt lat="45.8950908" lon="13.4749988"><ele>30.0</ele><time>2026-04-30T15:52:06.963Z</time></trkpt><trkpt lat="45.8949596" lon="13.4750739"><ele>29.5</ele><time>2026-04-30T15:52:07.962Z</time></trkpt><trkpt lat="45.8948321" lon="13.4751426"><ele>29.0</ele><time>2026-04-30T15:52:08.963Z</time></trkpt><trkpt lat="45.8947069" lon="13.475213"><ele>28.5</ele><time>2026-04-30T15:52:09.963Z</time></trkpt><trkpt lat="45.8945824" lon="13.4752826"><ele>28.0</ele><time>2026-04-30T15:52:10.962Z</time></trkpt><trkpt lat="45.894456" lon="13.4753538"><ele>28.0</ele><time>2026-04-30T15:52:11.962Z</time></trkpt><trkpt lat="45.8943298" lon="13.4754201"><ele>28.0</ele><time>2026-04-30T15:52:12.963Z</time></trkpt><trkpt lat="45.8942051" lon="13.4754904"><ele>28.0</ele><time>2026-04-30T15:52:13.963Z</time></trkpt><trkpt lat="45.8940757" lon="13.4755622"><ele>28.0</ele><time>2026-04-30T15:52:14.962Z</time></trkpt><trkpt lat="45.8939505" lon="13.4756264"><ele>28.75</ele><time>2026-04-30T15:52:15.962Z</time></trkpt><trkpt lat="45.8938314" lon="13.4757009"><ele>29.5</ele><time>2026-04-30T15:52:16.963Z</time></trkpt><trkpt lat="45.8937104" lon="13.4757661"><ele>30.25</ele><time>2026-04-30T15:52:17.962Z</time></trkpt><trkpt lat="45.893593" lon="13.4758356"><ele>31.0</ele><time>2026-04-30T15:52:18.963Z</time></trkpt><trkpt lat="45.8934788" lon="13.4759027"><ele>30.8</ele><time>2026-04-30T15:52:19.962Z</time></trkpt><trkpt lat="45.8933651" lon="13.4759685"><ele>30.6</ele><time>2026-04-30T15:52:20.963Z</time></trkpt><trkpt lat="45.8932563" lon="13.4760237"><ele>30.4</ele><time>2026-04-30T15:52:21.963Z</time></trkpt><trkpt lat="45.8931557" lon="13.476079"><ele>30.2</ele><time>2026-04-30T15:52:22.963Z</time></trkpt><trkpt lat="45.8930658" lon="13.476126"><ele>30.0</ele><time>2026-04-30T15:52:23.963Z</time></trkpt><trkpt lat="45.8929826" lon="13.4761712"><ele>30.0</ele><time>2026-04-30T15:52:24.963Z</time></trkpt><trkpt lat="45.8929069" lon="13.4762113"><ele>30.0</ele><time>2026-04-30T15:52:25.963Z</time></trkpt><trkpt lat="45.8928357" lon="13.4762512"><ele>30.0</ele><time>2026-04-30T15:52:26.963Z</time></trkpt><trkpt lat="45.8927712" lon="13.4762854"><ele>30.0</ele><time>2026-04-30T15:52:27.963Z</time></trkpt><trkpt lat="45.8927107" lon="13.4763149"><ele>30.0</ele><time>2026-04-30T15:52:28.963Z</time></trkpt><trkpt lat="45.8925956" lon="13.4763637"><ele>30.0</ele><time>2026-04-30T15:52:30.962Z</time></trkpt><trkpt lat="45.8924907" lon="13.4764016"><ele>30.0</ele><time>2026-04-30T15:52:32.963Z</time></trkpt><trkpt lat="45.8924114" lon="13.4764087"><ele>30.0</ele><time>2026-04-30T15:52:34.963Z</time></trkpt><trkpt lat="45.8923344" lon="13.4763898"><ele>30.0</ele><time>2026-04-30T15:52:38.963Z</time></trkpt><trkpt lat="45.8922361" lon="13.4763544"><ele>30.0</ele><time>2026-04-30T15:52:41.962Z</time></trkpt><trkpt lat="45.89212" lon="13.4763754"><ele>30.0</ele><time>2026-04-30T15:52:43.962Z</time></trkpt><trkpt lat="45.8920407" lon="13.4764461"><ele>30.0</ele><time>2026-04-30T15:52:44.961Z</time></trkpt><trkpt lat="45.891964" lon="13.4765366"><ele>30.0</ele><time>2026-04-30T15:52:45.962Z</time></trkpt><trkpt lat="45.8918805" lon="13.4766293"><ele>30.0</ele><time>2026-04-30T15:52:46.962Z</time></trkpt><trkpt lat="45.8917896" lon="13.4767141"><ele>30.0</ele><time>2026-04-30T15:52:47.961Z</time></trkpt><trkpt lat="45.8916942" lon="13.4768037"><ele>30.0</ele><time>2026-04-30T15:52:48.961Z</time></trkpt><trkpt lat="45.8915921" lon="13.4768977"><ele>30.0</ele><time>2026-04-30T15:52:49.961Z</time></trkpt><trkpt lat="45.8914797" lon="13.4769842"><ele>30.0</ele><time>2026-04-30T15:52:50.962Z</time></trkpt><trkpt lat="45.8913538" lon="13.4770579"><ele>30.0</ele><time>2026-04-30T15:52:51.962Z</time></trkpt><trkpt lat="45.8912181" lon="13.4771172"><ele>30.0</ele><time>2026-04-30T15:52:52.961Z</time></trkpt><trkpt lat="45.8910757" lon="13.4771706"><ele>30.0</ele><time>2026-04-30T15:52:53.962Z</time></trkpt><trkpt lat="45.8909296" lon="13.4772195"><ele>30.0</ele><time>2026-04-30T15:52:54.962Z</time></trkpt><trkpt lat="45.8907772" lon="13.4772673"><ele>30.0</ele><time>2026-04-30T15:52:55.962Z</time></trkpt><trkpt lat="45.8906192" lon="13.4773147"><ele>29.333333333333336</ele><time>2026-04-30T15:52:56.962Z</time></trkpt><trkpt lat="45.8904643" lon="13.4773579"><ele>28.666666666666668</ele><time>2026-04-30T15:52:57.961Z</time></trkpt><trkpt lat="45.8903135" lon="13.4774022"><ele>28.0</ele><time>2026-04-30T15:52:58.961Z</time></trkpt><trkpt lat="45.8901688" lon="13.477444"><ele>28.75</ele><time>2026-04-30T15:52:59.962Z</time></trkpt><trkpt lat="45.8900267" lon="13.4774836"><ele>29.5</ele><time>2026-04-30T15:53:00.962Z</time></trkpt><trkpt lat="45.8898867" lon="13.4775307"><ele>30.25</ele><time>2026-04-30T15:53:01.962Z</time></trkpt><trkpt lat="45.8897482" lon="13.4775811"><ele>31.0</ele><time>2026-04-30T15:53:02.961Z</time></trkpt><trkpt lat="45.8896159" lon="13.4776371"><ele>31.0</ele><time>2026-04-30T15:53:03.961Z</time></trkpt><trkpt lat="45.8894962" lon="13.4776968"><ele>31.0</ele><time>2026-04-30T15:53:04.962Z</time></trkpt><trkpt lat="45.889383" lon="13.4777607"><ele>31.0</ele><time>2026-04-30T15:53:05.962Z</time></trkpt><trkpt lat="45.8892779" lon="13.4778266"><ele>31.0</ele><time>2026-04-30T15:53:06.962Z</time></trkpt><trkpt lat="45.8891813" lon="13.4778877"><ele>30.0</ele><time>2026-04-30T15:53:07.962Z</time></trkpt><trkpt lat="45.8891049" lon="13.4779411"><ele>28.0</ele><time>2026-04-30T15:53:08.962Z</time></trkpt><trkpt lat="45.889041" lon="13.4779721"><ele>28.0</ele><time>2026-04-30T15:53:09.961Z</time></trkpt><trkpt lat="45.8889481" lon="13.4779456"><ele>28.0</ele><time>2026-04-30T15:53:11.962Z</time></trkpt><trkpt lat="45.8888768" lon="13.4779202"><ele>30.0</ele><time>2026-04-30T15:53:13.961Z</time></trkpt></trkseg></trk></gpx>